Provisional Data: West Branch Owego Creek near Speedsville, NY


Please select a monitoring station.
Please select start date.
Please select start date.

Toggle Unit: C/F Toggle Unit: C/F
Sample Time Temperature (C) Temperature (F) Specific Conductivity (mS/cm) pH   Turbidity (NTU+) DO (mg/L)
1/12/2021 12:00:00 AM 1.72 35.096 0.182 8.04 2.95 13.19
1/12/2021 12:15:00 AM 1.72 35.096 0.182 8.04 3 13.19
1/12/2021 12:30:00 AM 1.72 35.096 0.182 8.03 3.09 13.19
1/12/2021 12:45:00 AM 1.72 35.096 0.182 8.04 3.13 13.19
1/12/2021 1:00:00 AM 1.72 35.096 0.182 8.04 3.69 13.19
1/12/2021 1:15:00 AM 1.72 35.096 0.182 8.04 4.42 13.19
1/12/2021 1:30:00 AM 1.72 35.096 0.182 8.03 3.15 13.18
1/12/2021 1:45:00 AM 1.72 35.096 0.182 8.03 2.91 13.18
1/12/2021 2:00:00 AM 1.74 35.132 0.181 8.03 2.98 13.15
1/12/2021 2:15:00 AM 1.74 35.132 0.181 8.02 2.68 13.14
1/12/2021 2:30:00 AM 1.72 35.096 0.182 8.03 2.95 13.17
1/12/2021 2:45:00 AM 1.72 35.096 0.182 8.04 2.96 13.18
1/12/2021 3:00:00 AM 1.72 35.096 0.182 8.04 2.85 13.18
1/12/2021 3:15:00 AM 1.72 35.096 0.182 8.04 2.81 13.17
1/12/2021 3:30:00 AM 1.73 35.114 0.182 8.04 2.68 13.18
1/12/2021 3:45:00 AM 1.73 35.114 0.182 8.03 2.88 13.17
1/12/2021 4:00:00 AM 1.74 35.132 0.182 8.03 2.82 13.16
1/12/2021 4:15:00 AM 1.74 35.132 0.182 8.03 2.89 13.16
1/12/2021 4:30:00 AM 1.74 35.132 0.182 8.04 2.79 13.17
1/12/2021 4:45:00 AM 1.74 35.132 0.182 8.03 2.78 13.16
1/12/2021 5:00:00 AM 1.74 35.132 0.182 8.03 2.68 13.17
1/12/2021 5:15:00 AM 1.74 35.132 0.182 8.03 2.64 13.16
1/12/2021 5:30:00 AM 1.74 35.132 0.182 8.04 2.71 13.16
1/12/2021 5:45:00 AM 1.74 35.132 0.182 8.02 2.65 13.16
1/12/2021 6:00:00 AM 1.74 35.132 0.182 8.04 2.82 13.16
1/12/2021 6:15:00 AM 1.74 35.132 0.182 8.04 2.75 13.16
1/12/2021 6:30:00 AM 1.75 35.15 0.182 8.03 2.57 13.16
1/12/2021 6:45:00 AM 1.75 35.15 0.182 8.03 2.73 13.15
1/12/2021 7:00:00 AM 1.79 35.222 0.181 8.01 2.75 13.07
1/12/2021 7:15:00 AM 1.61 34.898 0 7.91 3.24 13.27
1/12/2021 7:30:00 AM 1.8 35.24 0.185 7.63 3.04 13.08
1/12/2021 7:45:00 AM 1.83 35.294 0.184 7.53 2.84 13
1/12/2021 8:00:00 AM 1.84 35.312 0.183 7.49 2.71 13.01
1/12/2021 8:15:00 AM 1.83 35.294 0.184 7.48 2.66 13.01
1/12/2021 8:30:00 AM 1.82 35.276 0.184 7.47 2.71 13.04
1/12/2021 8:45:00 AM 1.85 35.33 0.184 7.45 2.63 13.03
1/12/2021 9:00:00 AM 1.88 35.384 0.184 7.45 2.54 13.04
1/12/2021 9:15:00 AM 1.89 35.402 0.184 7.44 2.71 13.07
1/12/2021 9:30:00 AM 1.93 35.474 0.184 7.44 2.66 13.07
1/12/2021 9:45:00 AM 1.95 35.51 0.184 7.44 2.57 13.09
1/12/2021 10:00:00 AM 1.96 35.528 0.185 7.47 2.59 13.15
1/12/2021 10:15:00 AM 2 35.6 0.185 7.47 2.43 13.16
1/12/2021 10:30:00 AM 2.05 35.69 0.185 7.47 2.47 13.16
1/12/2021 10:45:00 AM 2.09 35.762 0.185 7.47 2.53 13.15
1/12/2021 11:00:00 AM 2.14 35.852 0.184 7.49 2.41 13.14
1/12/2021 11:15:00 AM 2.18 35.924 0.184 7.45 2.48 13.11
1/12/2021 11:30:00 AM 2.16 35.888 0.185 7.5 2.41 13.18
1/12/2021 11:45:00 AM 2.22 35.996 0.185 7.5 2.49 13.16
1/12/2021 12:00:00 PM 2.27 36.086 0.184 7.47 2.39 13.11
1/12/2021 12:15:00 PM 2.28 36.104 0.185 7.49 2.47 13.13
1/12/2021 12:30:00 PM 2.32 36.176 0.184 7.47 2.34 13.09
1/12/2021 12:45:00 PM 2.34 36.212 0.184 7.46 2.38 13.08
1/12/2021 1:00:00 PM 2.36 36.248 0.184 7.45 2.48 13.06
1/12/2021 1:15:00 PM 2.37 36.266 0.184 7.49 2.43 13.08
1/12/2021 1:30:00 PM 2.39 36.302 0.185 7.48 2.4 13.09
1/12/2021 1:45:00 PM 2.43 36.374 0.184 7.49 2.46 13.05
1/12/2021 2:00:00 PM 2.45 36.41 0.184 7.48 2.33 13.05
1/12/2021 2:15:00 PM 2.46 36.428 0.184 7.47 2.31 13.03
1/12/2021 2:30:00 PM 2.45 36.41 0.185 7.48 2.38 13.05
1/12/2021 2:45:00 PM 2.47 36.446 0.184 7.47 2.42 13.02
1/12/2021 3:00:00 PM 2.49 36.482 0.184 7.44 2.42 12.97
1/12/2021 3:15:00 PM 2.48 36.464 0.184 7.46 2.36 12.99
1/12/2021 3:30:00 PM 2.49 36.482 0.183 7.47 2.33 12.97
1/12/2021 3:45:00 PM 2.46 36.428 0.184 7.46 2.42 12.98
1/12/2021 4:00:00 PM 2.47 36.446 0.183 7.44 2.3 12.92
1/12/2021 4:15:00 PM 2.44 36.392 0.184 7.47 2.47 12.94
1/12/2021 4:30:00 PM 2.44 36.392 0.184 7.45 2.41 12.9
1/12/2021 4:45:00 PM 2.41 36.338 0.184 7.47 2.4 12.92
1/12/2021 5:00:00 PM 2.41 36.338 0.184 7.43 2.46 12.87
1/12/2021 5:15:00 PM 2.41 36.338 0.183 7.43 2.37 12.84
1/12/2021 5:30:00 PM 2.39 36.302 0.184 7.42 2.28 12.84
1/12/2021 5:45:00 PM 2.35 36.23 0.185 7.44 2.37 12.87
1/12/2021 6:00:00 PM 2.34 36.212 0.185 7.45 2.46 12.88
1/12/2021 6:15:00 PM 2.31 36.158 0.185 7.46 2.45 12.89
1/12/2021 6:30:00 PM 2.3 36.14 0.185 7.45 2.51 12.88
1/12/2021 6:45:00 PM 2.29 36.122 0.185 7.46 2.49 12.88
1/12/2021 7:00:00 PM 2.27 36.086 0.186 7.46 2.45 12.88
1/12/2021 7:15:00 PM 2.26 36.068 0.186 7.46 2.47 12.88
1/12/2021 7:30:00 PM 2.24 36.032 0.186 7.46 2.52 12.88
1/12/2021 7:45:00 PM 2.23 36.014 0.186 7.45 2.48 12.88
1/12/2021 8:00:00 PM 2.22 35.996 0.186 7.45 2.56 12.88
1/12/2021 8:15:00 PM 2.2 35.96 0.186 7.45 2.69 12.88
1/12/2021 8:30:00 PM 2.19 35.942 0.186 7.45 2.99 12.88
1/12/2021 8:45:00 PM 2.18 35.924 0.186 7.45 3.49 12.89
1/12/2021 9:00:00 PM 2.17 35.906 0.186 7.45 4.17 12.89
1/12/2021 9:15:00 PM 2.15 35.87 0.186 7.45 2.7 12.89
1/12/2021 9:30:00 PM 2.14 35.852 0.186 7.44 2.7 12.9
1/12/2021 9:45:00 PM 2.13 35.834 0.186 7.44 2.61 12.9
1/12/2021 10:00:00 PM 2.12 35.816 0.186 7.44 2.58 12.9
1/12/2021 10:15:00 PM 2.11 35.798 0.186 7.44 2.73 12.91
1/12/2021 10:30:00 PM 2.11 35.798 0.186 7.44 2.71 12.9
1/12/2021 10:45:00 PM 2.1 35.78 0.186 7.44 2.72 12.9
1/12/2021 11:00:00 PM 2.09 35.762 0.186 7.44 2.84 12.91
1/12/2021 11:15:00 PM 2.08 35.744 0.186 7.44 2.98 12.91
1/12/2021 11:30:00 PM 2.07 35.726 0.186 7.43 2.87 12.91
1/12/2021 11:45:00 PM 2.06 35.708 0.187 7.43 3.56 12.91
1/13/2021 12:00:00 AM 2.06 35.708 0.186 7.43 3.69 12.91
1/13/2021 12:15:00 AM 2.05 35.69 0.187 7.44 3.39 12.91
1/13/2021 12:30:00 AM 2.04 35.672 0.187 7.43 2.83 12.91
1/13/2021 12:45:00 AM 2.05 35.69 0.186 7.42 2.95 12.89
1/13/2021 1:00:00 AM 2.03 35.654 0.187 7.43 2.79 12.91
1/13/2021 1:15:00 AM 2.02 35.636 0.187 7.43 3.07 12.92
1/13/2021 1:30:00 AM 2.02 35.636 0.187 7.43 2.99 12.91
1/13/2021 1:45:00 AM 2.01 35.618 0.187 7.43 3 12.91
1/13/2021 2:00:00 AM 2.01 35.618 0.187 7.43 2.95 12.92
1/13/2021 2:15:00 AM 2 35.6 0.187 7.43 2.91 12.92
1/13/2021 2:30:00 AM 2 35.6 0.187 7.43 2.76 12.91
1/13/2021 2:45:00 AM 1.99 35.582 0.187 7.42 2.73 12.91
1/13/2021 3:00:00 AM 1.99 35.582 0.187 7.43 2.87 12.92
1/13/2021 3:15:00 AM 1.98 35.564 0.187 7.42 2.79 12.91
1/13/2021 3:30:00 AM 1.97 35.546 0.187 7.43 2.9 12.92
1/13/2021 3:45:00 AM 1.97 35.546 0.187 7.42 2.84 12.91
1/13/2021 4:00:00 AM 1.98 35.564 0.187 7.4 2.89 12.89
1/13/2021 4:15:00 AM 1.96 35.528 0.187 7.41 3.68 12.91
1/13/2021 4:30:00 AM 1.95 35.51 0.187 7.42 3.8 12.91
1/13/2021 4:45:00 AM 1.94 35.492 0.187 7.42 3.75 12.91
1/13/2021 5:00:00 AM 1.94 35.492 0.187 7.42 2.96 12.91
1/13/2021 5:15:00 AM 1.94 35.492 0.187 7.41 2.92 12.9
1/13/2021 5:30:00 AM 1.92 35.456 0.187 7.42 3.01 12.92
1/13/2021 5:45:00 AM 1.91 35.438 0.187 7.43 2.94 12.92
1/13/2021 6:00:00 AM 1.91 35.438 0.187 7.41 3.48 12.92
1/13/2021 6:15:00 AM 1.9 35.42 0.187 7.42 4.8 12.92
1/13/2021 6:30:00 AM 1.9 35.42 0.187 7.42 3.12 12.91
1/13/2021 6:45:00 AM 1.91 35.438 0.187 7.39 2.91 12.88
1/13/2021 7:00:00 AM 1.88 35.384 0.188 7.41 2.91 12.92
1/13/2021 7:15:00 AM 1.87 35.366 0.188 7.42 2.88 12.93
1/13/2021 7:30:00 AM 1.87 35.366 0.188 7.42 2.86 12.93
1/13/2021 7:45:00 AM 1.86 35.348 0.188 7.43 2.89 12.94
1/13/2021 8:00:00 AM 1.86 35.348 0.188 7.43 2.84 12.95
1/13/2021 8:15:00 AM 1.86 35.348 0.188 7.43 2.84 12.96
1/13/2021 8:30:00 AM 1.86 35.348 0.188 7.43 2.77 12.97
1/13/2021 8:45:00 AM 1.87 35.366 0.188 7.42 2.85 12.96
1/13/2021 9:00:00 AM 1.87 35.366 0.188 7.42 2.75 12.97
1/13/2021 9:15:00 AM 1.87 35.366 0.188 7.44 2.7 12.99
1/13/2021 9:30:00 AM 1.88 35.384 0.188 7.43 2.74 12.99
1/13/2021 9:45:00 AM 1.89 35.402 0.188 7.44 2.69 13.01
1/13/2021 10:00:00 AM 1.95 35.51 0.186 7.41 2.62 12.95
1/13/2021 10:15:00 AM 1.93 35.474 0.188 7.43 2.63 13.03
1/13/2021 10:30:00 AM 1.99 35.582 0.186 7.41 2.65 13
1/13/2021 10:45:00 AM 1.98 35.564 0.188 7.44 2.58 13.05
1/13/2021 11:00:00 AM 2.01 35.618 0.187 7.46 2.57 13.05
1/13/2021 11:15:00 AM 2.05 35.69 0.186 7.41 2.44 13
1/13/2021 11:30:00 AM 2.08 35.744 0.186 7.39 2.55 12.99
1/13/2021 11:45:00 AM 2.06 35.708 0.188 7.45 2.49 13.06
1/13/2021 12:00:00 PM 2.1 35.78 0.187 7.47 2.39 13.08
1/13/2021 12:15:00 PM 2.14 35.852 0.187 7.45 2.5 13.06
1/13/2021 12:30:00 PM 2.2 35.96 0.186 7.42 2.46 12.99
1/13/2021 12:45:00 PM 2.22 35.996 0.186 7.43 2.41 13.01
1/13/2021 1:00:00 PM 2.28 36.104 0.186 7.41 2.55 12.98
1/13/2021 1:15:00 PM 2.31 36.158 0.186 7.42 2.54 12.98
1/13/2021 1:30:00 PM 2.3 36.14 0.187 7.44 2.46 13.02
1/13/2021 1:45:00 PM 2.33 36.194 0.187 7.46 2.43 13.01
1/13/2021 2:00:00 PM 2.35 36.23 0.187 7.46 2.48 13.03
1/13/2021 2:15:00 PM 2.4 36.32 0.187 7.47 2.55 13.01
1/13/2021 2:30:00 PM 2.42 36.356 0.188 7.48 2.52 13.03
1/13/2021 2:45:00 PM 2.45 36.41 0.187 7.49 2.46 13
1/13/2021 3:00:00 PM 2.51 36.518 0.186 7.43 2.41 12.93
1/13/2021 3:15:00 PM 2.5 36.5 0.187 7.47 2.59 12.97
1/13/2021 3:30:00 PM 2.5 36.5 0.188 7.5 2.53 12.99
1/13/2021 3:45:00 PM 2.52 36.536 0.187 7.49 2.48 12.96
1/13/2021 4:00:00 PM 2.53 36.554 0.187 7.51 2.43 12.95
1/13/2021 4:15:00 PM 2.53 36.554 0.188 7.5 2.58 12.93
1/13/2021 4:30:00 PM 2.52 36.536 0.188 7.5 2.49 12.92
1/13/2021 4:45:00 PM 2.51 36.518 0.188 7.5 2.53 12.89
1/13/2021 5:00:00 PM 2.5 36.5 0.188 7.48 2.48 12.85
1/13/2021 5:15:00 PM 2.49 36.482 0.187 7.45 2.43 12.81
1/13/2021 5:30:00 PM 2.46 36.428 0.188 7.48 2.42 12.81
1/13/2021 5:45:00 PM 2.44 36.392 0.188 7.48 2.43 12.8
1/13/2021 6:00:00 PM 2.44 36.392 0.187 7.43 2.51 12.74
1/13/2021 6:15:00 PM 2.4 36.32 0.188 7.45 2.58 12.76
1/13/2021 6:30:00 PM 2.38 36.284 0.187 7.42 2.41 12.73
1/13/2021 6:45:00 PM 2.34 36.212 0.188 7.45 2.5 12.76
1/13/2021 7:00:00 PM 2.31 36.158 0.188 7.45 2.48 12.76
1/13/2021 7:15:00 PM 2.29 36.122 0.188 7.45 2.5 12.75
1/13/2021 7:30:00 PM 2.27 36.086 0.188 7.45 2.51 12.75
1/13/2021 7:45:00 PM 2.24 36.032 0.188 7.44 2.51 12.75
1/13/2021 8:00:00 PM 2.22 35.996 0.188 7.44 2.64 12.75
1/13/2021 8:15:00 PM 2.19 35.942 0.189 7.44 2.39 12.76
1/13/2021 8:30:00 PM 2.16 35.888 0.189 7.44 2.52 12.76
1/13/2021 8:45:00 PM 2.13 35.834 0.189 7.44 2.47 12.77
1/13/2021 9:00:00 PM 2.12 35.816 0.188 7.39 2.43 12.72
1/13/2021 9:15:00 PM 2.08 35.744 0.188 7.4 2.6 12.73
1/13/2021 9:30:00 PM 2.03 35.654 0.189 7.42 2.54 12.78
1/13/2021 9:45:00 PM 1.99 35.582 0.189 7.42 2.91 12.79
1/13/2021 10:00:00 PM 1.96 35.528 0.189 7.42 4.02 12.8
1/13/2021 10:15:00 PM 1.92 35.456 0.189 7.42 2.85 12.81
1/13/2021 10:30:00 PM 1.88 35.384 0.189 7.42 2.79 12.82
1/13/2021 10:45:00 PM 1.84 35.312 0.189 7.42 2.72 12.83
1/13/2021 11:00:00 PM 1.81 35.258 0.189 7.41 2.65 12.84
1/13/2021 11:15:00 PM 1.78 35.204 0.189 7.42 2.65 12.85
1/13/2021 11:30:00 PM 1.75 35.15 0.189 7.42 2.74 12.86
1/13/2021 11:45:00 PM 1.71 35.078 0.189 7.41 2.81 12.87
1/14/2021 12:00:00 AM 1.68 35.024 0.189 7.41 2.79 12.88
1/14/2021 12:15:00 AM 1.66 34.988 0.189 7.42 2.88 12.89
1/14/2021 12:30:00 AM 1.64 34.952 0.19 7.42 2.78 12.89
1/14/2021 12:45:00 AM 1.63 34.934 0.189 7.42 2.72 12.9
1/14/2021 1:00:00 AM 1.61 34.898 0.189 7.4 2.73 12.9
1/14/2021 1:15:00 AM 1.58 34.844 0.19 7.41 2.68 12.92
1/14/2021 1:30:00 AM 1.57 34.826 0.189 7.4 2.62 12.9
1/14/2021 1:45:00 AM 1.57 34.826 0.188 7.37 2.52 12.87
1/14/2021 2:00:00 AM 1.55 34.79 0.189 7.36 2.63 12.87
1/14/2021 2:15:00 AM 1.55 34.79 0.188 7.35 2.74 12.85
1/14/2021 2:30:00 AM 1.53 34.754 0.189 7.35 2.55 12.87
1/14/2021 2:45:00 AM 1.53 34.754 0.188 7.35 2.57 12.86
1/14/2021 3:00:00 AM 1.53 34.754 0.188 7.34 2.64 12.85
1/14/2021 3:15:00 AM 1.5 34.7 0.188 7.35 2.54 12.88
1/14/2021 3:30:00 AM 1.48 34.664 0.189 7.36 2.52 12.89
1/14/2021 3:45:00 AM 1.49 34.682 0.188 7.34 2.65 12.85
1/14/2021 4:00:00 AM 1.45 34.61 0.189 7.35 2.71 12.89
1/14/2021 4:15:00 AM 1.43 34.574 0.189 7.36 2.88 12.91
1/14/2021 4:30:00 AM 1.44 34.592 0.189 7.36 2.73 12.88
1/14/2021 4:45:00 AM 1.46 34.628 0.188 7.33 2.62 12.83
1/14/2021 5:00:00 AM 1.46 34.628 0.188 7.34 2.68 12.83
1/14/2021 5:15:00 AM 1.42 34.556 0.189 7.36 2.59 12.91
1/14/2021 5:30:00 AM 1.44 34.592 0.189 7.36 2.68 12.89
1/14/2021 5:45:00 AM 1.4 34.52 0.19 7.4 2.78 12.96
1/14/2021 6:00:00 AM 1.43 34.574 0.189 7.37 2.62 12.91
1/14/2021 6:15:00 AM 1.44 34.592 0.189 7.38 2.69 12.9
1/14/2021 6:30:00 AM 1.47 34.646 0.188 7.34 2.74 12.86
1/14/2021 6:45:00 AM 1.41 34.538 0.19 7.39 2.74 12.95
1/14/2021 7:00:00 AM 1.43 34.574 0.19 7.38 2.71 12.92
1/14/2021 7:15:00 AM 1.44 34.592 0.19 7.39 2.79 12.92
1/14/2021 7:30:00 AM 1.43 34.574 0.19 7.4 2.83 12.94
1/14/2021 7:45:00 AM 1.45 34.61 0.19 7.4 2.72 12.94
1/14/2021 8:00:00 AM 1.46 34.628 0.19 7.39 2.64 12.94
1/14/2021 8:15:00 AM 1.5 34.7 0.189 7.38 2.69 12.89
1/14/2021 8:30:00 AM 1.5 34.7 0.189 7.39 2.7 12.93
1/14/2021 8:45:00 AM 1.55 34.79 0.189 7.38 2.69 12.91
1/14/2021 9:00:00 AM 1.59 34.862 0.188 7.36 2.58 12.92
1/14/2021 9:15:00 AM 1.63 34.934 0.188 7.37 2.62 12.92
1/14/2021 9:30:00 AM 1.65 34.97 0.188 7.39 2.48 12.96
1/14/2021 9:45:00 AM 1.68 35.024 0.189 7.39 2.6 12.99
1/14/2021 10:00:00 AM 1.72 35.096 0.189 7.41 2.41 13.03
1/14/2021 10:15:00 AM 1.75 35.15 0.19 7.43 2.4 13.06
1/14/2021 10:30:00 AM 1.82 35.276 0.189 7.43 2.38 13.04
1/14/2021 10:45:00 AM 1.91 35.438 0.189 7.41 2.48 13
1/14/2021 11:00:00 AM 1.94 35.492 0.189 7.43 2.43 13.05
1/14/2021 11:15:00 AM 1.98 35.564 0.19 7.45 2.51 13.07
1/14/2021 11:30:00 AM 2.07 35.726 0.189 7.43 2.3 13.02
1/14/2021 11:45:00 AM 2.13 35.834 0.188 7.41 2.31 13
1/14/2021 12:00:00 PM 2.2 35.96 0.188 7.43 2.28 13
1/14/2021 12:15:00 PM 2.2 35.96 0.19 7.48 2.33 13.05
1/14/2021 12:30:00 PM 2.28 36.104 0.189 7.48 2.32 13.01
1/14/2021 12:45:00 PM 2.31 36.158 0.19 7.5 2.37 13.03
1/14/2021 1:00:00 PM 2.39 36.302 0.19 7.47 2.34 12.99
1/14/2021 1:15:00 PM 2.48 36.464 0.189 7.47 2.35 12.94
1/14/2021 1:30:00 PM 2.52 36.536 0.19 7.49 2.33 12.97
1/14/2021 1:45:00 PM 2.57 36.626 0.19 7.5 2.34 12.95
1/14/2021 2:00:00 PM 2.64 36.752 0.189 7.49 2.34 12.91
1/14/2021 2:15:00 PM 2.71 36.878 0.188 7.48 2.35 12.87
1/14/2021 2:30:00 PM 2.75 36.95 0.189 7.47 2.32 12.85
1/14/2021 2:45:00 PM 2.77 36.986 0.19 7.52 2.48 12.89
1/14/2021 3:00:00 PM 2.82 37.076 0.189 7.5 2.34 12.85
1/14/2021 3:15:00 PM 2.84 37.112 0.189 7.51 2.37 12.84
1/14/2021 3:30:00 PM 2.87 37.166 0.189 7.5 2.39 12.81
1/14/2021 3:45:00 PM 2.87 37.166 0.189 7.51 2.38 12.79
1/14/2021 4:00:00 PM 2.88 37.184 0.189 7.51 2.39 12.75
1/14/2021 4:15:00 PM 2.9 37.22 0.188 7.48 2.39 12.69
1/14/2021 4:30:00 PM 2.91 37.238 0.188 7.45 2.32 12.63
1/14/2021 4:45:00 PM 2.88 37.184 0.189 7.48 2.41 12.67
1/14/2021 5:00:00 PM 2.87 37.166 0.189 7.49 2.32 12.64
1/14/2021 5:15:00 PM 2.86 37.148 0.189 7.48 2.41 12.62
1/14/2021 5:30:00 PM 2.85 37.13 0.189 7.48 2.62 12.6
1/14/2021 5:45:00 PM 2.85 37.13 0.189 7.45 2.54 12.56
1/14/2021 6:00:00 PM 2.83 37.094 0.189 7.46 2.34 12.56
1/14/2021 6:15:00 PM 2.83 37.094 0.189 7.44 2.52 12.53
1/14/2021 6:30:00 PM 2.81 37.058 0.189 7.43 2.48 12.52
1/14/2021 6:45:00 PM 2.78 37.004 0.19 7.46 2.44 12.55
1/14/2021 7:00:00 PM 2.77 36.986 0.19 7.45 2.52 12.55
1/14/2021 7:15:00 PM 2.77 36.986 0.189 7.43 2.58 12.5
1/14/2021 7:30:00 PM 2.75 36.95 0.19 7.45 2.4 12.54
1/14/2021 7:45:00 PM 2.74 36.932 0.19 7.45 2.42 12.54
1/14/2021 8:00:00 PM 2.73 36.914 0.19 7.45 2.46 12.54
1/14/2021 8:15:00 PM 2.72 36.896 0.19 7.45 2.73 12.54
1/14/2021 8:30:00 PM 2.73 36.914 0.19 7.43 2.55 12.52
1/14/2021 8:45:00 PM 2.71 36.878 0.19 7.44 2.6 12.53
1/14/2021 9:00:00 PM 2.74 36.932 0.189 7.4 2.58 12.47
1/14/2021 9:15:00 PM 2.72 36.896 0.19 7.42 2.49 12.51
1/14/2021 9:30:00 PM 2.71 36.878 0.19 7.43 2.57 12.51
1/14/2021 9:45:00 PM 2.7 36.86 0.19 7.43 2.57 12.53
1/14/2021 10:00:00 PM 2.7 36.86 0.19 7.43 2.7 12.53
1/14/2021 10:15:00 PM 2.69 36.842 0.191 7.43 2.63 12.53
1/14/2021 10:30:00 PM 2.71 36.878 0.19 7.41 2.5 12.51
1/14/2021 10:45:00 PM 2.71 36.878 0.19 7.4 2.61 12.49
1/14/2021 11:00:00 PM 2.71 36.878 0.19 7.4 2.49 12.48
1/14/2021 11:15:00 PM 2.7 36.86 0.19 7.4 2.55 12.5
1/14/2021 11:30:00 PM 2.72 36.896 0.189 7.39 2.61 12.47
1/14/2021 11:45:00 PM 2.7 36.86 0.19 7.42 2.6 12.5
1/15/2021 12:00:00 AM 2.7 36.86 0.19 7.41 2.55 12.51
1/15/2021 12:15:00 AM 2.71 36.878 0.19 7.38 2.53 12.48
1/15/2021 12:30:00 AM 2.72 36.896 0.189 7.38 2.57 12.48
1/15/2021 12:45:00 AM 2.69 36.842 0.191 7.42 2.77 12.52
1/15/2021 1:00:00 AM 2.71 36.878 0.19 7.39 2.52 12.47
1/15/2021 1:15:00 AM 2.69 36.842 0.19 7.4 2.61 12.5
1/15/2021 1:30:00 AM 2.68 36.824 0.191 7.42 2.67 12.51
1/15/2021 1:45:00 AM 2.69 36.842 0.191 7.41 2.61 12.5
1/15/2021 2:00:00 AM 2.71 36.878 0.19 7.38 2.73 12.46
1/15/2021 2:15:00 AM 2.69 36.842 0.191 7.4 2.68 12.5
1/15/2021 2:30:00 AM 2.69 36.842 0.19 7.4 2.55 12.48
1/15/2021 2:45:00 AM 2.69 36.842 0.19 7.4 2.63 12.48
1/15/2021 3:00:00 AM 2.71 36.878 0.189 7.38 2.63 12.44
1/15/2021 3:15:00 AM 2.72 36.896 0.189 7.37 2.6 12.42
1/15/2021 3:30:00 AM 2.73 36.914 0.189 7.36 2.5 12.41
1/15/2021 3:45:00 AM 2.69 36.842 0.191 7.39 2.52 12.47
1/15/2021 4:00:00 AM 2.7 36.86 0.19 7.37 2.54 12.45
1/15/2021 4:15:00 AM 2.71 36.878 0.19 7.38 2.58 12.44
1/15/2021 4:30:00 AM 2.68 36.824 0.191 7.39 2.69 12.47
1/15/2021 4:45:00 AM 2.66 36.788 0.19 7.38 2.6 12.46
1/15/2021 5:00:00 AM 2.65 36.77 0.189 7.35 2.61 12.4
1/15/2021 5:15:00 AM 2.61 36.698 0.19 7.37 2.51 12.46
1/15/2021 5:30:00 AM 2.6 36.68 0.189 7.36 2.72 12.42
1/15/2021 5:45:00 AM 2.55 36.59 0.191 7.39 2.55 12.49
1/15/2021 6:00:00 AM 2.54 36.572 0.189 7.37 2.52 12.45
1/15/2021 6:15:00 AM 2.52 36.536 0.19 7.37 2.65 12.45
1/15/2021 6:30:00 AM 2.48 36.464 0.19 7.36 2.63 12.47
1/15/2021 6:45:00 AM 2.45 36.41 0.191 7.36 2.94 12.48
1/15/2021 7:00:00 AM 2.43 36.374 0.19 7.36 2.7 12.46
1/15/2021 7:15:00 AM 2.37 36.266 0.191 7.39 2.63 12.53
1/15/2021 7:30:00 AM 2.37 36.266 0.19 7.37 2.59 12.5
1/15/2021 7:45:00 AM 2.33 36.194 0.191 7.38 2.73 12.54
1/15/2021 8:00:00 AM 2.31 36.158 0.191 7.38 2.77 12.55
1/15/2021 8:15:00 AM 2.29 36.122 0.191 7.39 2.78 12.59
1/15/2021 8:30:00 AM 2.29 36.122 0.19 7.39 2.61 12.61
1/15/2021 8:45:00 AM 2.29 36.122 0.191 7.4 2.55 12.65
1/15/2021 9:00:00 AM 2.29 36.122 0.191 7.42 2.51 12.69
1/15/2021 9:15:00 AM 2.31 36.158 0.191 7.41 2.54 12.71
1/15/2021 9:30:00 AM 2.34 36.212 0.191 7.43 2.49 12.75
1/15/2021 9:45:00 AM 2.38 36.284 0.19 7.42 2.54 12.75
1/15/2021 10:00:00 AM 2.44 36.392 0.189 7.39 2.51 12.72
1/15/2021 10:15:00 AM 2.47 36.446 0.189 7.38 2.55 12.75
1/15/2021 10:30:00 AM 2.52 36.536 0.189 7.41 3.5 12.77
1/15/2021 10:45:00 AM 2.59 36.662 0.189 7.39 3.33 12.73
1/15/2021 11:00:00 AM 2.61 36.698 0.19 7.43 2.83 12.82
1/15/2021 11:15:00 AM 2.67 36.806 0.19 7.44 2.57 12.84
1/15/2021 11:30:00 AM 2.75 36.95 0.191 7.47 2.55 12.87
1/15/2021 11:45:00 AM 2.84 37.112 0.191 7.49 2.45 12.88
1/15/2021 12:00:00 PM 2.94 37.292 0.19 7.49 2.46 12.87
1/15/2021 12:15:00 PM 3.06 37.508 0.189 7.45 2.48 12.8
1/15/2021 12:30:00 PM 3.12 37.616 0.189 7.48 2.39 12.79
1/15/2021 12:45:00 PM 3.19 37.742 0.188 7.44 2.38 12.74
1/15/2021 1:00:00 PM 3.2 37.76 0.189 7.48 2.41 12.78
1/15/2021 1:15:00 PM 3.27 37.886 0.19 7.49 2.48 12.77
1/15/2021 1:30:00 PM 3.35 38.03 0.189 7.52 2.47 12.76
1/15/2021 1:45:00 PM 3.41 38.138 0.19 7.53 2.44 12.75
1/15/2021 2:00:00 PM 3.47 38.246 0.189 7.52 2.45 12.67
1/15/2021 2:15:00 PM 3.49 38.282 0.19 7.52 2.45 12.67
1/15/2021 2:30:00 PM 3.52 38.336 0.19 7.51 2.46 12.65
1/15/2021 2:45:00 PM 3.53 38.354 0.19 7.54 2.46 12.65
1/15/2021 3:00:00 PM 3.52 38.336 0.19 7.55 2.51 12.64
1/15/2021 3:15:00 PM 3.51 38.318 0.191 7.55 2.46 12.61
1/15/2021 3:30:00 PM 3.5 38.3 0.191 7.54 2.38 12.57
1/15/2021 3:45:00 PM 3.49 38.282 0.191 7.54 2.46 12.54
1/15/2021 4:00:00 PM 3.48 38.264 0.191 7.53 2.41 12.51
1/15/2021 4:15:00 PM 3.48 38.264 0.189 7.5 2.41 12.43
1/15/2021 4:30:00 PM 3.45 38.21 0.191 7.52 2.5 12.45
1/15/2021 4:45:00 PM 3.43 38.174 0.19 7.51 2.47 12.42
1/15/2021 5:00:00 PM 3.42 38.156 0.19 7.49 2.42 12.38
1/15/2021 5:15:00 PM 3.39 38.102 0.191 7.49 2.37 12.37
1/15/2021 5:30:00 PM 3.37 38.066 0.191 7.49 2.37 12.37
1/15/2021 5:45:00 PM 3.35 38.03 0.191 7.5 2.56 12.37
1/15/2021 6:00:00 PM 3.35 38.03 0.19 7.46 2.42 12.32
1/15/2021 6:15:00 PM 3.35 38.03 0.188 7.42 2.39 12.26
1/15/2021 6:30:00 PM 3.34 38.012 0.189 7.4 2.37 12.23
1/15/2021 6:45:00 PM 3.3 37.94 0.191 7.44 2.45 12.3
1/15/2021 7:00:00 PM 3.31 37.958 0.189 7.41 2.51 12.25
1/15/2021 7:15:00 PM 3.27 37.886 0.191 7.45 2.5 12.3
1/15/2021 7:30:00 PM 3.27 37.886 0.191 7.44 2.54 12.29
1/15/2021 7:45:00 PM 3.29 37.922 0.189 7.41 2.6 12.23
1/15/2021 8:00:00 PM 3.26 37.868 0.191 7.45 2.54 12.31
1/15/2021 8:15:00 PM 3.29 37.922 0.189 7.4 2.53 12.24
1/15/2021 8:30:00 PM 3.29 37.922 0.189 7.39 2.49 12.21
1/15/2021 8:45:00 PM 3.29 37.922 0.19 7.39 2.7 12.22
1/15/2021 9:00:00 PM 3.29 37.922 0.189 7.39 2.78 12.22
1/15/2021 9:15:00 PM 3.29 37.922 0.189 7.41 2.78 12.24
1/15/2021 9:30:00 PM 3.28 37.904 0.189 7.4 2.79 12.24
1/15/2021 9:45:00 PM 3.26 37.868 0.19 7.44 2.81 12.3
1/15/2021 10:00:00 PM 3.25 37.85 0.19 7.44 2.83 12.3
1/15/2021 10:15:00 PM 3.23 37.814 0.19 7.48 2.95 12.34
1/15/2021 10:30:00 PM 3.23 37.814 0.19 7.48 3.1 12.34
1/15/2021 10:45:00 PM 3.22 37.796 0.189 7.48 3.17 12.34
1/15/2021 11:00:00 PM 3.23 37.814 0.188 7.44 3.25 12.29
1/15/2021 11:15:00 PM 3.24 37.832 0.186 7.4 3.6 12.25
1/15/2021 11:30:00 PM 3.2 37.76 0.188 7.43 3.66 12.32
1/15/2021 11:45:00 PM 3.18 37.724 0.188 7.45 4.05 12.35
1/16/2021 12:00:00 AM 3.16 37.688 0.187 7.45 4.1 12.35
1/16/2021 12:15:00 AM 3.15 37.67 0.187 7.43 5.02 12.36
1/16/2021 12:30:00 AM 3.13 37.634 0.187 7.41 5.11 12.37
1/16/2021 12:45:00 AM 3.1 37.58 0.186 7.39 4.8 12.38
1/16/2021 1:00:00 AM 3.09 37.562 0.183 7.33 6.99 12.33
1/16/2021 1:15:00 AM 3.07 37.526 0.182 7.35 6.1 12.35
1/16/2021 1:30:00 AM 3.04 37.472 0.181 7.38 5.6 12.36
1/16/2021 1:45:00 AM 3 37.4 0.18 7.37 5.79 12.39
1/16/2021 2:00:00 AM 2.96 37.328 0.179 7.29 6.13 12.4
1/16/2021 2:15:00 AM 2.9 37.22 0.178 7.25 6.39 12.42
1/16/2021 2:30:00 AM 2.83 37.094 0.178 7.2 6.92 12.43
1/16/2021 2:45:00 AM 2.76 36.968 0.178 7.19 7.56 12.45
1/16/2021 3:00:00 AM 2.72 36.896 0.179 7.19 7.92 12.47
1/16/2021 3:15:00 AM 2.68 36.824 0.18 7.21 7.2 12.49
1/16/2021 3:30:00 AM 2.63 36.734 0.182 7.24 7.28 12.51
1/16/2021 3:45:00 AM 2.58 36.644 0.184 7.22 7.18 12.51
1/16/2021 4:00:00 AM 2.54 36.572 0.186 7.22 7.19 12.52
1/16/2021 4:15:00 AM 2.51 36.518 0.187 7.26 6.87 12.52
1/16/2021 4:30:00 AM 2.46 36.428 0.188 7.3 6.77 12.53
1/16/2021 4:45:00 AM 2.4 36.32 0.189 7.32 7.11 12.55
1/16/2021 5:00:00 AM 2.34 36.212 0.19 7.33 6.88 12.57
1/16/2021 5:15:00 AM 2.31 36.158 0.19 7.34 6.88 12.59
1/16/2021 5:30:00 AM 2.29 36.122 0.19 7.37 6.93 12.61
1/16/2021 5:45:00 AM 2.29 36.122 0.191 7.37 7.35 12.61
1/16/2021 6:00:00 AM 2.29 36.122 0.19 7.38 6.78 12.62
1/16/2021 6:15:00 AM 2.3 36.14 0.19 7.39 6.94 12.63
1/16/2021 6:30:00 AM 2.31 36.158 0.19 7.4 6.9 12.64
1/16/2021 6:45:00 AM 2.33 36.194 0.19 7.38 6.51 12.64
1/16/2021 7:00:00 AM 2.34 36.212 0.19 7.36 6.55 12.64
1/16/2021 7:15:00 AM 2.35 36.23 0.19 7.35 6.56 12.64
1/16/2021 7:30:00 AM 2.36 36.248 0.19 7.35 6.12 12.64
1/16/2021 7:45:00 AM 2.38 36.284 0.19 7.35 6.14 12.65
1/16/2021 8:00:00 AM 2.39 36.302 0.191 7.37 6.07 12.64
1/16/2021 8:15:00 AM 2.41 36.338 0.191 7.38 5.82 12.65
1/16/2021 8:30:00 AM 2.43 36.374 0.191 7.38 5.62 12.66
1/16/2021 8:45:00 AM 2.44 36.392 0.192 7.38 5.82 12.66
1/16/2021 9:00:00 AM 2.45 36.41 0.192 7.4 5.79 12.67
1/16/2021 9:15:00 AM 2.46 36.428 0.192 7.4 5.76 12.67
1/16/2021 9:30:00 AM 2.47 36.446 0.193 7.42 5.44 12.7
1/16/2021 9:45:00 AM 2.49 36.482 0.193 7.42 5.37 12.71
1/16/2021 10:00:00 AM 2.49 36.482 0.192 7.42 5.4 12.72
1/16/2021 10:15:00 AM 2.49 36.482 0.192 7.42 5.61 12.72
1/16/2021 10:30:00 AM 2.5 36.5 0.191 7.41 5.33 12.72
1/16/2021 10:45:00 AM 2.5 36.5 0.191 7.43 5.1 12.74
1/16/2021 11:00:00 AM 2.51 36.518 0.19 7.45 4.96 12.76
1/16/2021 11:15:00 AM 2.51 36.518 0.189 7.45 5.21 12.76
1/16/2021 11:30:00 AM 2.52 36.536 0.188 7.45 5.08 12.76
1/16/2021 11:45:00 AM 2.53 36.554 0.187 7.45 5.1 12.77
1/16/2021 12:00:00 PM 2.54 36.572 0.186 7.45 5.37 12.78
1/16/2021 12:15:00 PM 2.54 36.572 0.185 7.45 4.96 12.78
1/16/2021 12:30:00 PM 2.56 36.608 0.184 7.45 4.89 12.78
1/16/2021 12:45:00 PM 2.55 36.59 0.183 7.45 5.05 12.79
1/16/2021 1:00:00 PM 2.55 36.59 0.182 7.45 5.23 12.8
1/16/2021 1:15:00 PM 2.57 36.626 0.181 7.44 5.08 12.79
1/16/2021 1:30:00 PM 2.64 36.752 0.18 7.46 5.36 12.8
1/16/2021 1:45:00 PM 2.66 36.788 0.179 7.46 5.08 12.8
1/16/2021 2:00:00 PM 2.68 36.824 0.178 7.44 4.89 12.81
1/16/2021 2:15:00 PM 2.72 36.896 0.178 7.44 4.99 12.8
1/16/2021 2:30:00 PM 2.74 36.932 0.177 7.44 5.08 12.8
1/16/2021 2:45:00 PM 2.76 36.968 0.177 7.43 5.17 12.8
1/16/2021 3:00:00 PM 2.77 36.986 0.176 7.42 5.03 12.78
1/16/2021 3:15:00 PM 2.77 36.986 0.176 7.42 4.96 12.78
1/16/2021 3:30:00 PM 2.77 36.986 0.175 7.42 5.31 12.77
1/16/2021 3:45:00 PM 2.76 36.968 0.175 7.41 5.01 12.76
1/16/2021 4:00:00 PM 2.76 36.968 0.175 7.4 5.15 12.75
1/16/2021 4:15:00 PM 2.74 36.932 0.175 7.38 5.24 12.74
1/16/2021 4:30:00 PM 2.72 36.896 0.175 7.38 5.4 12.72
1/16/2021 4:45:00 PM 2.69 36.842 0.174 7.37 5.31 12.71
1/16/2021 5:00:00 PM 2.66 36.788 0.174 7.35 5.15 12.69
1/16/2021 5:15:00 PM 2.62 36.716 0.175 7.35 5.24 12.68
1/16/2021 5:30:00 PM 2.58 36.644 0.174 7.33 5.47 12.67
1/16/2021 5:45:00 PM 2.54 36.572 0.175 7.3 5.35 12.66
1/16/2021 6:00:00 PM 2.49 36.482 0.175 7.29 5.35 12.66
1/16/2021 6:15:00 PM 2.46 36.428 0.175 7.28 5.17 12.64
1/16/2021 6:30:00 PM 2.42 36.356 0.175 7.27 5.78 12.65
1/16/2021 6:45:00 PM 2.38 36.284 0.175 7.26 5.45 12.64
1/16/2021 7:00:00 PM 2.34 36.212 0.175 7.27 5.43 12.64
1/16/2021 7:15:00 PM 2.31 36.158 0.175 7.27 5.27 12.64
1/16/2021 7:30:00 PM 2.27 36.086 0.176 7.26 5.49 12.65
1/16/2021 7:45:00 PM 2.24 36.032 0.176 7.26 5.5 12.66
1/16/2021 8:00:00 PM 2.22 35.996 0.176 7.25 5.54 12.66
1/16/2021 8:15:00 PM 2.19 35.942 0.177 7.25 5.35 12.66
1/16/2021 8:30:00 PM 2.17 35.906 0.177 7.25 5.27 12.67
1/16/2021 8:45:00 PM 2.15 35.87 0.177 7.25 5.16 12.68
1/16/2021 9:00:00 PM 2.13 35.834 0.177 7.25 5.1 12.68
1/16/2021 9:15:00 PM 2.11 35.798 0.178 7.25 4.98 12.68
1/16/2021 9:30:00 PM 2.09 35.762 0.178 7.26 4.95 12.68
1/16/2021 9:45:00 PM 2.07 35.726 0.178 7.25 4.86 12.68
1/16/2021 10:00:00 PM 2.06 35.708 0.178 7.24 4.72 12.69
1/16/2021 10:15:00 PM 2.05 35.69 0.178 7.25 4.96 12.69
1/16/2021 10:30:00 PM 2.04 35.672 0.178 7.25 4.91 12.7
1/16/2021 10:45:00 PM 2.04 35.672 0.178 7.25 4.91 12.7
1/16/2021 11:00:00 PM 2.03 35.654 0.179 7.25 4.6 12.7
1/16/2021 11:15:00 PM 2.03 35.654 0.179 7.25 4.75 12.7
1/16/2021 11:30:00 PM 2.04 35.672 0.179 7.26 4.81 12.7
1/16/2021 11:45:00 PM 2.04 35.672 0.179 7.25 4.99 12.69
1/17/2021 12:00:00 AM 2.04 35.672 0.179 7.26 4.83 12.69
1/17/2021 12:15:00 AM 2.04 35.672 0.179 7.26 4.69 12.69
1/17/2021 12:30:00 AM 2.03 35.654 0.179 7.25 4.83 12.69
1/17/2021 12:45:00 AM 2.03 35.654 0.179 7.24 5.05 12.71
1/17/2021 1:00:00 AM 2.03 35.654 0.179 7.22 5.03 12.71
1/17/2021 1:15:00 AM 2.02 35.636 0.179 7.24 4.84 12.71
1/17/2021 1:30:00 AM 2.02 35.636 0.179 7.23 4.71 12.71
1/17/2021 1:45:00 AM 2.02 35.636 0.179 7.23 4.72 12.72
1/17/2021 2:00:00 AM 2.02 35.636 0.179 7.23 4.67 12.72
1/17/2021 2:15:00 AM 2.01 35.618 0.179 7.26 5 12.72
1/17/2021 2:30:00 AM 2.01 35.618 0.179 7.23 4.77 12.73
1/17/2021 2:45:00 AM 2 35.6 0.179 7.24 4.81 12.72
1/17/2021 3:00:00 AM 1.99 35.582 0.179 7.24 4.65 12.73
1/17/2021 3:15:00 AM 1.98 35.564 0.179 7.24 4.81 12.73
1/17/2021 3:30:00 AM 1.97 35.546 0.179 7.26 4.61 12.75
1/17/2021 3:45:00 AM 1.96 35.528 0.179 7.25 4.48 12.74
1/17/2021 4:00:00 AM 1.95 35.51 0.179 7.27 4.54 12.75
1/17/2021 4:15:00 AM 1.94 35.492 0.179 7.26 4.43 12.75
1/17/2021 4:30:00 AM 1.94 35.492 0.179 7.26 4.36 12.76
1/17/2021 4:45:00 AM 1.93 35.474 0.179 7.26 4.45 12.76
1/17/2021 5:00:00 AM 1.92 35.456 0.179 7.27 4.51 12.77
1/17/2021 5:15:00 AM 1.9 35.42 0.179 7.25 4.46 12.77
1/17/2021 5:30:00 AM 1.9 35.42 0.179 7.27 4.66 12.77
1/17/2021 5:45:00 AM 1.89 35.402 0.179 7.27 4.41 12.78
1/17/2021 6:00:00 AM 1.88 35.384 0.179 7.27 4.48 12.78
1/17/2021 6:15:00 AM 1.87 35.366 0.179 7.26 4.39 12.79
1/17/2021 6:30:00 AM 1.87 35.366 0.179 7.26 4.28 12.79
1/17/2021 6:45:00 AM 1.86 35.348 0.179 7.26 4.2 12.8
1/17/2021 7:00:00 AM 1.86 35.348 0.179 7.26 4.11 12.81
1/17/2021 7:15:00 AM 1.85 35.33 0.179 7.27 4.51 12.8
1/17/2021 7:30:00 AM 1.85 35.33 0.179 7.25 4.55 12.81
1/17/2021 7:45:00 AM 1.84 35.312 0.179 7.26 4.32 12.82
1/17/2021 8:00:00 AM 1.84 35.312 0.179 7.27 4.18 12.82
1/17/2021 8:15:00 AM 1.84 35.312 0.179 7.26 4.06 12.83
1/17/2021 8:30:00 AM 1.84 35.312 0.18 7.28 4.11 12.85
1/17/2021 8:45:00 AM 1.84 35.312 0.18 7.28 3.93 12.86
1/17/2021 9:00:00 AM 1.85 35.33 0.18 7.27 3.91 12.88
1/17/2021 9:15:00 AM 1.86 35.348 0.18 7.27 3.93 12.89
1/17/2021 9:30:00 AM 1.86 35.348 0.18 7.28 3.94 12.89
1/17/2021 9:45:00 AM 1.87 35.366 0.18 7.28 3.91 12.91
1/17/2021 10:00:00 AM 1.89 35.402 0.18 7.29 3.83 12.92
1/17/2021 10:15:00 AM 1.91 35.438 0.18 7.29 3.88 12.93
1/17/2021 10:30:00 AM 1.92 35.456 0.18 7.29 3.73 12.94
1/17/2021 10:45:00 AM 1.94 35.492 0.18 7.3 3.73 12.97
1/17/2021 11:00:00 AM 1.96 35.528 0.18 7.29 3.67 12.97
1/17/2021 11:15:00 AM 1.98 35.564 0.18 7.3 3.6 12.97
1/17/2021 11:30:00 AM 2 35.6 0.18 7.3 3.54 12.98
1/17/2021 11:45:00 AM 2.02 35.636 0.18 7.3 3.56 12.98
1/17/2021 12:00:00 PM 2.03 35.654 0.18 7.31 3.6 12.98
1/17/2021 12:15:00 PM 2.05 35.69 0.18 7.32 3.48 12.98
1/17/2021 12:30:00 PM 2.07 35.726 0.18 7.32 3.53 12.98
1/17/2021 12:45:00 PM 2.09 35.762 0.18 7.33 3.43 12.98
1/17/2021 1:00:00 PM 2.12 35.816 0.18 7.34 3.57 12.99
1/17/2021 1:15:00 PM 2.19 35.942 0.18 7.34 3.45 13
1/17/2021 1:30:00 PM 2.32 36.176 0.18 7.36 3.51 13
1/17/2021 1:45:00 PM 2.31 36.158 0.18 7.36 3.57 13
1/17/2021 2:00:00 PM 2.33 36.194 0.18 7.34 3.49 12.99
1/17/2021 2:15:00 PM 2.37 36.266 0.18 7.34 3.42 12.97
1/17/2021 2:30:00 PM 2.41 36.338 0.18 7.35 3.35 12.95
1/17/2021 2:45:00 PM 2.45 36.41 0.18 7.35 3.32 12.94
1/17/2021 3:00:00 PM 2.46 36.428 0.18 7.35 3.33 12.94
1/17/2021 3:15:00 PM 2.46 36.428 0.18 7.35 3.25 12.93
1/17/2021 3:30:00 PM 2.46 36.428 0.18 7.34 3.33 12.92
1/17/2021 3:45:00 PM 2.45 36.41 0.18 7.34 3.15 12.91
1/17/2021 4:00:00 PM 2.46 36.428 0.18 7.33 3.4 12.86
1/17/2021 4:15:00 PM 2.46 36.428 0.18 7.32 3.28 12.83
1/17/2021 4:30:00 PM 2.46 36.428 0.18 7.31 3.37 12.81
1/17/2021 4:45:00 PM 2.45 36.41 0.18 7.3 3.35 12.8
1/17/2021 5:00:00 PM 2.44 36.392 0.18 7.3 3.3 12.78
1/17/2021 5:15:00 PM 2.43 36.374 0.18 7.3 3.33 12.75
1/17/2021 5:30:00 PM 2.42 36.356 0.18 7.3 3.37 12.75
1/17/2021 5:45:00 PM 2.4 36.32 0.18 7.29 3.35 12.73
1/17/2021 6:00:00 PM 2.38 36.284 0.18 7.29 3.4 12.72
1/17/2021 6:15:00 PM 2.37 36.266 0.18 7.28 3.34 12.71
1/17/2021 6:30:00 PM 2.35 36.23 0.18 7.28 3.39 12.71
1/17/2021 6:45:00 PM 2.34 36.212 0.181 7.27 3.37 12.7
1/17/2021 7:00:00 PM 2.33 36.194 0.181 7.27 3.39 12.69
1/17/2021 7:15:00 PM 2.33 36.194 0.181 7.28 3.43 12.69
1/17/2021 7:30:00 PM 2.32 36.176 0.181 7.27 3.98 12.69
1/17/2021 7:45:00 PM 2.31 36.158 0.181 7.26 3.49 12.69
1/17/2021 8:00:00 PM 2.31 36.158 0.181 7.27 3.39 12.69
1/17/2021 8:15:00 PM 2.3 36.14 0.181 7.26 3.44 12.69
1/17/2021 8:30:00 PM 2.3 36.14 0.181 7.28 3.41 12.68
1/17/2021 8:45:00 PM 2.3 36.14 0.181 7.27 4.11 12.68
1/17/2021 9:00:00 PM 2.29 36.122 0.181 7.27 3.8 12.71
1/17/2021 9:15:00 PM 2.3 36.14 0.18 7.27 3.37 12.68
1/17/2021 9:30:00 PM 2.3 36.14 0.181 7.27 3.74 12.68
1/17/2021 9:45:00 PM 2.29 36.122 0.181 7.27 3.76 12.68
1/17/2021 10:00:00 PM 2.29 36.122 0.18 7.27 3.45 12.68
1/17/2021 10:15:00 PM 2.29 36.122 0.18 7.28 3.4 12.67
1/17/2021 10:30:00 PM 2.28 36.104 0.18 7.27 3.25 12.68
1/17/2021 10:45:00 PM 2.28 36.104 0.18 7.27 3.21 12.68
1/17/2021 11:00:00 PM 2.27 36.086 0.18 7.28 3.25 12.67
1/17/2021 11:15:00 PM 2.25 36.05 0.181 7.27 3.22 12.68
1/17/2021 11:30:00 PM 2.24 36.032 0.18 7.28 3.2 12.67
1/17/2021 11:45:00 PM 2.22 35.996 0.18 7.27 3.23 12.68
1/18/2021 12:00:00 AM 2.21 35.978 0.18 7.29 3.25 12.69
1/18/2021 12:15:00 AM 2.2 35.96 0.181 7.28 3.36 12.71
1/18/2021 12:30:00 AM 2.19 35.942 0.181 7.28 3.36 12.71
1/18/2021 12:45:00 AM 2.18 35.924 0.18 7.29 3.41 12.71
1/18/2021 1:00:00 AM 2.18 35.924 0.18 7.31 3.25 12.72
1/18/2021 1:15:00 AM 2.19 35.942 0.18 7.32 3.24 12.71
1/18/2021 1:30:00 AM 2.19 35.942 0.18 7.32 3.2 12.72
1/18/2021 1:45:00 AM 2.19 35.942 0.18 7.32 3.22 12.72
1/18/2021 2:00:00 AM 2.19 35.942 0.18 7.3 3.19 12.72
1/18/2021 2:15:00 AM 2.19 35.942 0.181 7.3 3.34 12.73
1/18/2021 2:30:00 AM 2.21 35.978 0.18 7.29 3.25 12.69
1/18/2021 2:45:00 AM 2.21 35.978 0.18 7.32 3.28 12.69
1/18/2021 3:00:00 AM 2.21 35.978 0.18 7.34 3.18 12.69
1/18/2021 3:15:00 AM 2.21 35.978 0.18 7.35 3.23 12.7
1/18/2021 3:30:00 AM 2.22 35.996 0.18 7.35 3.16 12.69
1/18/2021 3:45:00 AM 2.22 35.996 0.18 7.35 3.22 12.68
1/18/2021 4:00:00 AM 2.23 36.014 0.18 7.36 3.18 12.68
1/18/2021 4:15:00 AM 2.23 36.014 0.18 7.36 3.31 12.69
1/18/2021 4:30:00 AM 2.24 36.032 0.18 7.35 3.41 12.67
1/18/2021 4:45:00 AM 2.24 36.032 0.18 7.35 3.24 12.67
1/18/2021 5:00:00 AM 2.24 36.032 0.18 7.35 3.25 12.67
1/18/2021 5:15:00 AM 2.24 36.032 0.18 7.36 3.68 12.67
1/18/2021 5:30:00 AM 2.24 36.032 0.18 7.36 3.39 12.66
1/18/2021 5:45:00 AM 2.23 36.014 0.181 7.38 3.24 12.69
1/18/2021 6:00:00 AM 2.23 36.014 0.18 7.34 3.14 12.68
1/18/2021 6:15:00 AM 2.22 35.996 0.18 7.34 3.19 12.67
1/18/2021 6:30:00 AM 2.21 35.978 0.18 7.34 3.21 12.68
1/18/2021 6:45:00 AM 2.21 35.978 0.18 7.36 3.1 12.68
1/18/2021 7:00:00 AM 2.2 35.96 0.18 7.37 3.74 12.68
1/18/2021 7:15:00 AM 2.19 35.942 0.18 7.36 3.05 12.68
1/18/2021 7:30:00 AM 2.17 35.906 0.18 7.37 3.35 12.71
1/18/2021 7:45:00 AM 2.16 35.888 0.18 7.35 3.32 12.7
1/18/2021 8:00:00 AM 2.16 35.888 0.18 7.36 3.3 12.7
1/18/2021 8:15:00 AM 2.16 35.888 0.18 7.36 3.18 12.72
1/18/2021 8:30:00 AM 2.16 35.888 0.18 7.37 3.21 12.74
1/18/2021 8:45:00 AM 2.19 35.942 0.18 7.37 3.05 12.76
1/18/2021 9:00:00 AM 2.19 35.942 0.18 7.38 3.14 12.79
1/18/2021 9:15:00 AM 2.2 35.96 0.18 7.4 3.18 12.83
1/18/2021 9:30:00 AM 2.22 35.996 0.18 7.4 3.13 12.86
1/18/2021 9:45:00 AM 2.26 36.068 0.18 7.4 3.03 12.87
1/18/2021 10:00:00 AM 2.27 36.086 0.18 7.41 3 12.89
1/18/2021 10:15:00 AM 2.29 36.122 0.18 7.42 3.09 12.91
1/18/2021 10:30:00 AM 2.33 36.194 0.18 7.43 2.87 12.93
1/18/2021 10:45:00 AM 2.39 36.302 0.18 7.43 2.91 12.94
1/18/2021 11:00:00 AM 2.43 36.374 0.18 7.46 2.93 12.98
1/18/2021 11:15:00 AM 2.47 36.446 0.18 7.45 2.85 12.97
1/18/2021 11:30:00 AM 2.51 36.518 0.18 7.46 2.86 12.98
1/18/2021 11:45:00 AM 2.55 36.59 0.18 7.46 2.96 12.98
1/18/2021 12:00:00 PM 2.61 36.698 0.18 7.45 3.01 12.96
1/18/2021 12:15:00 PM 2.65 36.77 0.18 7.46 3.05 12.98
1/18/2021 12:30:00 PM 2.73 36.914 0.18 7.47 2.91 12.96
1/18/2021 12:45:00 PM 2.82 37.076 0.18 7.47 3.12 12.96
1/18/2021 1:00:00 PM 2.91 37.238 0.18 7.47 2.94 12.95
1/18/2021 1:15:00 PM 3.01 37.418 0.179 7.48 2.88 12.92
1/18/2021 1:30:00 PM 3 37.4 0.179 7.49 2.89 12.93
1/18/2021 1:45:00 PM 3.09 37.562 0.179 7.49 2.93 12.9
1/18/2021 2:00:00 PM 3.09 37.562 0.179 7.45 2.87 12.88
1/18/2021 2:15:00 PM 3.13 37.634 0.179 7.46 2.86 12.85
1/18/2021 2:30:00 PM 3.14 37.652 0.179 7.48 2.95 12.86
1/18/2021 2:45:00 PM 3.16 37.688 0.179 7.44 2.9 12.83
1/18/2021 3:00:00 PM 3.17 37.706 0.179 7.45 2.86 12.82
1/18/2021 3:15:00 PM 3.16 37.688 0.179 7.45 2.85 12.81
1/18/2021 3:30:00 PM 3.13 37.634 0.179 7.42 2.83 12.79
1/18/2021 3:45:00 PM 3.09 37.562 0.179 7.43 2.95 12.79
1/18/2021 4:00:00 PM 3.05 37.49 0.179 7.39 2.78 12.76
1/18/2021 4:15:00 PM 3 37.4 0.179 7.39 2.87 12.76
1/18/2021 4:30:00 PM 2.96 37.328 0.179 7.36 2.81 12.74
1/18/2021 4:45:00 PM 2.92 37.256 0.179 7.38 2.82 12.74
1/18/2021 5:00:00 PM 2.86 37.148 0.179 7.36 2.92 12.72
1/18/2021 5:15:00 PM 2.8 37.04 0.179 7.33 2.85 12.71
1/18/2021 5:30:00 PM 2.74 36.932 0.179 7.32 2.85 12.7
1/18/2021 5:45:00 PM 2.69 36.842 0.179 7.32 2.83 12.69
1/18/2021 6:00:00 PM 2.64 36.752 0.18 7.31 2.89 12.68
1/18/2021 6:15:00 PM 2.58 36.644 0.18 7.3 2.78 12.69
1/18/2021 6:30:00 PM 2.54 36.572 0.18 7.29 2.85 12.69
1/18/2021 6:45:00 PM 2.49 36.482 0.18 7.3 2.84 12.69
1/18/2021 7:00:00 PM 2.44 36.392 0.18 7.3 2.85 12.69
1/18/2021 7:15:00 PM 2.4 36.32 0.18 7.28 2.95 12.7
1/18/2021 7:30:00 PM 2.36 36.248 0.18 7.28 3.02 12.7
1/18/2021 7:45:00 PM 2.32 36.176 0.181 7.28 3.02 12.71
1/18/2021 8:00:00 PM 2.3 36.14 0.18 7.28 2.9 12.71
1/18/2021 8:15:00 PM 2.26 36.068 0.181 7.28 3.03 12.73
1/18/2021 8:30:00 PM 2.24 36.032 0.181 7.28 2.89 12.73
1/18/2021 8:45:00 PM 2.21 35.978 0.181 7.28 2.95 12.75
1/18/2021 9:00:00 PM 2.19 35.942 0.181 7.29 2.92 12.74
1/18/2021 9:15:00 PM 2.16 35.888 0.181 7.29 2.96 12.76
1/18/2021 9:30:00 PM 2.12 35.816 0.181 7.28 2.96 12.76
1/18/2021 9:45:00 PM 2.09 35.762 0.181 7.28 3.15 12.77
1/18/2021 10:00:00 PM 2.08 35.744 0.181 7.28 2.95 12.77
1/18/2021 10:15:00 PM 2.07 35.726 0.181 7.29 2.93 12.79
1/18/2021 10:30:00 PM 2.05 35.69 0.181 7.29 2.94 12.79
1/18/2021 10:45:00 PM 2.04 35.672 0.181 7.29 2.92 12.79
1/18/2021 11:00:00 PM 2.02 35.636 0.181 7.29 2.89 12.81
1/18/2021 11:15:00 PM 2.01 35.618 0.181 7.29 2.89 12.81
1/18/2021 11:30:00 PM 2 35.6 0.181 7.28 2.82 12.81
1/18/2021 11:45:00 PM 1.99 35.582 0.181 7.29 2.78 12.81
1/19/2021 12:00:00 AM 1.99 35.582 0.181 7.29 2.85 12.82
1/19/2021 12:15:00 AM 1.98 35.564 0.181 7.29 2.81 12.83
1/19/2021 12:30:00 AM 1.98 35.564 0.181 7.29 3.1 12.83
1/19/2021 12:45:00 AM 1.98 35.564 0.181 7.29 3.02 12.82
1/19/2021 1:00:00 AM 1.98 35.564 0.181 7.29 2.8 12.82
1/19/2021 1:15:00 AM 1.97 35.546 0.181 7.3 2.98 12.83
1/19/2021 1:30:00 AM 1.97 35.546 0.181 7.3 2.84 12.83
1/19/2021 1:45:00 AM 1.96 35.528 0.181 7.3 2.93 12.83
1/19/2021 2:00:00 AM 1.96 35.528 0.181 7.31 2.92 12.82
1/19/2021 2:15:00 AM 1.96 35.528 0.181 7.3 2.94 12.83
1/19/2021 2:30:00 AM 1.96 35.528 0.181 7.3 2.82 12.83
1/19/2021 2:45:00 AM 1.96 35.528 0.181 7.3 2.86 12.83
1/19/2021 3:00:00 AM 1.96 35.528 0.181 7.3 3.91 12.84
1/19/2021 3:15:00 AM 1.96 35.528 0.181 7.3 3.06 12.84
1/19/2021 3:30:00 AM 1.96 35.528 0.181 7.3 2.94 12.83
1/19/2021 3:45:00 AM 1.95 35.51 0.181 7.3 2.9 12.84
1/19/2021 4:00:00 AM 1.95 35.51 0.181 7.3 2.92 12.83
1/19/2021 4:15:00 AM 1.94 35.492 0.181 7.31 4.34 12.83
1/19/2021 4:30:00 AM 1.94 35.492 0.181 7.32 4.6 12.84
1/19/2021 4:45:00 AM 1.94 35.492 0.181 7.31 2.99 12.84
1/19/2021 5:00:00 AM 1.94 35.492 0.18 7.31 2.92 12.83
1/19/2021 5:15:00 AM 1.94 35.492 0.181 7.3 2.92 12.85
1/19/2021 5:30:00 AM 1.94 35.492 0.181 7.3 2.89 12.85
1/19/2021 5:45:00 AM 1.94 35.492 0.18 7.31 2.86 12.85
1/19/2021 6:00:00 AM 1.93 35.474 0.18 7.3 2.87 12.85
1/19/2021 6:15:00 AM 1.94 35.492 0.18 7.3 2.88 12.84
1/19/2021 6:30:00 AM 1.93 35.474 0.18 7.3 3.23 12.85
1/19/2021 6:45:00 AM 1.93 35.474 0.18 7.3 2.9 12.86
1/19/2021 7:00:00 AM 1.93 35.474 0.18 7.3 3.04 12.85
1/19/2021 7:15:00 AM 1.93 35.474 0.18 7.31 3.13 12.86
1/19/2021 7:30:00 AM 1.92 35.456 0.181 7.31 3.39 12.86
1/19/2021 7:45:00 AM 1.92 35.456 0.181 7.31 3.27 12.87
1/19/2021 8:00:00 AM 1.92 35.456 0.181 7.31 3.15 12.88
1/19/2021 8:15:00 AM 1.92 35.456 0.181 7.3 3.15 12.87
1/19/2021 8:30:00 AM 1.92 35.456 0.181 7.31 2.91 12.9
1/19/2021 8:45:00 AM 1.93 35.474 0.181 7.32 2.81 12.91
1/19/2021 9:00:00 AM 1.94 35.492 0.181 7.33 2.8 12.95
1/19/2021 9:15:00 AM 1.95 35.51 0.181 7.33 2.79 12.97
1/19/2021 9:30:00 AM 1.97 35.546 0.18 7.34 2.72 13.01
1/19/2021 9:45:00 AM 1.99 35.582 0.181 7.35 2.68 13.03
1/19/2021 10:00:00 AM 2.02 35.636 0.18 7.34 2.69 13.05
1/19/2021 10:15:00 AM 2.05 35.69 0.18 7.35 2.82 13.08
1/19/2021 10:30:00 AM 2.08 35.744 0.18 7.36 2.79 13.11
1/19/2021 10:45:00 AM 2.13 35.834 0.18 7.36 2.69 13.13
1/19/2021 11:00:00 AM 2.16 35.888 0.18 7.37 2.75 13.14
1/19/2021 11:15:00 AM 2.22 35.996 0.18 7.37 2.79 13.15
1/19/2021 11:30:00 AM 2.28 36.104 0.18 7.38 2.73 13.16
1/19/2021 11:45:00 AM 2.33 36.194 0.18 7.38 2.64 13.16
1/19/2021 12:00:00 PM 2.4 36.32 0.18 7.39 2.66 13.16
1/19/2021 12:15:00 PM 2.47 36.446 0.18 7.4 2.92 13.15
1/19/2021 12:30:00 PM 2.54 36.572 0.18 7.42 2.69 13.15
1/19/2021 12:45:00 PM 2.6 36.68 0.18 7.42 2.8 13.14
1/19/2021 1:00:00 PM 2.65 36.77 0.18 7.43 2.65 13.13
1/19/2021 1:15:00 PM 2.7 36.86 0.18 7.43 2.64 13.11
1/19/2021 1:30:00 PM 2.74 36.932 0.18 7.43 2.72 13.1
1/19/2021 1:45:00 PM 2.8 37.04 0.18 7.43 2.81 13.07
1/19/2021 2:00:00 PM 2.8 37.04 0.18 7.43 4.25 13.05
1/19/2021 2:15:00 PM 2.89 37.202 0.18 7.43 4.29 13.04
1/19/2021 2:30:00 PM 2.92 37.256 0.181 7.43 2.81 13.04
1/19/2021 2:45:00 PM 2.98 37.364 0.18 7.42 2.66 13.02
1/19/2021 3:00:00 PM 2.98 37.364 0.18 7.39 2.77 13.01
1/19/2021 3:15:00 PM 2.97 37.346 0.18 7.4 2.73 12.98
1/19/2021 3:30:00 PM 2.93 37.274 0.18 7.39 2.77 12.97
1/19/2021 3:45:00 PM 2.92 37.256 0.181 7.39 2.92 12.95
1/19/2021 4:00:00 PM 2.91 37.238 0.181 7.38 2.83 12.93
1/19/2021 4:15:00 PM 2.89 37.202 0.181 7.39 2.79 12.91
1/19/2021 4:30:00 PM 2.87 37.166 0.18 7.37 2.85 12.88
1/19/2021 4:45:00 PM 2.82 37.076 0.18 7.38 2.81 12.86
1/19/2021 5:00:00 PM 2.77 36.986 0.18 7.37 2.73 12.84
1/19/2021 5:15:00 PM 2.71 36.878 0.181 7.34 2.74 12.81
1/19/2021 5:30:00 PM 2.66 36.788 0.181 7.33 2.81 12.8
1/19/2021 5:45:00 PM 2.62 36.716 0.181 7.33 2.85 12.79
1/19/2021 6:00:00 PM 2.58 36.644 0.181 7.32 2.84 12.78
1/19/2021 6:15:00 PM 2.54 36.572 0.181 7.32 2.78 12.76
1/19/2021 6:30:00 PM 2.49 36.482 0.181 7.32 2.77 12.76
1/19/2021 6:45:00 PM 2.46 36.428 0.181 7.3 2.81 12.74
1/19/2021 7:00:00 PM 2.43 36.374 0.182 7.3 2.83 12.75
1/19/2021 7:15:00 PM 2.4 36.32 0.181 7.3 2.9 12.73
1/19/2021 7:30:00 PM 2.36 36.248 0.181 7.3 2.69 12.74
1/19/2021 7:45:00 PM 2.31 36.158 0.181 7.29 2.81 12.75
1/19/2021 8:00:00 PM 2.29 36.122 0.181 7.3 2.88 12.74
1/19/2021 8:15:00 PM 2.27 36.086 0.181 7.29 2.78 12.74
1/19/2021 8:30:00 PM 2.24 36.032 0.181 7.31 2.89 12.75
1/19/2021 8:45:00 PM 2.21 35.978 0.181 7.3 2.82 12.76
1/19/2021 9:00:00 PM 2.16 35.888 0.181 7.3 2.74 12.77
1/19/2021 9:15:00 PM 2.13 35.834 0.181 7.29 2.75 12.77
1/19/2021 9:30:00 PM 2.12 35.816 0.181 7.29 2.7 12.76
1/19/2021 9:45:00 PM 2.1 35.78 0.181 7.3 2.76 12.77
1/19/2021 10:00:00 PM 2.09 35.762 0.181 7.3 2.76 12.76
1/19/2021 10:15:00 PM 2.08 35.744 0.181 7.3 2.79 12.78
1/19/2021 10:30:00 PM 2.05 35.69 0.182 7.31 2.93 12.8
1/19/2021 10:45:00 PM 2.04 35.672 0.181 7.31 2.89 12.8
1/19/2021 11:00:00 PM 2.03 35.654 0.181 7.31 2.78 12.8
1/19/2021 11:15:00 PM 2.01 35.618 0.182 7.31 2.87 12.81
1/19/2021 11:30:00 PM 2.02 35.636 0.181 7.3 2.83 12.79
1/19/2021 11:45:00 PM 1.99 35.582 0.181 7.3 2.83 12.8
1/20/2021 12:00:00 AM 1.97 35.546 0.182 7.3 2.76 12.82
1/20/2021 12:15:00 AM 1.97 35.546 0.181 7.3 2.8 12.82
1/20/2021 12:30:00 AM 1.97 35.546 0.181 7.3 2.73 12.81
1/20/2021 12:45:00 AM 1.94 35.492 0.182 7.31 2.66 12.81
1/20/2021 1:00:00 AM 1.9 35.42 0.182 7.33 2.81 12.86
1/20/2021 1:15:00 AM 1.89 35.402 0.182 7.32 2.74 12.85
1/20/2021 1:30:00 AM 1.89 35.402 0.181 7.3 2.68 12.81
1/20/2021 1:45:00 AM 1.86 35.348 0.182 7.33 2.77 12.86
1/20/2021 2:00:00 AM 1.87 35.366 0.181 7.32 2.75 12.81
1/20/2021 2:15:00 AM 1.84 35.312 0.182 7.34 2.8 12.86
1/20/2021 2:30:00 AM 1.83 35.294 0.182 7.32 2.68 12.85
1/20/2021 2:45:00 AM 1.82 35.276 0.181 7.32 2.71 12.83
1/20/2021 3:00:00 AM 1.79 35.222 0.181 7.31 2.66 12.84
1/20/2021 3:15:00 AM 1.77 35.186 0.182 7.31 2.71 12.84
1/20/2021 3:30:00 AM 1.78 35.204 0.181 7.31 2.72 12.8
1/20/2021 3:45:00 AM 1.69 35.042 0.182 7.32 2.79 12.87
1/20/2021 4:00:00 AM 1.67 35.006 0.182 7.32 3.15 12.86
1/20/2021 4:15:00 AM 1.66 34.988 0.181 7.3 2.93 12.84
1/20/2021 4:30:00 AM 1.63 34.934 0.181 7.3 2.79 12.84
1/20/2021 4:45:00 AM 1.59 34.862 0.181 7.31 2.95 12.88
1/20/2021 5:00:00 AM 1.51 34.718 0.181 7.31 2.84 12.88
1/20/2021 5:15:00 AM 1.48 34.664 0.181 7.3 2.95 12.87
1/20/2021 5:30:00 AM 1.48 34.664 0.181 7.3 2.81 12.88
1/20/2021 5:45:00 AM 1.46 34.628 0.182 7.29 2.86 12.93
1/20/2021 6:00:00 AM 1.46 34.628 0.181 7.29 4.13 12.91
1/20/2021 6:15:00 AM 1.42 34.556 0.181 7.28 3.22 12.95
1/20/2021 6:30:00 AM 1.42 34.556 0.181 7.27 2.92 12.95
1/20/2021 6:45:00 AM 1.4 34.52 0.182 7.29 3.15 12.97
1/20/2021 7:00:00 AM 1.4 34.52 0.181 7.29 3.18 12.96
1/20/2021 7:15:00 AM 1.38 34.484 0.181 7.29 3.19 12.97
1/20/2021 7:30:00 AM 1.31 34.358 0.181 7.29 3.1 12.99
1/20/2021 7:45:00 AM 1.28 34.304 0.181 7.28 3.05 13
1/20/2021 8:00:00 AM 1.27 34.286 0.181 7.3 2.87 13.02
1/20/2021 8:15:00 AM 1.24 34.232 0.181 7.31 2.86 13.08
1/20/2021 8:30:00 AM 1.24 34.232 0.182 7.32 2.87 13.09
1/20/2021 8:45:00 AM 1.25 34.25 0.182 7.32 2.9 13.12
1/20/2021 9:00:00 AM 1.26 34.268 0.182 7.32 2.9 13.16
1/20/2021 9:15:00 AM 1.28 34.304 0.182 7.34 2.69 13.2
1/20/2021 9:30:00 AM 1.3 34.34 0.182 7.34 2.77 13.24
1/20/2021 9:45:00 AM 1.32 34.376 0.181 7.34 2.64 13.28
1/20/2021 10:00:00 AM 1.31 34.358 0.182 7.35 2.67 13.33
1/20/2021 10:15:00 AM 1.33 34.394 0.181 7.35 2.77 13.34
1/20/2021 10:30:00 AM 1.24 34.232 0.181 7.35 2.82 13.36
1/20/2021 10:45:00 AM 1.32 34.376 0.181 7.35 2.62 13.36
1/20/2021 11:00:00 AM 1.39 34.502 0.181 7.36 2.61 13.37
1/20/2021 11:15:00 AM 1.43 34.574 0.181 7.38 2.66 13.39
1/20/2021 11:30:00 AM 1.5 34.7 0.18 7.37 2.66 13.38
1/20/2021 11:45:00 AM 1.48 34.664 0.181 7.39 2.62 13.41
1/20/2021 12:00:00 PM 1.53 34.754 0.181 7.42 2.65 13.44
1/20/2021 12:15:00 PM 1.56 34.808 0.18 7.42 2.67 13.41
1/20/2021 12:30:00 PM 1.63 34.934 0.18 7.42 2.65 13.39
1/20/2021 12:45:00 PM 1.65 34.97 0.18 7.42 2.75 13.4
1/20/2021 1:00:00 PM 1.72 35.096 0.181 7.44 2.95 13.42
1/20/2021 1:15:00 PM 1.8 35.24 0.182 7.48 3.45 13.44
1/20/2021 1:30:00 PM 1.84 35.312 0.18 7.44 2.71 13.39
1/20/2021 1:45:00 PM 1.84 35.312 0.181 7.45 2.63 13.41
1/20/2021 2:00:00 PM 2 35.6 0.181 7.46 2.61 13.38
1/20/2021 2:15:00 PM 2.07 35.726 0.181 7.47 2.76 13.38
1/20/2021 2:30:00 PM 2.11 35.798 0.181 7.48 2.7 13.37
1/20/2021 2:45:00 PM 2.06 35.708 0.181 7.5 2.78 13.37
1/20/2021 3:00:00 PM 2.05 35.69 0.18 7.44 2.77 13.3
1/20/2021 3:15:00 PM 1.95 35.51 0.181 7.43 2.71 13.31
1/20/2021 3:30:00 PM 1.85 35.33 0.181 7.45 2.68 13.34
1/20/2021 3:45:00 PM 1.78 35.204 0.181 7.41 2.71 13.31
1/20/2021 4:00:00 PM 1.69 35.042 0.181 7.4 2.63 13.32
1/20/2021 4:15:00 PM 1.6 34.88 0.182 7.45 2.77 13.38
1/20/2021 4:30:00 PM 1.57 34.826 0.181 7.4 2.71 13.32
1/20/2021 4:45:00 PM 1.48 34.664 0.181 7.4 2.92 13.32
1/20/2021 5:00:00 PM 1.4 34.52 0.181 7.38 2.73 13.33
1/20/2021 5:15:00 PM 1.33 34.394 0.181 7.38 2.69 13.32
1/20/2021 5:30:00 PM 1.23 34.214 0.183 7.39 2.67 13.37
1/20/2021 5:45:00 PM 1.17 34.106 0.183 7.39 2.71 13.36
1/20/2021 6:00:00 PM 1.13 34.034 0.182 7.36 2.6 13.32
1/20/2021 6:15:00 PM 1.09 33.962 0.182 7.35 2.68 13.29
1/20/2021 6:30:00 PM 1 33.8 0.183 7.39 2.79 13.35
1/20/2021 6:45:00 PM 0.95 33.71 0.183 7.36 2.75 13.33
1/20/2021 7:00:00 PM 0.9 33.62 0.183 7.35 2.95 13.32
1/20/2021 7:15:00 PM 0.83 33.494 0.183 7.37 2.93 13.36
1/20/2021 7:30:00 PM 0.83 33.494 0.182 7.36 2.83 13.3
1/20/2021 7:45:00 PM 0.74 33.332 0.184 7.39 2.89 13.39
1/20/2021 8:00:00 PM 0.71 33.278 0.184 7.37 2.88 13.38
1/20/2021 8:15:00 PM 0.71 33.278 0.183 7.35 2.9 13.34
1/20/2021 8:30:00 PM 0.69 33.242 0.183 7.34 2.85 13.32
1/20/2021 8:45:00 PM 0.66 33.188 0.184 7.35 2.93 13.35
1/20/2021 9:00:00 PM 0.61 33.098 0.184 7.38 2.9 13.39
1/20/2021 9:15:00 PM 0.57 33.026 0.185 7.39 2.92 13.41
1/20/2021 9:30:00 PM 0.58 33.044 0.184 7.36 2.79 13.39
1/20/2021 9:45:00 PM 0.54 32.972 0.185 7.39 2.93 13.42
1/20/2021 10:00:00 PM 0.58 33.044 0.184 7.34 2.73 13.34
1/20/2021 10:15:00 PM 0.52 32.936 0.185 7.36 2.95 13.4
1/20/2021 10:30:00 PM 0.54 32.972 0.184 7.34 2.93 13.35
1/20/2021 10:45:00 PM 0.54 32.972 0.184 7.33 2.97 13.34
1/20/2021 11:00:00 PM 0.51 32.918 0.184 7.34 2.86 13.35
1/20/2021 11:15:00 PM 0.49 32.882 0.184 7.33 3.39 13.38
1/20/2021 11:30:00 PM 0.43 32.774 0.186 7.37 2.83 13.44
1/20/2021 11:45:00 PM 0.43 32.774 0.185 7.34 2.88 13.41
1/21/2021 12:00:00 AM 0.42 32.756 0.185 7.34 3 13.4
1/21/2021 12:15:00 AM 0.39 32.702 0.186 7.33 2.95 13.4
1/21/2021 12:30:00 AM 0.33 32.594 0.186 7.34 2.9 13.44
1/21/2021 12:45:00 AM 0.36 32.648 0.185 7.32 2.91 13.37
1/21/2021 1:00:00 AM 0.32 32.576 0.185 7.29 2.97 13.37
1/21/2021 1:15:00 AM 0.26 32.468 0.186 7.3 2.86 13.39
1/21/2021 1:30:00 AM 0.22 32.396 0.185 7.31 2.83 13.43
1/21/2021 1:45:00 AM 0.13 32.234 0.187 7.34 2.94 13.49
1/21/2021 2:00:00 AM 0.14 32.252 0.186 7.31 2.85 13.45
1/21/2021 2:15:00 AM 0.08 32.144 0.187 7.32 2.89 13.49
1/21/2021 2:30:00 AM 0.02 32.036 0.187 7.34 2.85 13.54
1/21/2021 2:45:00 AM 0.05 32.09 0.186 7.3 2.98 13.46
1/21/2021 3:00:00 AM 0 32 0.187 7.31 2.97 13.49
1/21/2021 3:15:00 AM 0.01 32.018 0.186 7.3 3 13.45
1/21/2021 3:30:00 AM -0.03 31.946 0.187 7.32 3.06 13.5
1/21/2021 3:45:00 AM -0.01 31.982 0.186 7.33 3.14 13.52
1/21/2021 4:00:00 AM -0.03 31.946 0.185 7.37 3.22 13.56
1/21/2021 4:15:00 AM -0.04 31.928 0.187 7.38 3.37 13.6
1/21/2021 4:30:00 AM -0.05 31.91 0.188 7.38 3.31 13.63
1/21/2021 4:45:00 AM -0.05 31.91 0.188 7.39 3.35 13.65
1/21/2021 5:00:00 AM -0.05 31.91 0.189 7.37 3.58 13.65
1/21/2021 5:15:00 AM -0.05 31.91 0.189 7.34 3.2 13.65
1/21/2021 5:30:00 AM -0.05 31.91 0.189 7.33 3.17 13.65
1/21/2021 5:45:00 AM -0.05 31.91 0.189 7.32 3.22 13.64
1/21/2021 6:00:00 AM -0.06 31.892 0.19 7.35 3.31 13.66
1/21/2021 6:15:00 AM -0.05 31.91 0.19 7.34 3.18 13.62
1/21/2021 6:30:00 AM -0.06 31.892 0.19 7.35 3.24 13.65
1/21/2021 6:45:00 AM -0.05 31.91 0.19 7.33 3.26 13.62
1/21/2021 7:00:00 AM -0.05 31.91 0.19 7.34 3.05 13.61
1/21/2021 7:15:00 AM -0.04 31.928 0.19 7.31 3.12 13.61
1/21/2021 7:30:00 AM -0.05 31.91 0.19 7.29 3.14 13.62
1/21/2021 7:45:00 AM -0.06 31.892 0.19 7.31 3.72 13.62
1/21/2021 8:00:00 AM -0.06 31.892 0.191 7.28 3.4 13.63
1/21/2021 8:15:00 AM -0.06 31.892 0.191 7.32 3.2 13.61
1/21/2021 8:30:00 AM -0.06 31.892 0.191 7.33 3.29 13.61
1/21/2021 8:45:00 AM -0.05 31.91 0.191 7.31 3.13 13.61
1/21/2021 9:00:00 AM -0.05 31.91 0.191 7.32 3.12 13.62
1/21/2021 9:15:00 AM -0.05 31.91 0.191 7.35 3.1 13.63
1/21/2021 9:30:00 AM -0.04 31.928 0.191 7.34 3.11 13.63
1/21/2021 9:45:00 AM -0.04 31.928 0.191 7.36 3.09 13.66
1/21/2021 10:00:00 AM -0.02 31.964 0.19 7.37 3.06 13.68
1/21/2021 10:15:00 AM 0.02 32.036 0.19 7.37 3.07 13.66
1/21/2021 10:30:00 AM 0.06 32.108 0.189 7.37 3.03 13.66
1/21/2021 10:45:00 AM 0.1 32.18 0.189 7.38 2.93 13.64
1/21/2021 11:00:00 AM 0.08 32.144 0.19 7.41 3.06 13.68
1/21/2021 11:15:00 AM 0.12 32.216 0.189 7.42 2.93 13.67
1/21/2021 11:30:00 AM 0.2 32.36 0.188 7.37 3.07 13.59
1/21/2021 11:45:00 AM 0.23 32.414 0.188 7.39 3.01 13.58
1/21/2021 12:00:00 PM 0.29 32.522 0.187 7.38 7.25 13.57
1/21/2021 12:15:00 PM 0.38 32.684 0.187 7.39 3.09 13.55
1/21/2021 12:30:00 PM 0.46 32.828 0.187 7.4 2.84 13.55
1/21/2021 12:45:00 PM 0.54 32.972 0.187 7.41 3.04 13.55
1/21/2021 1:00:00 PM 0.61 33.098 0.187 7.43 3.21 13.55
1/21/2021 1:15:00 PM 0.68 33.224 0.187 7.42 3.38 13.51
1/21/2021 1:30:00 PM 0.73 33.314 0.187 7.43 3.25 13.5
1/21/2021 1:45:00 PM 0.78 33.404 0.187 7.44 2.93 13.51
1/21/2021 2:00:00 PM 0.79 33.422 0.189 7.5 3.26 13.58
1/21/2021 2:15:00 PM 0.85 33.53 0.189 7.51 4.14 13.57
1/21/2021 2:30:00 PM 0.9 33.62 0.189 7.51 5.59 13.56
1/21/2021 2:45:00 PM 0.95 33.71 0.189 7.51 8.72 13.54
1/21/2021 3:00:00 PM 1 33.8 0.189 7.51 10.1 13.51
1/21/2021 3:15:00 PM 1.05 33.89 0.189 7.5 10.51 13.49
1/21/2021 3:30:00 PM 1.09 33.962 0.189 7.49 12.19 13.48
1/21/2021 3:45:00 PM 1.13 34.034 0.189 7.49 10.44 13.46
1/21/2021 4:00:00 PM 1.16 34.088 0.189 7.49 7.97 13.43
1/21/2021 4:15:00 PM 1.19 34.142 0.189 7.48 6.76 13.4
1/21/2021 4:30:00 PM 1.22 34.196 0.189 7.47 5.75 13.38
1/21/2021 4:45:00 PM 1.24 34.232 0.189 7.48 4.77 13.34
1/21/2021 5:00:00 PM 1.25 34.25 0.188 7.48 4.35 13.31
1/21/2021 5:15:00 PM 1.27 34.286 0.188 7.47 3.86 13.27
1/21/2021 5:30:00 PM 1.28 34.304 0.188 7.46 3.58 13.24
1/21/2021 5:45:00 PM 1.29 34.322 0.188 7.45 3.35 13.21
1/21/2021 6:00:00 PM 1.3 34.34 0.188 7.44 3.52 13.18
1/21/2021 6:15:00 PM 1.31 34.358 0.188 7.43 3.22 13.15
1/21/2021 6:30:00 PM 1.31 34.358 0.188 7.42 3.26 13.13
1/21/2021 6:45:00 PM 1.31 34.358 0.188 7.41 3.2 13.11
1/21/2021 7:00:00 PM 1.31 34.358 0.187 7.4 3.11 13.09
1/21/2021 7:15:00 PM 1.31 34.358 0.187 7.4 3.02 13.07
1/21/2021 7:30:00 PM 1.31 34.358 0.187 7.39 3.08 13.06
1/21/2021 7:45:00 PM 1.31 34.358 0.187 7.38 3.16 13.05
1/21/2021 8:00:00 PM 1.31 34.358 0.187 7.38 3.26 13.04
1/21/2021 8:15:00 PM 1.31 34.358 0.187 7.38 3.18 13.03
1/21/2021 8:30:00 PM 1.3 34.34 0.186 7.38 3.24 13.02
1/21/2021 8:45:00 PM 1.31 34.358 0.186 7.38 3.13 13.01
1/21/2021 9:00:00 PM 1.31 34.358 0.186 7.37 3.15 13
1/21/2021 9:15:00 PM 1.3 34.34 0.186 7.37 3.18 13
1/21/2021 9:30:00 PM 1.3 34.34 0.185 7.38 3.25 12.99
1/21/2021 9:45:00 PM 1.28 34.304 0.185 7.37 3.3 12.99
1/21/2021 10:00:00 PM 1.23 34.214 0.185 7.36 3.2 12.99
1/21/2021 10:15:00 PM 1.24 34.232 0.185 7.35 3.2 12.99
1/21/2021 10:30:00 PM 1.24 34.232 0.185 7.36 3.07 12.99
1/21/2021 10:45:00 PM 1.25 34.25 0.185 7.37 3.17 12.98
1/21/2021 11:00:00 PM 1.25 34.25 0.185 7.36 4.28 12.99
1/21/2021 11:15:00 PM 1.25 34.25 0.185 7.37 5.24 12.98
1/21/2021 11:30:00 PM 1.25 34.25 0.185 7.36 4.62 12.98
1/21/2021 11:45:00 PM 1.24 34.232 0.185 7.36 4.52 12.98
1/22/2021 12:00:00 AM 1.24 34.232 0.185 7.36 6.41 12.98
1/22/2021 12:15:00 AM 1.24 34.232 0.185 7.37 6.21 12.98
1/22/2021 12:30:00 AM 1.24 34.232 0.185 7.37 4.16 12.98
1/22/2021 12:45:00 AM 1.23 34.214 0.185 7.37 3.76 12.98
1/22/2021 1:00:00 AM 1.23 34.214 0.186 7.37 3.59 12.98
1/22/2021 1:15:00 AM 1.23 34.214 0.186 7.38 3.33 12.97
1/22/2021 1:30:00 AM 1.24 34.232 0.186 7.38 3.33 12.97
1/22/2021 1:45:00 AM 1.25 34.25 0.186 7.39 3.14 12.97
1/22/2021 2:00:00 AM 1.25 34.25 0.186 7.39 3.21 12.97
1/22/2021 2:15:00 AM 1.25 34.25 0.186 7.39 3.22 12.97
1/22/2021 2:30:00 AM 1.26 34.268 0.186 7.39 3.2 12.97
1/22/2021 2:45:00 AM 1.27 34.286 0.186 7.39 3.25 12.96
1/22/2021 3:00:00 AM 1.29 34.322 0.186 7.39 3.08 12.96
1/22/2021 3:15:00 AM 1.3 34.34 0.186 7.39 3.12 12.96
1/22/2021 3:30:00 AM 1.31 34.358 0.186 7.39 3.08 12.95
1/22/2021 3:45:00 AM 1.31 34.358 0.186 7.39 3.24 12.95
1/22/2021 4:00:00 AM 1.33 34.394 0.186 7.4 4.43 12.94
1/22/2021 4:15:00 AM 1.34 34.412 0.186 7.4 4.08 12.94
1/22/2021 4:30:00 AM 1.36 34.448 0.186 7.4 3.97 12.93
1/22/2021 4:45:00 AM 1.37 34.466 0.186 7.4 7.4 12.93
1/22/2021 5:00:00 AM 1.39 34.502 0.186 7.36 5.24 12.88
1/22/2021 5:15:00 AM 1.38 34.484 0.186 7.39 4.57 12.91
1/22/2021 5:30:00 AM 1.37 34.466 0.186 7.39 3.51 12.91
1/22/2021 5:45:00 AM 1.36 34.448 0.186 7.4 3.23 12.92
1/22/2021 6:00:00 AM 1.36 34.448 0.186 7.39 3.26 12.92
1/22/2021 6:15:00 AM 1.34 34.412 0.186 7.4 3.21 12.93
1/22/2021 6:30:00 AM 1.33 34.394 0.186 7.39 3.62 12.91
1/22/2021 6:45:00 AM 1.31 34.358 0.186 7.39 3.85 12.92
1/22/2021 7:00:00 AM 1.3 34.34 0.186 7.4 3.35 12.93
1/22/2021 7:15:00 AM 1.34 34.412 0.184 7.35 3.29 12.85
1/22/2021 7:30:00 AM 1.3 34.34 0.185 7.38 3.13 12.92
1/22/2021 7:45:00 AM 1.29 34.322 0.185 7.38 2.95 12.95
1/22/2021 8:00:00 AM 1.32 34.376 0.184 7.35 3.09 12.91
1/22/2021 8:15:00 AM 1.33 34.394 0.184 7.33 3.04 12.91
1/22/2021 8:30:00 AM 1.33 34.394 0.184 7.35 3.21 12.95
1/22/2021 8:45:00 AM 1.35 34.43 0.183 7.35 2.97 12.95
1/22/2021 9:00:00 AM 1.34 34.412 0.184 7.36 3.18 13.02
1/22/2021 9:15:00 AM 1.37 34.466 0.184 7.36 2.96 13.05
1/22/2021 9:30:00 AM 1.43 34.574 0.183 7.35 3.09 13.04
1/22/2021 9:45:00 AM 1.47 34.646 0.182 7.36 2.93 13.06
1/22/2021 10:00:00 AM 1.49 34.682 0.183 7.38 2.85 13.12
1/22/2021 10:15:00 AM 1.55 34.79 0.182 7.38 2.74 13.14
1/22/2021 10:30:00 AM 1.57 34.826 0.183 7.42 2.84 13.2
1/22/2021 10:45:00 AM 1.66 34.988 0.182 7.39 2.82 13.17
1/22/2021 11:00:00 AM 1.71 35.078 0.182 7.42 2.86 13.21
1/22/2021 11:15:00 AM 1.74 35.132 0.182 7.42 2.89 13.22
1/22/2021 11:30:00 AM 1.79 35.222 0.182 7.41 3.02 13.2
1/22/2021 11:45:00 AM 1.85 35.33 0.182 7.42 2.83 13.2
1/22/2021 12:00:00 PM 1.86 35.348 0.183 7.46 3.05 13.24
1/22/2021 12:15:00 PM 1.93 35.474 0.181 7.42 2.95 13.17
1/22/2021 12:30:00 PM 1.95 35.51 0.182 7.46 2.8 13.19
1/22/2021 12:45:00 PM 2.04 35.672 0.181 7.45 2.82 13.17
1/22/2021 1:00:00 PM 2.12 35.816 0.181 7.47 2.93 13.17
1/22/2021 1:15:00 PM 2.17 35.906 0.181 7.48 3.36 13.18
1/22/2021 1:30:00 PM 2.2 35.96 0.181 7.48 4.16 13.14
1/22/2021 1:45:00 PM 2.26 36.068 0.181 7.48 3.83 13.14
1/22/2021 2:00:00 PM 2.32 36.176 0.181 7.48 4.23 13.13
1/22/2021 2:15:00 PM 2.35 36.23 0.181 7.48 4.36 13.12
1/22/2021 2:30:00 PM 2.37 36.266 0.181 7.49 3.48 13.12
1/22/2021 2:45:00 PM 2.39 36.302 0.181 7.5 3.12 13.11
1/22/2021 3:00:00 PM 2.38 36.284 0.181 7.48 3.11 13.08
1/22/2021 3:15:00 PM 2.34 36.212 0.181 7.49 2.93 13.06
1/22/2021 3:30:00 PM 2.36 36.248 0.181 7.49 2.94 13.07
1/22/2021 3:45:00 PM 2.37 36.266 0.181 7.49 2.96 13.06
1/22/2021 4:00:00 PM 2.35 36.23 0.181 7.5 2.86 13.06
1/22/2021 4:15:00 PM 2.33 36.194 0.181 7.49 2.98 13.04
1/22/2021 4:30:00 PM 2.31 36.158 0.181 7.47 2.78 13.01
1/22/2021 4:45:00 PM 2.28 36.104 0.181 7.47 2.93 12.99
1/22/2021 5:00:00 PM 2.25 36.05 0.181 7.46 2.77 12.96
1/22/2021 5:15:00 PM 2.21 35.978 0.181 7.45 2.84 12.93
1/22/2021 5:30:00 PM 2.18 35.924 0.181 7.45 2.78 12.9
1/22/2021 5:45:00 PM 2.12 35.816 0.181 7.44 2.81 12.89
1/22/2021 6:00:00 PM 2.08 35.744 0.181 7.44 2.79 12.89
1/22/2021 6:15:00 PM 2.02 35.636 0.181 7.43 2.76 12.88
1/22/2021 6:30:00 PM 1.98 35.564 0.181 7.42 2.87 12.84
1/22/2021 6:45:00 PM 1.93 35.474 0.181 7.41 2.88 12.85
1/22/2021 7:00:00 PM 1.88 35.384 0.181 7.41 2.76 12.85
1/22/2021 7:15:00 PM 1.83 35.294 0.181 7.4 2.76 12.86
1/22/2021 7:30:00 PM 1.79 35.222 0.182 7.39 2.83 12.86
1/22/2021 7:45:00 PM 1.76 35.168 0.182 7.4 2.83 12.87
1/22/2021 8:00:00 PM 1.73 35.114 0.181 7.39 2.86 12.85
1/22/2021 8:15:00 PM 1.68 35.024 0.182 7.39 2.83 12.86
1/22/2021 8:30:00 PM 1.63 34.934 0.181 7.38 2.88 12.87
1/22/2021 8:45:00 PM 1.6 34.88 0.182 7.38 2.91 12.89
1/22/2021 9:00:00 PM 1.54 34.772 0.182 7.38 2.85 12.91
1/22/2021 9:15:00 PM 1.48 34.664 0.182 7.37 2.81 12.9
1/22/2021 9:30:00 PM 1.43 34.574 0.182 7.37 2.89 12.92
1/22/2021 9:45:00 PM 1.39 34.502 0.182 7.38 2.93 12.94
1/22/2021 10:00:00 PM 1.36 34.448 0.182 7.37 2.98 12.93
1/22/2021 10:15:00 PM 1.32 34.376 0.182 7.37 3.03 12.98
1/22/2021 10:30:00 PM 1.26 34.268 0.182 7.37 3.03 13
1/22/2021 10:45:00 PM 1.23 34.214 0.182 7.37 2.93 13
1/22/2021 11:00:00 PM 1.17 34.106 0.182 7.37 2.89 13.01
1/22/2021 11:15:00 PM 1.13 34.034 0.182 7.36 3.08 13.02
1/22/2021 11:30:00 PM 1.1 33.98 0.182 7.37 3.05 13.05
1/22/2021 11:45:00 PM 1.07 33.926 0.183 7.37 3.02 13.06
1/23/2021 12:00:00 AM 1.05 33.89 0.182 7.36 2.98 13.07
1/23/2021 12:15:00 AM 1.02 33.836 0.182 7.37 2.95 13.08
1/23/2021 12:30:00 AM 0.97 33.746 0.182 7.37 3 13.09
1/23/2021 12:45:00 AM 0.94 33.692 0.183 7.37 3 13.12
1/23/2021 1:00:00 AM 0.92 33.656 0.183 7.36 3 13.11
1/23/2021 1:15:00 AM 0.89 33.602 0.183 7.36 3 13.12
1/23/2021 1:30:00 AM 0.87 33.566 0.183 7.36 3.03 13.13
1/23/2021 1:45:00 AM 0.84 33.512 0.183 7.36 2.93 13.14
1/23/2021 2:00:00 AM 0.8 33.44 0.183 7.36 2.98 13.17
1/23/2021 2:15:00 AM 0.79 33.422 0.182 7.36 3.04 13.16
1/23/2021 2:30:00 AM 0.76 33.368 0.183 7.36 2.91 13.18
1/23/2021 2:45:00 AM 0.73 33.314 0.183 7.36 3.02 13.19
1/23/2021 3:00:00 AM 0.71 33.278 0.183 7.36 3.03 13.19
1/23/2021 3:15:00 AM 0.69 33.242 0.183 7.35 3 13.2
1/23/2021 3:30:00 AM 0.66 33.188 0.183 7.35 2.83 13.19
1/23/2021 3:45:00 AM 0.64 33.152 0.183 7.35 3.01 13.22
1/23/2021 4:00:00 AM 0.61 33.098 0.183 7.35 2.97 13.22
1/23/2021 4:15:00 AM 0.6 33.08 0.184 7.35 2.98 13.21
1/23/2021 4:30:00 AM 0.56 33.008 0.184 7.35 3.04 13.23
1/23/2021 4:45:00 AM 0.54 32.972 0.184 7.36 3.08 13.25
1/23/2021 5:00:00 AM 0.52 32.936 0.183 7.35 3 13.24
1/23/2021 5:15:00 AM 0.5 32.9 0.184 7.34 3.14 13.24
1/23/2021 5:30:00 AM 0.47 32.846 0.183 7.35 3.16 13.28
1/23/2021 5:45:00 AM 0.45 32.81 0.183 7.35 3.26 13.28
1/23/2021 6:00:00 AM 0.4 32.72 0.184 7.35 3.84 13.3
1/23/2021 6:15:00 AM 0.37 32.666 0.184 7.34 4.29 13.29
1/23/2021 6:30:00 AM 0.31 32.558 0.184 7.36 4.64 13.34
1/23/2021 6:45:00 AM 0.3 32.54 0.184 7.35 4.35 13.31
1/23/2021 7:00:00 AM 0.27 32.486 0.184 7.35 4.51 13.34
1/23/2021 7:15:00 AM 0.26 32.468 0.184 7.36 4.73 13.34
1/23/2021 7:30:00 AM 0.23 32.414 0.184 7.35 4.25 13.35
1/23/2021 7:45:00 AM 0.19 32.342 0.184 7.35 4.11 13.36
1/23/2021 8:00:00 AM 0.18 32.324 0.184 7.34 4.46 13.38
1/23/2021 8:15:00 AM 0.16 32.288 0.184 7.35 4.27 13.42
1/23/2021 8:30:00 AM 0.16 32.288 0.183 7.35 4.41 13.46
1/23/2021 8:45:00 AM 0.15 32.27 0.184 7.35 3.86 13.5
1/23/2021 9:00:00 AM 0.17 32.306 0.183 7.35 3.89 13.53
1/23/2021 9:15:00 AM 0.2 32.36 0.183 7.35 3.64 13.58
1/23/2021 9:30:00 AM 0.18 32.324 0.184 7.36 3.35 13.63
1/23/2021 9:45:00 AM 0.2 32.36 0.184 7.37 3.27 13.68
1/23/2021 10:00:00 AM 0.2 32.36 0.184 7.37 3.05 13.73
1/23/2021 10:15:00 AM 0.22 32.396 0.183 7.38 3 13.77
1/23/2021 10:30:00 AM 0.22 32.396 0.183 7.39 3.01 13.82
1/23/2021 10:45:00 AM 0.24 32.432 0.183 7.39 3.21 13.84
1/23/2021 11:00:00 AM 0.29 32.522 0.183 7.39 3.04 13.85
1/23/2021 11:15:00 AM 0.36 32.648 0.182 7.39 2.84 13.85
1/23/2021 11:30:00 AM 0.38 32.684 0.182 7.38 2.94 13.86
1/23/2021 11:45:00 AM 0.41 32.738 0.183 7.39 2.89 13.86
1/23/2021 12:00:00 PM 0.45 32.81 0.182 7.38 2.81 13.86
1/23/2021 12:15:00 PM 0.44 32.792 0.183 7.38 2.83 13.84
1/23/2021 12:30:00 PM 0.45 32.81 0.182 7.38 2.81 13.84
1/23/2021 12:45:00 PM 0.47 32.846 0.182 7.39 3.05 13.86
1/23/2021 1:00:00 PM 0.51 32.918 0.182 7.38 3.01 13.81
1/23/2021 1:15:00 PM 0.48 32.864 0.182 7.38 3.24 13.83
1/23/2021 1:30:00 PM 0.5 32.9 0.182 7.38 3.87 13.8
1/23/2021 1:45:00 PM 0.52 32.936 0.182 7.38 3.12 13.8
1/23/2021 2:00:00 PM 0.52 32.936 0.182 7.39 3.94 13.81
1/23/2021 2:15:00 PM 0.52 32.936 0.183 7.4 4.59 13.82
1/23/2021 2:30:00 PM 0.53 32.954 0.183 7.41 3.86 13.82
1/23/2021 2:45:00 PM 0.55 32.99 0.182 7.4 3.78 13.82
1/23/2021 3:00:00 PM 0.55 32.99 0.182 7.41 3.78 13.81
1/23/2021 3:15:00 PM 0.56 33.008 0.183 7.41 3.49 13.81
1/23/2021 3:30:00 PM 0.56 33.008 0.183 7.42 3.11 13.8
1/23/2021 3:45:00 PM 0.54 32.972 0.183 7.41 3.99 13.78
1/23/2021 4:00:00 PM 0.52 32.936 0.183 7.43 3.79 13.78
1/23/2021 4:15:00 PM 0.48 32.864 0.184 7.42 4.4 13.76
1/23/2021 4:30:00 PM 0.45 32.81 0.183 7.42 3.98 13.74
1/23/2021 4:45:00 PM 0.42 32.756 0.184 7.42 4.06 13.72
1/23/2021 5:00:00 PM 0.37 32.666 0.184 7.42 3.63 13.72
1/23/2021 5:15:00 PM 0.33 32.594 0.185 7.42 3.05 13.71
1/23/2021 5:30:00 PM 0.3 32.54 0.185 7.42 3.1 13.69
1/23/2021 5:45:00 PM 0.27 32.486 0.185 7.42 3.06 13.68
1/23/2021 6:00:00 PM 0.26 32.468 0.185 7.4 3.11 13.64
1/23/2021 6:15:00 PM 0.22 32.396 0.185 7.4 3.13 13.64
1/23/2021 6:30:00 PM 0.2 32.36 0.185 7.39 2.92 13.62
1/23/2021 6:45:00 PM 0.18 32.324 0.186 7.39 3 13.62
1/23/2021 7:00:00 PM 0.15 32.27 0.186 7.39 2.93 13.62
1/23/2021 7:15:00 PM 0.13 32.234 0.186 7.37 4.31 13.6
1/23/2021 7:30:00 PM 0.1 32.18 0.187 7.37 3.08 13.62
1/23/2021 7:45:00 PM 0.1 32.18 0.187 7.36 3.27 13.6
1/23/2021 8:00:00 PM 0.07 32.126 0.188 7.36 2.73 13.61
1/23/2021 8:15:00 PM 0.08 32.144 0.188 7.35 2.64 13.6
1/23/2021 8:30:00 PM 0.08 32.144 0.188 7.35 2.81 13.58
1/23/2021 8:45:00 PM 0.08 32.144 0.189 7.34 2.92 13.57
1/23/2021 9:00:00 PM 0.1 32.18 0.188 7.34 2.91 13.57
1/23/2021 9:15:00 PM 0.06 32.108 0.19 7.35 2.87 13.62
1/23/2021 9:30:00 PM 0.07 32.126 0.19 7.35 2.95 13.62
1/23/2021 9:45:00 PM 0.07 32.126 0.19 7.36 3.18 13.62
1/23/2021 10:00:00 PM 0.06 32.108 0.19 7.37 3.24 13.64
1/23/2021 10:15:00 PM 0.07 32.126 0.19 7.36 3.6 13.63
1/23/2021 10:30:00 PM 0.06 32.108 0.191 7.36 3.6 13.65
1/23/2021 10:45:00 PM 0.05 32.09 0.191 7.36 3.95 13.64
1/23/2021 11:00:00 PM 0.07 32.126 0.191 7.35 3.99 13.61
1/23/2021 11:15:00 PM 0.05 32.09 0.191 7.36 3.88 13.64
1/23/2021 11:30:00 PM 0.06 32.108 0.191 7.35 3.67 13.62
1/23/2021 11:45:00 PM 0.05 32.09 0.191 7.35 4.2 13.63
1/24/2021 12:00:00 AM 0.05 32.09 0.191 7.35 4.02 13.62
1/24/2021 12:15:00 AM 0.06 32.108 0.191 7.34 4 13.6
1/24/2021 12:30:00 AM 0.05 32.09 0.191 7.34 4.19 13.62
1/24/2021 12:45:00 AM 0.06 32.108 0.191 7.33 4.13 13.6
1/24/2021 1:00:00 AM 0.07 32.126 0.19 7.33 3.67 13.6
1/24/2021 1:15:00 AM 0.04 32.072 0.191 7.34 3.32 13.61
1/24/2021 1:30:00 AM 0.07 32.126 0.19 7.33 3.2 13.57
1/24/2021 1:45:00 AM 0.05 32.09 0.19 7.34 3.15 13.6
1/24/2021 2:00:00 AM 0.05 32.09 0.191 7.34 3.11 13.59
1/24/2021 2:15:00 AM 0.05 32.09 0.191 7.34 3.17 13.6
1/24/2021 2:30:00 AM 0.06 32.108 0.191 7.34 3.24 13.58
1/24/2021 2:45:00 AM 0.06 32.108 0.191 7.34 3.22 13.57
1/24/2021 3:00:00 AM 0.07 32.126 0.191 7.33 3.19 13.58
1/24/2021 3:15:00 AM 0.06 32.108 0.191 7.34 3.22 13.59
1/24/2021 3:30:00 AM 0.07 32.126 0.191 7.33 3.38 13.56
1/24/2021 3:45:00 AM 0.07 32.126 0.191 7.33 3.44 13.56
1/24/2021 4:00:00 AM 0.08 32.144 0.191 7.32 3.46 13.55
1/24/2021 4:15:00 AM 0.08 32.144 0.192 7.33 3.76 13.56
1/24/2021 4:30:00 AM 0.09 32.162 0.192 7.32 3.93 13.54
1/24/2021 4:45:00 AM 0.09 32.162 0.192 7.32 3.62 13.53
1/24/2021 5:00:00 AM 0.09 32.162 0.192 7.32 3.67 13.54
1/24/2021 5:15:00 AM 0.07 32.126 0.193 7.33 3.39 13.57
1/24/2021 5:30:00 AM 0.09 32.162 0.193 7.32 3.63 13.55
1/24/2021 5:45:00 AM 0.08 32.144 0.193 7.32 3.52 13.56
1/24/2021 6:00:00 AM 0.07 32.126 0.194 7.33 3.52 13.57
1/24/2021 6:15:00 AM 0.07 32.126 0.194 7.34 3.54 13.58
1/24/2021 6:30:00 AM 0.06 32.108 0.194 7.34 3.56 13.59
1/24/2021 6:45:00 AM 0.06 32.108 0.195 7.34 3.73 13.58
1/24/2021 7:00:00 AM 0.06 32.108 0.195 7.35 3.61 13.59
1/24/2021 7:15:00 AM 0.05 32.09 0.195 7.34 3.71 13.59
1/24/2021 7:30:00 AM 0.06 32.108 0.196 7.34 3.58 13.59
1/24/2021 7:45:00 AM 0.04 32.072 0.196 7.34 3.47 13.61
1/24/2021 8:00:00 AM 0.06 32.108 0.196 7.33 3.38 13.62
1/24/2021 8:15:00 AM 0.06 32.108 0.196 7.34 3.42 13.63
1/24/2021 8:30:00 AM 0.06 32.108 0.197 7.35 3.44 13.68
1/24/2021 8:45:00 AM 0.06 32.108 0.197 7.37 3.37 13.72
1/24/2021 9:00:00 AM 0.06 32.108 0.197 7.37 3.88 13.75
1/24/2021 9:15:00 AM 0.08 32.144 0.198 7.37 3.67 13.77
1/24/2021 9:30:00 AM 0.08 32.144 0.198 7.38 3.58 13.82
1/24/2021 9:45:00 AM 0.07 32.126 0.198 7.41 4.02 13.87
1/24/2021 10:00:00 AM 0.07 32.126 0.198 7.39 3.71 13.91
1/24/2021 10:15:00 AM 0.05 32.09 0.199 7.42 3.62 13.98
1/24/2021 10:30:00 AM 0.06 32.108 0.199 7.39 3.65 13.97
1/24/2021 10:45:00 AM 0.08 32.144 0.198 7.4 3.41 14
1/24/2021 11:00:00 AM 0.04 32.072 0.2 7.42 3.41 14.07
1/24/2021 11:15:00 AM 0.05 32.09 0.199 7.41 3.37 14.11
1/24/2021 11:30:00 AM 0.06 32.108 0.199 7.42 3.27 14.12
1/24/2021 11:45:00 AM 0.07 32.126 0.199 7.42 3.51 14.13
1/24/2021 12:00:00 PM 0.08 32.144 0.199 7.42 3.53 14.15
1/24/2021 12:15:00 PM 0.09 32.162 0.199 7.44 3.39 14.16
1/24/2021 12:30:00 PM 0.1 32.18 0.198 7.43 3.54 14.17
1/24/2021 12:45:00 PM 0.12 32.216 0.198 7.44 3.44 14.17
1/24/2021 1:00:00 PM 0.16 32.288 0.197 7.45 3.47 14.16
1/24/2021 1:15:00 PM 0.2 32.36 0.197 7.47 3.52 14.16
1/24/2021 1:30:00 PM 0.21 32.378 0.196 7.47 3.51 14.16
1/24/2021 1:45:00 PM 0.24 32.432 0.195 7.45 3.57 14.08
1/24/2021 2:00:00 PM 0.25 32.45 0.194 7.45 3.92 14.07
1/24/2021 2:15:00 PM 0.27 32.486 0.193 7.45 4.05 14.05
1/24/2021 2:30:00 PM 0.24 32.432 0.193 7.45 3.97 14.04
1/24/2021 2:45:00 PM 0.25 32.45 0.193 7.44 3.78 14.02
1/24/2021 3:00:00 PM 0.24 32.432 0.192 7.43 4.04 14.01
1/24/2021 3:15:00 PM 0.23 32.414 0.192 7.43 4.17 13.99
1/24/2021 3:30:00 PM 0.22 32.396 0.192 7.42 3.93 13.99
1/24/2021 3:45:00 PM 0.19 32.342 0.192 7.41 3.4 13.97
1/24/2021 4:00:00 PM 0.18 32.324 0.191 7.41 3.24 13.96
1/24/2021 4:15:00 PM 0.16 32.288 0.192 7.41 3.13 13.94
1/24/2021 4:30:00 PM 0.16 32.288 0.191 7.4 3.01 13.91
1/24/2021 4:45:00 PM 0.14 32.252 0.192 7.4 3 13.91
1/24/2021 5:00:00 PM 0.14 32.252 0.191 7.39 2.98 13.86
1/24/2021 5:15:00 PM 0.13 32.234 0.192 7.39 2.98 13.83
1/24/2021 5:30:00 PM 0.12 32.216 0.192 7.38 2.91 13.8
1/24/2021 5:45:00 PM 0.1 32.18 0.192 7.38 2.82 13.78
1/24/2021 6:00:00 PM 0.11 32.198 0.192 7.38 2.82 13.75
1/24/2021 6:15:00 PM 0.09 32.162 0.193 7.39 2.91 13.74
1/24/2021 6:30:00 PM 0.09 32.162 0.193 7.38 2.86 13.7
1/24/2021 6:45:00 PM 0.09 32.162 0.193 7.38 2.89 13.69
1/24/2021 7:00:00 PM 0.08 32.144 0.194 7.38 2.79 13.67
1/24/2021 7:15:00 PM 0.08 32.144 0.194 7.37 2.91 13.63
1/24/2021 7:30:00 PM 0.09 32.162 0.194 7.36 2.86 13.61
1/24/2021 7:45:00 PM 0.09 32.162 0.195 7.36 2.91 13.6
1/24/2021 8:00:00 PM 0.09 32.162 0.195 7.36 3.03 13.59
1/24/2021 8:15:00 PM 0.09 32.162 0.195 7.35 2.93 13.56
1/24/2021 8:30:00 PM 0.09 32.162 0.195 7.34 3.23 13.55
1/24/2021 8:45:00 PM 0.09 32.162 0.195 7.33 2.99 13.54
1/24/2021 9:00:00 PM 0.08 32.144 0.196 7.34 3.05 13.54
1/24/2021 9:15:00 PM 0.1 32.18 0.195 7.33 2.99 13.51
1/24/2021 9:30:00 PM 0.11 32.198 0.195 7.32 3.01 13.49
1/24/2021 9:45:00 PM 0.11 32.198 0.196 7.33 3.11 13.49
1/24/2021 10:00:00 PM 0.1 32.18 0.196 7.33 3.14 13.5
1/24/2021 10:15:00 PM 0.09 32.162 0.196 7.33 3.21 13.5
1/24/2021 10:30:00 PM 0.09 32.162 0.196 7.33 3.33 13.51
1/24/2021 10:45:00 PM 0.11 32.198 0.196 7.32 3.01 13.48
1/24/2021 11:00:00 PM 0.1 32.18 0.196 7.33 3.23 13.49
1/24/2021 11:15:00 PM 0.1 32.18 0.196 7.33 3.25 13.5
1/24/2021 11:30:00 PM 0.1 32.18 0.196 7.33 3.27 13.5
1/24/2021 11:45:00 PM 0.12 32.216 0.196 7.31 3.39 13.45
1/25/2021 12:00:00 AM 0.09 32.162 0.196 7.32 3.37 13.49
1/25/2021 12:15:00 AM 0.1 32.18 0.196 7.31 3.13 13.48
1/25/2021 12:30:00 AM 0.09 32.162 0.196 7.31 3.29 13.48
1/25/2021 12:45:00 AM 0.09 32.162 0.196 7.31 3.21 13.49
1/25/2021 1:00:00 AM 0.09 32.162 0.196 7.31 3.06 13.49
1/25/2021 1:15:00 AM 0.1 32.18 0.196 7.31 3.09 13.47
1/25/2021 1:30:00 AM 0.1 32.18 0.196 7.3 3.04 13.47
1/25/2021 1:45:00 AM 0.11 32.198 0.196 7.3 3.3 13.47
1/25/2021 2:00:00 AM 0.11 32.198 0.196 7.3 3.2 13.46
1/25/2021 2:15:00 AM 0.11 32.198 0.196 7.3 3.11 13.48
1/25/2021 2:30:00 AM 0.09 32.162 0.197 7.31 3.25 13.48
1/25/2021 2:45:00 AM 0.11 32.198 0.197 7.3 3.2 13.47
1/25/2021 3:00:00 AM 0.11 32.198 0.198 7.29 3.23 13.44
1/25/2021 3:15:00 AM 0.13 32.234 0.197 7.27 3.19 13.37
1/25/2021 3:30:00 AM 0.17 32.306 0.197 7.26 3.29 13.35
1/25/2021 3:45:00 AM 0.14 32.252 0.197 7.27 3.31 13.4
1/25/2021 4:00:00 AM 0.17 32.306 0.196 7.25 3.09 13.34
1/25/2021 4:15:00 AM 0.16 32.288 0.198 7.24 3.15 13.31
1/25/2021 4:30:00 AM 0.21 32.378 0.196 7.23 3.28 13.28
1/25/2021 4:45:00 AM 0.2 32.36 0.196 7.23 3.48 13.28
1/25/2021 5:00:00 AM 0.22 32.396 0.195 7.22 3.25 13.28
1/25/2021 5:15:00 AM 0.3 32.54 0.194 7.18 3.31 13.11
1/25/2021 5:30:00 AM 0.29 32.522 0.193 7.19 3.02 13.18
1/25/2021 5:45:00 AM 0.32 32.576 0.193 7.18 3.13 13.12
1/25/2021 6:00:00 AM 0.32 32.576 0.194 7.17 3.14 13.1
1/25/2021 6:15:00 AM 0.27 32.486 0.195 7.19 3.04 13.19
1/25/2021 6:30:00 AM 0.21 32.378 0.197 7.22 3.22 13.26
1/25/2021 6:45:00 AM 0.25 32.45 0.196 7.2 3.12 13.19
1/25/2021 7:00:00 AM 0.27 32.486 0.195 7.2 3.11 13.17
1/25/2021 7:15:00 AM 0.25 32.45 0.197 7.19 2.98 13.15
1/25/2021 7:30:00 AM 0.36 32.648 0.193 7.15 3.17 12.98
1/25/2021 7:45:00 AM 0.35 32.63 0.192 7.15 3.05 13.01
1/25/2021 8:00:00 AM 0.39 32.702 0.194 7.14 3.05 12.95
1/25/2021 8:15:00 AM 0.24 32.432 0.198 7.18 3.25 13.19
1/25/2021 8:30:00 AM 0.29 32.522 0.197 7.19 3.2 13.17
1/25/2021 8:45:00 AM 0.29 32.522 0.196 7.2 3.2 13.24
1/25/2021 9:00:00 AM 0.43 32.774 0.193 7.17 3.09 13.13
1/25/2021 9:15:00 AM 0.5 32.9 0.191 7.14 3.06 13.05
1/25/2021 9:30:00 AM 0.41 32.738 0.196 7.17 3.2 13.2
1/25/2021 9:45:00 AM 0.39 32.702 0.198 7.2 3.18 13.3
1/25/2021 10:00:00 AM 0.39 32.702 0.2 7.22 3.24 13.34
1/25/2021 10:15:00 AM 0.38 32.684 0.201 7.23 3.36 13.39
1/25/2021 10:30:00 AM 0.52 32.936 0.196 7.2 3.23 13.27
1/25/2021 10:45:00 AM 0.38 32.684 0.202 7.25 3.18 13.46
1/25/2021 11:00:00 AM 0.46 32.828 0.2 7.25 3.14 13.45
1/25/2021 11:15:00 AM 0.57 33.026 0.196 7.18 3.01 13.31
1/25/2021 11:30:00 AM 0.56 33.008 0.197 7.18 3.16 13.32
1/25/2021 11:45:00 AM 0.44 32.792 0.199 7.25 3.29 13.57
1/25/2021 12:00:00 PM 0.32 32.576 0.202 7.31 3.24 13.71
1/25/2021 12:15:00 PM 0.25 32.45 0.204 7.36 3.33 13.85
1/25/2021 12:30:00 PM 0.25 32.45 0.204 7.39 3.46 13.87
1/25/2021 12:45:00 PM 0.2 32.36 0.204 7.42 3.2 13.94
1/25/2021 1:00:00 PM 0.18 32.324 0.203 7.42 3.41 13.94
1/25/2021 1:15:00 PM 0.14 32.252 0.203 7.43 3.45 13.97
1/25/2021 1:30:00 PM 0.14 32.252 0.202 7.45 3.47 13.98
1/25/2021 1:45:00 PM 0.18 32.324 0.201 7.46 3.49 13.97
1/25/2021 2:00:00 PM 0.21 32.378 0.2 7.46 3.49 13.98
1/25/2021 2:15:00 PM 0.22 32.396 0.2 7.46 3.33 13.96
1/25/2021 2:30:00 PM 0.23 32.414 0.2 7.46 3.34 13.95
1/25/2021 2:45:00 PM 0.27 32.486 0.199 7.44 3.18 13.91
1/25/2021 3:00:00 PM 0.28 32.504 0.199 7.42 3.48 13.87
1/25/2021 3:15:00 PM 0.29 32.522 0.198 7.41 3.24 13.83
1/25/2021 3:30:00 PM 0.31 32.558 0.197 7.38 3.24 13.78
1/25/2021 3:45:00 PM 0.41 32.738 0.194 7.32 3.12 13.66
1/25/2021 4:00:00 PM 0.4 32.72 0.194 7.31 3.01 13.62
1/25/2021 4:15:00 PM 0.4 32.72 0.193 7.29 3.27 13.59
1/25/2021 4:30:00 PM 0.42 32.756 0.191 7.28 3.47 13.52
1/25/2021 4:45:00 PM 0.41 32.738 0.191 7.26 2.97 13.49
1/25/2021 5:00:00 PM 0.42 32.756 0.19 7.25 2.91 13.41
1/25/2021 5:15:00 PM 0.37 32.666 0.19 7.27 2.92 13.42
1/25/2021 5:30:00 PM 0.41 32.738 0.189 7.23 2.85 13.27
1/25/2021 5:45:00 PM 0.36 32.648 0.189 7.26 2.99 13.34
1/25/2021 6:00:00 PM 0.34 32.612 0.19 7.25 2.82 13.31
1/25/2021 6:15:00 PM 0.29 32.522 0.192 7.26 3.32 13.3
1/25/2021 6:30:00 PM 0.22 32.396 0.194 7.29 4.73 13.36
1/25/2021 6:45:00 PM 0.28 32.504 0.192 7.29 12.39 13.27
1/25/2021 7:00:00 PM 0.21 32.378 0.195 7.31 22.37 13.33
1/25/2021 7:15:00 PM 0.17 32.306 0.196 7.32 45.08 13.33
1/25/2021 7:30:00 PM 0.17 32.306 0.196 7.32 73.22 13.3
1/25/2021 7:45:00 PM 0.15 32.27 0.196 7.33 168.34 13.3
1/25/2021 8:00:00 PM 0.14 32.252 0.197 7.33 90.59 13.28
1/25/2021 8:15:00 PM 0.14 32.252 0.197 7.32 99.17 13.28
1/25/2021 8:30:00 PM 0.14 32.252 0.197 7.32 102.61 13.25
1/25/2021 8:45:00 PM 0.16 32.288 0.197 7.31 113.62 13.23
1/25/2021 9:00:00 PM 0.19 32.342 0.196 7.3 112.62 13.18
1/25/2021 9:15:00 PM 0.17 32.306 0.197 7.3 77.47 13.19
1/25/2021 9:30:00 PM 0.21 32.378 0.196 7.28 52.24 13.13
1/25/2021 9:45:00 PM 0.21 32.378 0.196 7.27 43.84 13.14
1/25/2021 10:00:00 PM 0.22 32.396 0.195 7.27 40.34 13.13
1/25/2021 10:15:00 PM 0.33 32.594 0.193 7.23 29.9 12.99
1/25/2021 10:30:00 PM 0.23 32.414 0.195 7.26 23.74 13.09
1/25/2021 10:45:00 PM 0.25 32.45 0.195 7.24 20.21 13.04
1/25/2021 11:00:00 PM 0.26 32.468 0.194 7.23 19.19 13.05
1/25/2021 11:15:00 PM 0.28 32.504 0.192 7.23 13.36 13.01
1/25/2021 11:30:00 PM 0.28 32.504 0.193 7.22 13.31 12.99
1/25/2021 11:45:00 PM 0.36 32.648 0.19 7.19 10.61 12.89
1/26/2021 12:00:00 AM 0.41 32.738 0.189 7.18 9.34 12.82
1/26/2021 12:15:00 AM 0.39 32.702 0.187 7.18 8.76 12.88
1/26/2021 12:30:00 AM 0.32 32.576 0.191 7.18 8.5 12.91
1/26/2021 12:45:00 AM 0.34 32.612 0.19 7.18 7.23 12.91
1/26/2021 1:00:00 AM 0.38 32.684 0.188 7.17 6.56 12.85
1/26/2021 1:15:00 AM 0.38 32.684 0.187 7.17 6.31 12.85
1/26/2021 1:30:00 AM 0.4 32.72 0.187 7.15 5.72 12.79
1/26/2021 1:45:00 AM 0.38 32.684 0.187 7.17 5.11 12.83
1/26/2021 2:00:00 AM 0.39 32.702 0.187 7.15 5.07 12.79
1/26/2021 2:15:00 AM 0.43 32.774 0.185 7.16 4.8 12.79
1/26/2021 2:30:00 AM 0.44 32.792 0.184 7.14 4.45 12.77
1/26/2021 2:45:00 AM 0.42 32.756 0.184 7.16 4.57 12.82
1/26/2021 3:00:00 AM 0.44 32.792 0.185 7.15 4.28 12.76
1/26/2021 3:15:00 AM 0.41 32.738 0.186 7.15 4.25 12.78
1/26/2021 3:30:00 AM 0.41 32.738 0.186 7.16 3.98 12.79
1/26/2021 3:45:00 AM 0.44 32.792 0.185 7.14 3.94 12.73
1/26/2021 4:00:00 AM 0.47 32.846 0.185 7.13 4.6 12.7
1/26/2021 4:15:00 AM 0.44 32.792 0.186 7.16 4.46 12.74
1/26/2021 4:30:00 AM 0.45 32.81 0.187 7.16 4.74 12.73
1/26/2021 4:45:00 AM 0.45 32.81 0.187 7.15 4.45 12.71
1/26/2021 5:00:00 AM 0.44 32.792 0.186 7.16 4.22 12.73
1/26/2021 5:15:00 AM 0.45 32.81 0.186 7.16 4.13 12.73
1/26/2021 5:30:00 AM 0.46 32.828 0.185 7.16 4.1 12.72
1/26/2021 5:45:00 AM 0.46 32.828 0.187 7.16 4.09 12.7
1/26/2021 6:00:00 AM 0.46 32.828 0.186 7.15 4.04 12.7
1/26/2021 6:15:00 AM 0.48 32.864 0.185 7.15 4.19 12.67
1/26/2021 6:30:00 AM 0.41 32.738 0.189 7.15 3.56 12.7
1/26/2021 6:45:00 AM 0.37 32.666 0.189 7.16 3.54 12.78
1/26/2021 7:00:00 AM 0.35 32.63 0.19 7.19 3.58 12.82
1/26/2021 7:15:00 AM 0.3 32.54 0.193 7.2 3.52 12.87
1/26/2021 7:30:00 AM 0.29 32.522 0.194 7.21 3.62 12.87
1/26/2021 7:45:00 AM 0.27 32.486 0.194 7.22 3.47 12.9
1/26/2021 8:00:00 AM 0.26 32.468 0.195 7.23 3.5 12.93
1/26/2021 8:15:00 AM 0.28 32.504 0.195 7.23 3.43 12.93
1/26/2021 8:30:00 AM 0.28 32.504 0.195 7.24 3.7 12.96
1/26/2021 8:45:00 AM 0.37 32.666 0.193 7.21 3.52 12.86
1/26/2021 9:00:00 AM 0.4 32.72 0.192 7.2 3.23 12.89
1/26/2021 9:15:00 AM 0.34 32.612 0.195 7.23 3.46 12.99
1/26/2021 9:30:00 AM 0.36 32.648 0.195 7.24 3.52 13.02
1/26/2021 9:45:00 AM 0.38 32.684 0.194 7.24 3.28 13.02
1/26/2021 10:00:00 AM 0.42 32.756 0.193 7.22 3.46 13.02
1/26/2021 10:15:00 AM 0.41 32.738 0.194 7.22 3.36 13.07
1/26/2021 10:30:00 AM 0.5 32.9 0.19 7.2 3.4 13.01
1/26/2021 10:45:00 AM 0.47 32.846 0.191 7.2 3.09 13.05
1/26/2021 11:00:00 AM 0.38 32.684 0.194 7.24 3.16 13.15
1/26/2021 11:15:00 AM 0.26 32.468 0.196 7.29 3.6 13.24
1/26/2021 11:30:00 AM 0.22 32.396 0.197 7.3 3.57 13.26
1/26/2021 11:45:00 AM 0.23 32.414 0.197 7.31 3.11 13.25
1/26/2021 12:00:00 PM 0.31 32.558 0.194 7.27 3.42 13.16
1/26/2021 12:15:00 PM 0.34 32.612 0.191 7.25 3.07 13.11
1/26/2021 12:30:00 PM 0.32 32.576 0.193 7.25 3.14 13.12
1/26/2021 12:45:00 PM 0.34 32.612 0.192 7.24 3.02 13.11
1/26/2021 1:00:00 PM 0.35 32.63 0.191 7.24 2.97 13.12
1/26/2021 1:15:00 PM 0.39 32.702 0.189 7.23 3.05 13.08
1/26/2021 1:30:00 PM 0.33 32.594 0.191 7.24 2.95 13.13
1/26/2021 1:45:00 PM 0.31 32.558 0.19 7.26 2.91 13.17
1/26/2021 2:00:00 PM 0.35 32.63 0.189 7.25 2.92 13.15
1/26/2021 2:15:00 PM 0.3 32.54 0.19 7.26 2.95 13.17
1/26/2021 2:30:00 PM 0.33 32.594 0.189 7.26 2.98 13.17
1/26/2021 2:45:00 PM 0.38 32.684 0.188 7.22 2.95 13.08
1/26/2021 3:00:00 PM 0.39 32.702 0.186 7.24 3.1 13.1
1/26/2021 3:15:00 PM 0.41 32.738 0.187 7.23 2.96 13.09
1/26/2021 3:30:00 PM 0.41 32.738 0.186 7.22 3 13.09
1/26/2021 3:45:00 PM 0.38 32.684 0.188 7.23 2.83 13.1
1/26/2021 4:00:00 PM 0.36 32.648 0.188 7.24 2.9 13.14
1/26/2021 4:15:00 PM 0.38 32.684 0.187 7.23 3.04 13.08
1/26/2021 4:30:00 PM 0.38 32.684 0.187 7.23 2.93 13.09
1/26/2021 4:45:00 PM 0.36 32.648 0.187 7.23 2.87 13.09
1/26/2021 5:00:00 PM 0.37 32.666 0.186 7.23 2.93 13.08
1/26/2021 5:15:00 PM 0.42 32.756 0.185 7.22 4.74 12.98
1/26/2021 5:30:00 PM 0.37 32.666 0.187 7.23 2.92 13.04
1/26/2021 5:45:00 PM 0.37 32.666 0.188 7.22 2.87 13
1/26/2021 6:00:00 PM 0.42 32.756 0.185 7.21 2.86 12.94
1/26/2021 6:15:00 PM 0.35 32.63 0.188 7.22 3.03 12.97
1/26/2021 6:30:00 PM 0.41 32.738 0.186 7.19 2.99 12.89
1/26/2021 6:45:00 PM 0.44 32.792 0.185 7.19 2.84 12.84
1/26/2021 7:00:00 PM 0.46 32.828 0.184 7.18 2.77 12.79
1/26/2021 7:15:00 PM 0.4 32.72 0.186 7.2 2.85 12.85
1/26/2021 7:30:00 PM 0.42 32.756 0.185 7.2 2.92 12.84
1/26/2021 7:45:00 PM 0.39 32.702 0.188 7.21 3.25 12.84
1/26/2021 8:00:00 PM 0.41 32.738 0.186 7.21 2.94 12.82
1/26/2021 8:15:00 PM 0.39 32.702 0.187 7.21 2.9 12.82
1/26/2021 8:30:00 PM 0.36 32.648 0.187 7.22 3.02 12.87
1/26/2021 8:45:00 PM 0.4 32.72 0.186 7.22 3 12.83
1/26/2021 9:00:00 PM 0.46 32.828 0.185 7.18 2.97 12.71
1/26/2021 9:15:00 PM 0.42 32.756 0.187 7.2 3.01 12.78
1/26/2021 9:30:00 PM 0.46 32.828 0.185 7.19 3 12.74
1/26/2021 9:45:00 PM 0.43 32.774 0.186 7.2 2.91 12.75
1/26/2021 10:00:00 PM 0.43 32.774 0.186 7.2 3.01 12.73
1/26/2021 10:15:00 PM 0.44 32.792 0.186 7.19 3.07 12.73
1/26/2021 10:30:00 PM 0.44 32.792 0.186 7.19 3.14 12.73
1/26/2021 10:45:00 PM 0.39 32.702 0.187 7.21 3.07 12.79
1/26/2021 11:00:00 PM 0.38 32.684 0.188 7.21 2.98 12.8
1/26/2021 11:15:00 PM 0.42 32.756 0.186 7.2 3.12 12.74
1/26/2021 11:30:00 PM 0.37 32.666 0.188 7.22 3.06 12.82
1/26/2021 11:45:00 PM 0.4 32.72 0.186 7.22 3.12 12.8
1/27/2021 12:00:00 AM 0.43 32.774 0.186 7.21 3.06 12.76
1/27/2021 12:15:00 AM 0.38 32.684 0.188 7.22 3.13 12.79
1/27/2021 12:30:00 AM 0.46 32.828 0.185 7.21 3.07 12.77
1/27/2021 12:45:00 AM 0.42 32.756 0.187 7.22 3.12 12.79
1/27/2021 1:00:00 AM 0.37 32.666 0.188 7.22 3.3 12.83
1/27/2021 1:15:00 AM 0.41 32.738 0.187 7.22 3.22 12.79
1/27/2021 1:30:00 AM 0.49 32.882 0.185 7.2 3.05 12.69
1/27/2021 1:45:00 AM 0.38 32.684 0.188 7.23 3.2 12.8
1/27/2021 2:00:00 AM 0.36 32.648 0.189 7.24 3.08 12.84
1/27/2021 2:15:00 AM 0.35 32.63 0.19 7.23 3.22 12.83
1/27/2021 2:30:00 AM 0.32 32.576 0.19 7.26 3.22 12.88
1/27/2021 2:45:00 AM 0.35 32.63 0.19 7.25 3.05 12.86
1/27/2021 3:00:00 AM 0.35 32.63 0.19 7.25 3.19 12.84
1/27/2021 3:15:00 AM 0.33 32.594 0.19 7.26 3.34 12.87
1/27/2021 3:30:00 AM 0.37 32.666 0.189 7.24 3.68 12.81
1/27/2021 3:45:00 AM 0.36 32.648 0.189 7.25 3.22 12.84
1/27/2021 4:00:00 AM 0.34 32.612 0.19 7.26 3.66 12.86
1/27/2021 4:15:00 AM 0.34 32.612 0.19 7.25 3.58 12.85
1/27/2021 4:30:00 AM 0.36 32.648 0.19 7.25 3.45 12.83
1/27/2021 4:45:00 AM 0.35 32.63 0.19 7.26 3.38 12.86
1/27/2021 5:00:00 AM 0.34 32.612 0.189 7.26 3.39 12.89
1/27/2021 5:15:00 AM 0.32 32.576 0.19 7.27 3.15 12.9
1/27/2021 5:30:00 AM 0.32 32.576 0.19 7.27 3.29 12.92
1/27/2021 5:45:00 AM 0.34 32.612 0.19 7.28 3.17 12.93
1/27/2021 6:00:00 AM 0.31 32.558 0.191 7.28 3.26 12.94
1/27/2021 6:15:00 AM 0.33 32.594 0.19 7.27 3.16 12.93
1/27/2021 6:30:00 AM 0.32 32.576 0.19 7.27 3.26 12.94
1/27/2021 6:45:00 AM 0.4 32.72 0.187 7.26 3.17 12.88
1/27/2021 7:00:00 AM 0.39 32.702 0.189 7.25 3.12 12.88
1/27/2021 7:15:00 AM 0.33 32.594 0.191 7.26 3.01 12.93
1/27/2021 7:30:00 AM 0.37 32.666 0.19 7.26 3.23 12.89
1/27/2021 7:45:00 AM 0.32 32.576 0.191 7.27 3.07 12.95
1/27/2021 8:00:00 AM 0.36 32.648 0.189 7.27 3.07 12.93
1/27/2021 8:15:00 AM 0.36 32.648 0.189 7.27 3.21 12.95
1/27/2021 8:30:00 AM 0.37 32.666 0.189 7.26 3.11 12.94
1/27/2021 8:45:00 AM 0.36 32.648 0.19 7.26 3.11 12.97
1/27/2021 9:00:00 AM 0.39 32.702 0.189 7.25 2.99 12.94
1/27/2021 9:15:00 AM 0.47 32.846 0.186 7.24 3.06 12.91
1/27/2021 9:30:00 AM 0.44 32.792 0.188 7.25 2.98 12.98
1/27/2021 9:45:00 AM 0.41 32.738 0.189 7.26 2.87 13.03
1/27/2021 10:00:00 AM 0.43 32.774 0.188 7.25 2.92 13.02
1/27/2021 10:15:00 AM 0.5 32.9 0.188 7.22 2.95 12.94
1/27/2021 10:30:00 AM 0.44 32.792 0.189 7.25 2.86 13.06
1/27/2021 10:45:00 AM 0.47 32.846 0.187 7.25 2.79 13.06
1/27/2021 11:00:00 AM 0.53 32.954 0.185 7.24 2.77 13.02
1/27/2021 11:15:00 AM 0.52 32.936 0.185 7.24 2.76 13.07
1/27/2021 11:30:00 AM 0.5 32.9 0.188 7.25 2.91 13.08
1/27/2021 11:45:00 AM 0.55 32.99 0.186 7.24 2.78 13.07
1/27/2021 12:00:00 PM 0.52 32.936 0.186 7.27 2.66 13.14
1/27/2021 12:15:00 PM 0.52 32.936 0.187 7.26 2.71 13.16
1/27/2021 12:30:00 PM 0.54 32.972 0.186 7.27 2.72 13.17
1/27/2021 12:45:00 PM 0.57 33.026 0.186 7.27 2.65 13.2
1/27/2021 1:00:00 PM 0.55 32.99 0.188 7.28 2.75 13.21
1/27/2021 1:15:00 PM 0.53 32.954 0.188 7.29 2.68 13.27
1/27/2021 1:30:00 PM 0.55 32.99 0.188 7.28 2.65 13.26
1/27/2021 1:45:00 PM 0.59 33.062 0.186 7.29 2.74 13.26
1/27/2021 2:00:00 PM 0.64 33.152 0.185 7.27 2.72 13.23
1/27/2021 2:15:00 PM 0.55 32.99 0.188 7.29 2.89 13.29
1/27/2021 2:30:00 PM 0.65 33.17 0.185 7.25 5.39 13.21
1/27/2021 2:45:00 PM 0.66 33.188 0.184 7.25 3.44 13.18
1/27/2021 3:00:00 PM 0.6 33.08 0.188 7.27 3.75 13.22
1/27/2021 3:15:00 PM 0.64 33.152 0.186 7.25 6.79 13.17
1/27/2021 3:30:00 PM 0.69 33.242 0.184 7.24 6.26 13.11
1/27/2021 3:45:00 PM 0.58 33.044 0.188 7.28 5.4 13.19
1/27/2021 4:00:00 PM 0.58 33.044 0.188 7.29 3.82 13.22
1/27/2021 4:15:00 PM 0.59 33.062 0.188 7.28 3.51 13.18
1/27/2021 4:30:00 PM 0.59 33.062 0.187 7.28 3.3 13.14
1/27/2021 4:45:00 PM 0.58 33.044 0.187 7.29 3.74 13.15
1/27/2021 5:00:00 PM 0.62 33.116 0.185 7.27 4.11 13.07
1/27/2021 5:15:00 PM 0.59 33.062 0.188 7.28 4.81 13.07
1/27/2021 5:30:00 PM 0.61 33.098 0.187 7.27 3.98 13.04
1/27/2021 5:45:00 PM 0.56 33.008 0.188 7.29 3.75 13.07
1/27/2021 6:00:00 PM 0.56 33.008 0.189 7.28 3.71 13.04
1/27/2021 6:15:00 PM 0.54 32.972 0.19 7.29 3.6 13.05
1/27/2021 6:30:00 PM 0.55 32.99 0.19 7.29 3.39 13.02
1/27/2021 6:45:00 PM 0.52 32.936 0.191 7.29 2.99 13.03
1/27/2021 7:00:00 PM 0.52 32.936 0.191 7.29 3.03 13.01
1/27/2021 7:15:00 PM 0.54 32.972 0.19 7.29 2.95 12.99
1/27/2021 7:30:00 PM 0.5 32.9 0.191 7.3 2.82 13.01
1/27/2021 7:45:00 PM 0.48 32.864 0.192 7.3 3.07 13.01
1/27/2021 8:00:00 PM 0.48 32.864 0.193 7.3 2.86 12.99
1/27/2021 8:15:00 PM 0.49 32.882 0.192 7.3 2.99 12.97
1/27/2021 8:30:00 PM 0.5 32.9 0.192 7.29 2.83 12.94
1/27/2021 8:45:00 PM 0.49 32.882 0.192 7.29 2.87 12.96
1/27/2021 9:00:00 PM 0.47 32.846 0.193 7.3 2.94 12.96
1/27/2021 9:15:00 PM 0.47 32.846 0.193 7.29 2.88 12.94
1/27/2021 9:30:00 PM 0.46 32.828 0.193 7.29 2.91 12.94
1/27/2021 9:45:00 PM 0.44 32.792 0.194 7.29 2.97 12.94
1/27/2021 10:00:00 PM 0.44 32.792 0.193 7.29 2.84 12.94
1/27/2021 10:15:00 PM 0.42 32.756 0.194 7.3 2.88 12.97
1/27/2021 10:30:00 PM 0.42 32.756 0.194 7.29 2.92 12.95
1/27/2021 10:45:00 PM 0.41 32.738 0.194 7.29 2.87 12.95
1/27/2021 11:00:00 PM 0.41 32.738 0.194 7.29 3.15 12.94
1/27/2021 11:15:00 PM 0.41 32.738 0.193 7.28 3.15 12.92
1/27/2021 11:30:00 PM 0.39 32.702 0.193 7.29 3.13 12.94
1/27/2021 11:45:00 PM 0.37 32.666 0.194 7.29 3.09 12.96
1/28/2021 12:00:00 AM 0.37 32.666 0.194 7.28 3.16 12.93
1/28/2021 12:15:00 AM 0.34 32.612 0.194 7.29 3.11 12.97
1/28/2021 12:30:00 AM 0.33 32.594 0.194 7.29 3.31 12.97
1/28/2021 12:45:00 AM 0.32 32.576 0.195 7.29 3.12 12.97
1/28/2021 1:00:00 AM 0.3 32.54 0.195 7.29 3.09 12.99
1/28/2021 1:15:00 AM 0.3 32.54 0.195 7.29 3.16 12.99
1/28/2021 1:30:00 AM 0.29 32.522 0.195 7.29 3.1 12.99
1/28/2021 1:45:00 AM 0.28 32.504 0.196 7.29 3.12 12.99
1/28/2021 2:00:00 AM 0.26 32.468 0.196 7.29 3.17 13.02
1/28/2021 2:15:00 AM 0.26 32.468 0.196 7.28 3.29 13.01
1/28/2021 2:30:00 AM 0.26 32.468 0.196 7.28 2.98 13.01
1/28/2021 2:45:00 AM 0.25 32.45 0.196 7.28 3.09 13.02
1/28/2021 3:00:00 AM 0.24 32.432 0.196 7.28 3.28 13.03
1/28/2021 3:15:00 AM 0.22 32.396 0.196 7.28 3.35 13.04
1/28/2021 3:30:00 AM 0.25 32.45 0.196 7.28 3.25 13.01
1/28/2021 3:45:00 AM 0.26 32.468 0.195 7.27 3.35 12.99
1/28/2021 4:00:00 AM 0.29 32.522 0.194 7.25 3.25 12.94
1/28/2021 4:15:00 AM 0.31 32.558 0.193 7.25 3.37 12.92
1/28/2021 4:30:00 AM 0.28 32.504 0.194 7.25 3.43 12.96
1/28/2021 4:45:00 AM 0.27 32.486 0.194 7.25 3.34 12.97
1/28/2021 5:00:00 AM 0.25 32.45 0.196 7.26 3.6 12.99
1/28/2021 5:15:00 AM 0.23 32.414 0.196 7.27 3.31 13
1/28/2021 5:30:00 AM 0.22 32.396 0.196 7.27 3.48 13.01
1/28/2021 5:45:00 AM 0.23 32.414 0.196 7.26 3.37 12.99
1/28/2021 6:00:00 AM 0.25 32.45 0.195 7.25 3.25 12.95
1/28/2021 6:15:00 AM 0.24 32.432 0.195 7.25 3.19 12.96
1/28/2021 6:30:00 AM 0.24 32.432 0.195 7.25 3.33 12.95
1/28/2021 6:45:00 AM 0.24 32.432 0.195 7.24 3.12 12.95
1/28/2021 7:00:00 AM 0.23 32.414 0.195 7.25 3.28 12.97
1/28/2021 7:15:00 AM 0.21 32.378 0.196 7.25 3.41 12.98
1/28/2021 7:30:00 AM 0.2 32.36 0.196 7.25 3.48 12.99
1/28/2021 7:45:00 AM 0.21 32.378 0.196 7.25 3.22 12.97
1/28/2021 8:00:00 AM 0.19 32.342 0.197 7.26 3.49 13.01
1/28/2021 8:15:00 AM 0.2 32.36 0.197 7.26 3.4 13.03
1/28/2021 8:30:00 AM 0.19 32.342 0.198 7.27 3.39 13.08
1/28/2021 8:45:00 AM 0.2 32.36 0.197 7.27 3.37 13.1
1/28/2021 9:00:00 AM 0.25 32.45 0.196 7.27 3.36 13.12
1/28/2021 9:15:00 AM 0.22 32.396 0.197 7.28 3.3 13.19
1/28/2021 9:30:00 AM 0.23 32.414 0.197 7.28 3.06 13.23
1/28/2021 9:45:00 AM 0.24 32.432 0.197 7.29 3.22 13.27
1/28/2021 10:00:00 AM 0.24 32.432 0.197 7.3 3.54 13.32
1/28/2021 10:15:00 AM 0.26 32.468 0.197 7.3 3.31 13.34
1/28/2021 10:30:00 AM 0.26 32.468 0.198 7.31 3.02 13.4
1/28/2021 10:45:00 AM 0.27 32.486 0.198 7.32 3.04 13.43
1/28/2021 11:00:00 AM 0.31 32.558 0.197 7.31 3.03 13.44
1/28/2021 11:15:00 AM 0.33 32.594 0.197 7.31 3.15 13.47
1/28/2021 11:30:00 AM 0.32 32.576 0.197 7.32 3.29 13.51
1/28/2021 11:45:00 AM 0.34 32.612 0.197 7.32 3.18 13.52
1/28/2021 12:00:00 PM 0.39 32.702 0.196 7.31 3.22 13.49
1/28/2021 12:15:00 PM 0.37 32.666 0.197 7.32 3.06 13.53
1/28/2021 12:30:00 PM 0.4 32.72 0.195 7.31 3.14 13.52
1/28/2021 12:45:00 PM 0.44 32.792 0.195 7.31 2.96 13.51
1/28/2021 1:00:00 PM 0.5 32.9 0.195 7.31 3.07 13.5
1/28/2021 1:15:00 PM 0.51 32.918 0.195 7.31 2.95 13.5
1/28/2021 1:30:00 PM 0.52 32.936 0.194 7.3 2.98 13.49
1/28/2021 1:45:00 PM 0.56 33.008 0.194 7.3 3.03 13.49
1/28/2021 2:00:00 PM 0.58 33.044 0.193 7.3 3 13.48
1/28/2021 2:15:00 PM 0.61 33.098 0.194 7.3 2.95 13.46
1/28/2021 2:30:00 PM 0.6 33.08 0.193 7.29 2.88 13.45
1/28/2021 2:45:00 PM 0.59 33.062 0.193 7.29 2.81 13.43
1/28/2021 3:00:00 PM 0.59 33.062 0.193 7.28 2.96 13.43
1/28/2021 3:15:00 PM 0.57 33.026 0.193 7.28 2.93 13.42
1/28/2021 3:30:00 PM 0.56 33.008 0.193 7.28 3.01 13.41
1/28/2021 3:45:00 PM 0.55 32.99 0.193 7.28 2.77 13.39
1/28/2021 4:00:00 PM 0.54 32.972 0.193 7.28 2.89 13.37
1/28/2021 4:15:00 PM 0.52 32.936 0.193 7.28 2.9 13.36
1/28/2021 4:30:00 PM 0.5 32.9 0.193 7.28 2.84 13.34
1/28/2021 4:45:00 PM 0.5 32.9 0.193 7.27 2.94 13.29
1/28/2021 5:00:00 PM 0.48 32.864 0.193 7.27 2.87 13.25
1/28/2021 5:15:00 PM 0.47 32.846 0.193 7.27 3.43 13.2
1/28/2021 5:30:00 PM 0.45 32.81 0.193 7.26 2.85 13.18
1/28/2021 5:45:00 PM 0.44 32.792 0.194 7.26 2.86 13.15
1/28/2021 6:00:00 PM 0.48 32.864 0.193 7.24 2.79 13.07
1/28/2021 6:15:00 PM 0.48 32.864 0.193 7.24 3.15 13.02
1/28/2021 6:30:00 PM 0.51 32.918 0.192 7.22 2.97 12.95
1/28/2021 6:45:00 PM 0.43 32.774 0.194 7.23 2.91 13.06
1/28/2021 7:00:00 PM 0.39 32.702 0.195 7.24 3.14 13.08
1/28/2021 7:15:00 PM 0.42 32.756 0.194 7.23 3.26 13.02
1/28/2021 7:30:00 PM 0.39 32.702 0.194 7.22 2.85 13.02
1/28/2021 7:45:00 PM 0.36 32.648 0.195 7.21 3.03 13.02
1/28/2021 8:00:00 PM 0.36 32.648 0.195 7.2 2.93 12.97
1/28/2021 8:15:00 PM 0.35 32.63 0.195 7.21 2.88 12.97
1/28/2021 8:30:00 PM 0.38 32.684 0.194 7.2 3.06 12.89
1/28/2021 8:45:00 PM 0.36 32.648 0.195 7.19 2.89 12.87
1/28/2021 9:00:00 PM 0.36 32.648 0.194 7.18 2.8 12.85
1/28/2021 9:15:00 PM 0.39 32.702 0.194 7.17 2.85 12.76
1/28/2021 9:30:00 PM 0.47 32.846 0.192 7.13 2.86 12.57
1/28/2021 9:45:00 PM 0.48 32.864 0.192 7.1 2.78 12.51
1/28/2021 10:00:00 PM 0.42 32.756 0.193 7.13 2.7 12.53
1/28/2021 10:15:00 PM 0.52 32.936 0.191 7.1 2.81 12.39
1/28/2021 10:30:00 PM 0.47 32.846 0.193 7.1 2.79 12.43
1/28/2021 10:45:00 PM 0.45 32.81 0.193 7.11 2.77 12.43
1/28/2021 11:00:00 PM 0.55 32.99 0.193 7.09 3 12.28
1/28/2021 11:15:00 PM 0.61 33.098 0.193 7.08 2.77 12.22
1/28/2021 11:30:00 PM 0.7 33.26 0.191 7.05 2.82 11.93
1/28/2021 11:45:00 PM 0.58 33.044 0.192 7.08 2.73 12.13
1/29/2021 12:00:00 AM 0.56 33.008 0.193 7.08 2.91 12.18
1/29/2021 12:15:00 AM 0.49 32.882 0.193 7.08 2.85 12.26
1/29/2021 12:30:00 AM 0.52 32.936 0.194 7.08 2.89 12.22
1/29/2021 12:45:00 AM 0.52 32.936 0.192 7.07 2.86 12.25
1/29/2021 1:00:00 AM 0.7 33.26 0.189 7.04 2.95 12.02
1/29/2021 1:15:00 AM 0.61 33.098 0.192 7.05 2.93 12.05
1/29/2021 1:30:00 AM 0.51 32.918 0.193 7.08 2.93 12.21
1/29/2021 1:45:00 AM 0.46 32.828 0.195 7.09 3 12.27
1/29/2021 2:00:00 AM 0.43 32.774 0.195 7.11 3.03 12.36
1/29/2021 2:15:00 AM 0.62 33.116 0.194 7.07 3.34 12.19
1/29/2021 2:30:00 AM 0.5 32.9 0.195 7.1 3.04 12.28
1/29/2021 2:45:00 AM 0.43 32.774 0.196 7.1 2.98 12.38
1/29/2021 3:00:00 AM 0.44 32.792 0.195 7.1 3.04 12.32
1/29/2021 3:15:00 AM 0.49 32.882 0.194 7.1 3.13 12.29
1/29/2021 3:30:00 AM 0.54 32.972 0.194 7.08 3.09 12.14
1/29/2021 3:45:00 AM 0.45 32.81 0.195 7.09 3.1 12.29
1/29/2021 4:00:00 AM 0.66 33.188 0.19 7.03 3.05 12.02
1/29/2021 4:15:00 AM 0.58 33.044 0.192 7.04 3.08 11.98
1/29/2021 4:30:00 AM 0.52 32.936 0.194 7.07 3.11 12.06
1/29/2021 4:45:00 AM 0.54 32.972 0.192 7.06 3.14 12.01
1/29/2021 5:00:00 AM 0.63 33.134 0.192 7.05 3.28 11.91
1/29/2021 5:15:00 AM 0.55 32.99 0.194 7.05 3 12.02
1/29/2021 5:30:00 AM 0.47 32.846 0.195 7.07 3.17 12.12
1/29/2021 5:45:00 AM 0.44 32.792 0.195 7.07 3.21 12.16
1/29/2021 6:00:00 AM 0.68 33.224 0.191 7.02 3.09 11.9
1/29/2021 6:15:00 AM 0.66 33.188 0.191 7 3.11 11.84
1/29/2021 6:30:00 AM 0.64 33.152 0.192 7 3.14 11.88
1/29/2021 6:45:00 AM 0.52 32.936 0.195 7.05 3.24 12.04
1/29/2021 7:00:00 AM 0.71 33.278 0.19 7.02 3.18 11.86
1/29/2021 7:15:00 AM 0.73 33.314 0.19 6.99 3.2 11.73
1/29/2021 7:30:00 AM 0.56 33.008 0.194 7.04 3.37 11.93
1/29/2021 7:45:00 AM 0.62 33.116 0.193 7.03 3.03 11.92
1/29/2021 8:00:00 AM 0.57 33.026 0.195 7.04 3.17 11.98
1/29/2021 8:15:00 AM 0.57 33.026 0.195 7.04 3.21 12.01
1/29/2021 8:30:00 AM 0.69 33.242 0.193 7.02 3.21 11.91
1/29/2021 8:45:00 AM 0.76 33.368 0.191 6.99 3.19 11.8
1/29/2021 9:00:00 AM 0.63 33.134 0.194 7.03 3.27 11.96
1/29/2021 9:15:00 AM 0.48 32.864 0.198 7.06 3.31 12.23
1/29/2021 9:30:00 AM 0.46 32.828 0.199 7.09 3.36 12.36
1/29/2021 9:45:00 AM 0.52 32.936 0.199 7.09 3.17 12.36
1/29/2021 10:00:00 AM 0.56 33.008 0.198 7.09 3.22 12.37
1/29/2021 10:15:00 AM 0.5 32.9 0.199 7.1 3.26 12.43
1/29/2021 10:30:00 AM 0.57 33.026 0.198 7.1 3.04 12.43
1/29/2021 10:45:00 AM 0.66 33.188 0.199 7.08 3.29 12.04
1/29/2021 11:00:00 AM 0.53 32.954 0.2 7.1 3.3 12.38
1/29/2021 11:15:00 AM 0.52 32.936 0.197 7.1 3.09 12.5
1/29/2021 11:30:00 AM 0.67 33.206 0.192 7.07 3.22 12.54
1/29/2021 11:45:00 AM 0.6 33.08 0.195 7.08 3.27 12.65
1/29/2021 12:00:00 PM 0.48 32.864 0.2 7.14 3.6 12.89
1/29/2021 12:15:00 PM 0.4 32.72 0.203 7.2 4.08 13.22
1/29/2021 12:30:00 PM 0.37 32.666 0.203 7.27 4.19 13.44
1/29/2021 12:45:00 PM 0.39 32.702 0.202 7.27 6.39 13.47
1/29/2021 1:00:00 PM 0.37 32.666 0.204 7.3 6.01 13.58
1/29/2021 1:15:00 PM 0.29 32.522 0.207 7.34 5.46 13.73
1/29/2021 1:30:00 PM 0.33 32.594 0.205 7.36 6.79 13.78
1/29/2021 1:45:00 PM 0.33 32.594 0.206 7.36 6.49 13.77
1/29/2021 2:00:00 PM 0.31 32.558 0.205 7.39 4.81 13.86
1/29/2021 2:15:00 PM 0.25 32.45 0.206 7.4 4.91 13.9
1/29/2021 2:30:00 PM 0.26 32.468 0.206 7.4 4.53 13.88
1/29/2021 2:45:00 PM 0.32 32.576 0.203 7.38 4.94 13.82
1/29/2021 3:00:00 PM 0.32 32.576 0.203 7.36 5.8 13.79
1/29/2021 3:15:00 PM 0.28 32.504 0.204 7.38 5.44 13.82
1/29/2021 3:30:00 PM 0.21 32.378 0.206 7.4 5.89 13.88
1/29/2021 3:45:00 PM 0.2 32.36 0.206 7.41 6.36 13.88
1/29/2021 4:00:00 PM 0.24 32.432 0.205 7.39 5.21 13.81
1/29/2021 4:15:00 PM 0.26 32.468 0.204 7.38 5.7 13.75
1/29/2021 4:30:00 PM 0.27 32.486 0.203 7.36 6.25 13.72
1/29/2021 4:45:00 PM 0.27 32.486 0.204 7.35 5.97 13.69
1/29/2021 5:00:00 PM 0.28 32.504 0.203 7.34 5.52 13.63
1/29/2021 5:15:00 PM 0.3 32.54 0.2 7.31 5.01 13.56
1/29/2021 5:30:00 PM 0.34 32.612 0.2 7.27 4.4 13.41
1/29/2021 5:45:00 PM 0.35 32.63 0.2 7.27 4.75 13.38
1/29/2021 6:00:00 PM 0.38 32.684 0.2 7.26 4.21 13.32
1/29/2021 6:15:00 PM 0.43 32.774 0.198 7.24 4.01 13.18
1/29/2021 6:30:00 PM 0.49 32.882 0.197 7.21 3.99 13.04
1/29/2021 6:45:00 PM 0.52 32.936 0.195 7.18 3.81 12.94
1/29/2021 7:00:00 PM 0.54 32.972 0.195 7.16 3.48 12.85
1/29/2021 7:15:00 PM 0.57 33.026 0.194 7.14 3.51 12.77
1/29/2021 7:30:00 PM 0.56 33.008 0.194 7.14 3.29 12.71
1/29/2021 7:45:00 PM 0.56 33.008 0.194 7.13 3.2 12.69
1/29/2021 8:00:00 PM 0.58 33.044 0.194 7.12 3.19 12.65
1/29/2021 8:15:00 PM 0.6 33.08 0.193 7.11 3.16 12.59
1/29/2021 8:30:00 PM 0.6 33.08 0.193 7.1 3.27 12.53
1/29/2021 8:45:00 PM 0.6 33.08 0.193 7.1 3.09 12.49
1/29/2021 9:00:00 PM 0.65 33.17 0.192 7.08 3.07 12.42
1/29/2021 9:15:00 PM 0.67 33.206 0.191 7.07 3.14 12.37
1/29/2021 9:30:00 PM 0.71 33.278 0.189 7.05 3.2 12.3
1/29/2021 9:45:00 PM 0.69 33.242 0.19 7.05 3.17 12.31
1/29/2021 10:00:00 PM 0.68 33.224 0.19 7.05 3.35 12.31
1/29/2021 10:15:00 PM 0.69 33.242 0.19 7.04 3.04 12.26
1/29/2021 10:30:00 PM 0.69 33.242 0.19 7.04 3.06 12.27
1/29/2021 10:45:00 PM 0.73 33.314 0.19 7.03 3.03 12.19
1/29/2021 11:00:00 PM 0.71 33.278 0.191 7.04 3.16 12.17
1/29/2021 11:15:00 PM 0.7 33.26 0.192 7.04 3.1 12.13
1/29/2021 11:30:00 PM 0.69 33.242 0.191 7.04 3.01 12.12
1/29/2021 11:45:00 PM 0.72 33.296 0.191 7.03 3.06 12.09
1/30/2021 12:00:00 AM 0.71 33.278 0.19 7.03 3.16 12.12
1/30/2021 12:15:00 AM 0.76 33.368 0.188 7.02 3 12.08
1/30/2021 12:30:00 AM 0.76 33.368 0.188 7.02 3.11 12.05
1/30/2021 12:45:00 AM 0.84 33.512 0.184 6.99 2.99 11.93
1/30/2021 1:00:00 AM 0.81 33.458 0.186 6.98 3.02 11.95
1/30/2021 1:15:00 AM 0.79 33.422 0.187 7.01 2.97 11.98
1/30/2021 1:30:00 AM 0.78 33.404 0.188 7 3.21 11.97
1/30/2021 1:45:00 AM 0.83 33.494 0.185 6.98 2.98 11.9
1/30/2021 2:00:00 AM 0.84 33.512 0.184 6.97 2.97 11.85
1/30/2021 2:15:00 AM 0.81 33.458 0.186 6.98 3.05 11.91
1/30/2021 2:30:00 AM 0.79 33.422 0.188 7 3.19 11.96
1/30/2021 2:45:00 AM 0.79 33.422 0.188 7 3.07 11.91
1/30/2021 3:00:00 AM 0.77 33.386 0.188 7 3.17 11.91
1/30/2021 3:15:00 AM 0.75 33.35 0.189 7 3.23 11.85
1/30/2021 3:30:00 AM 0.72 33.296 0.189 6.99 3.19 11.84
1/30/2021 3:45:00 AM 0.76 33.368 0.188 6.99 3.08 11.82
1/30/2021 4:00:00 AM 0.78 33.404 0.187 6.98 3.14 11.8
1/30/2021 4:15:00 AM 0.85 33.53 0.185 6.96 3.19 11.76
1/30/2021 4:30:00 AM 0.89 33.602 0.185 6.96 3.09 11.72
1/30/2021 4:45:00 AM 0.89 33.602 0.184 6.95 3.04 11.7
1/30/2021 5:00:00 AM 0.9 33.62 0.183 6.95 2.97 11.68
1/30/2021 5:15:00 AM 0.89 33.602 0.179 6.92 2.93 11.71
1/30/2021 5:30:00 AM 0.87 33.566 0.18 6.95 2.94 11.79
1/30/2021 5:45:00 AM 0.89 33.602 0.182 6.94 2.91 11.77
1/30/2021 6:00:00 AM 0.86 33.548 0.181 6.94 2.96 11.75
1/30/2021 6:15:00 AM 0.91 33.638 0.18 6.93 2.93 11.67
1/30/2021 6:30:00 AM 0.88 33.584 0.18 6.94 3.66 11.68
1/30/2021 6:45:00 AM 0.89 33.602 0.182 6.93 3.83 11.62
1/30/2021 7:00:00 AM 0.9 33.62 0.18 6.93 3.19 11.62
1/30/2021 7:15:00 AM 0.95 33.71 0.178 6.9 21.35 11.56
1/30/2021 7:30:00 AM 0.93 33.674 0.179 6.91 3.3 11.6
1/30/2021 7:45:00 AM 0.93 33.674 0.18 6.92 2.96 11.61
1/30/2021 8:00:00 AM 0.93 33.674 0.179 6.91 2.97 11.6
1/30/2021 8:15:00 AM 0.95 33.71 0.18 6.9 3.09 11.56
1/30/2021 8:30:00 AM 0.88 33.584 0.182 6.93 3 11.62
1/30/2021 8:45:00 AM 0.87 33.566 0.184 6.94 3.05 11.64
1/30/2021 9:00:00 AM 0.86 33.548 0.185 6.94 3.01 11.65
1/30/2021 9:15:00 AM 0.86 33.548 0.185 6.95 2.94 11.64
1/30/2021 9:30:00 AM 0.83 33.494 0.187 6.96 3.02 11.71
1/30/2021 9:45:00 AM 0.83 33.494 0.185 6.96 3 11.79
1/30/2021 10:00:00 AM 0.81 33.458 0.186 6.97 3.01 11.87
1/30/2021 10:15:00 AM 0.7 33.26 0.19 7 3.05 11.98
1/30/2021 10:30:00 AM 0.71 33.278 0.192 7.01 2.93 11.95
1/30/2021 10:45:00 AM 0.67 33.206 0.195 7.03 3.55 12.03
1/30/2021 11:00:00 AM 0.57 33.026 0.196 7.06 3.02 12.29
1/30/2021 11:15:00 AM 0.53 32.954 0.197 7.07 3.01 12.47
1/30/2021 11:30:00 AM 0.51 32.918 0.197 7.09 5.11 12.54
1/30/2021 11:45:00 AM 0.5 32.9 0.198 7.1 3.12 12.66
1/30/2021 12:00:00 PM 0.49 32.882 0.198 7.11 3.39 12.79
1/30/2021 12:15:00 PM 0.47 32.846 0.199 7.14 3.18 12.88
1/30/2021 12:30:00 PM 0.5 32.9 0.198 7.14 2.92 12.88
1/30/2021 12:45:00 PM 0.52 32.936 0.198 7.14 2.88 12.92
1/30/2021 1:00:00 PM 0.54 32.972 0.198 7.14 2.97 12.96
1/30/2021 1:15:00 PM 0.56 33.008 0.198 7.15 2.93 12.99
1/30/2021 1:30:00 PM 0.55 32.99 0.198 7.16 2.93 13.04
1/30/2021 1:45:00 PM 0.57 33.026 0.198 7.17 2.93 13.09
1/30/2021 2:00:00 PM 0.6 33.08 0.198 7.17 3.02 13.13
1/30/2021 2:15:00 PM 0.58 33.044 0.199 7.19 3.3 13.17
1/30/2021 2:30:00 PM 0.59 33.062 0.198 7.18 2.98 13.16
1/30/2021 2:45:00 PM 0.59 33.062 0.197 7.18 3 13.15
1/30/2021 3:00:00 PM 0.6 33.08 0.197 7.17 2.94 13.13
1/30/2021 3:15:00 PM 0.62 33.116 0.196 7.17 2.92 13.09
1/30/2021 3:30:00 PM 0.69 33.242 0.195 7.15 3 13.04
1/30/2021 3:45:00 PM 0.85 33.53 0.186 7.1 2.86 12.86
1/30/2021 4:00:00 PM 0.86 33.548 0.187 7.08 2.76 12.8
1/30/2021 4:15:00 PM 0.91 33.638 0.184 7.06 2.86 12.61
1/30/2021 4:30:00 PM 0.91 33.638 0.184 7.03 2.76 12.57
1/30/2021 4:45:00 PM 0.87 33.566 0.184 7.02 2.74 12.56
1/30/2021 5:00:00 PM 0.83 33.494 0.185 7.03 2.98 12.62
1/30/2021 5:15:00 PM 0.81 33.458 0.185 7.04 6.97 12.59
1/30/2021 5:30:00 PM 0.8 33.44 0.185 7.03 2.71 12.52
1/30/2021 5:45:00 PM 0.94 33.692 0.18 6.98 2.78 12.3
1/30/2021 6:00:00 PM 1.06 33.908 0.177 6.97 2.72 12.18
1/30/2021 6:15:00 PM 1 33.8 0.18 6.97 2.98 12.17
1/30/2021 6:30:00 PM 1 33.8 0.181 6.96 2.78 12.06
1/30/2021 6:45:00 PM 1.1 33.98 0.178 6.92 2.96 11.91
1/30/2021 7:00:00 PM 1.22 34.196 0.176 6.9 2.87 11.72
1/30/2021 7:15:00 PM 1.21 34.178 0.175 6.91 3.16 11.65
1/30/2021 7:30:00 PM 1.26 34.268 0.176 6.89 2.97 11.52
1/30/2021 7:45:00 PM 1.28 34.304 0.176 6.88 2.94 11.38
1/30/2021 8:00:00 PM 1.28 34.304 0.174 6.87 3.26 11.39
1/30/2021 8:15:00 PM 1.29 34.322 0.173 6.86 2.93 11.32
1/30/2021 8:30:00 PM 1.29 34.322 0.175 6.86 2.84 11.24
1/30/2021 8:45:00 PM 1.35 34.43 0.174 6.85 2.78 11.15
1/30/2021 9:00:00 PM 1.38 34.484 0.173 6.84 2.78 11.03
1/30/2021 9:15:00 PM 1.46 34.628 0.171 6.83 2.92 10.88
1/30/2021 9:30:00 PM 1.46 34.628 0.171 6.82 2.72 10.88
1/30/2021 9:45:00 PM 1.52 34.736 0.17 6.81 2.78 10.71
1/30/2021 10:00:00 PM 1.57 34.826 0.169 6.8 2.86 10.64
1/30/2021 10:15:00 PM 1.61 34.898 0.168 6.79 2.91 10.54
1/30/2021 10:30:00 PM 1.63 34.934 0.166 6.77 2.76 10.54
1/30/2021 10:45:00 PM 1.83 35.294 0.154 6.73 2.68 10.31
1/30/2021 11:00:00 PM 1.97 35.546 0.15 6.65 2.69 10.15
1/30/2021 11:15:00 PM 2.02 35.636 0.148 6.65 2.93 10.08
1/30/2021 11:30:00 PM 2.04 35.672 0.146 6.64 2.6 10.01
1/30/2021 11:45:00 PM 1.98 35.564 0.146 6.63 2.74 10.05
1/31/2021 12:00:00 AM 2.08 35.744 0.143 6.61 2.72 9.96
1/31/2021 12:15:00 AM 2.18 35.924 0.143 6.6 2.72 9.74
1/31/2021 12:30:00 AM 2.09 35.762 0.143 6.61 2.96 9.89
1/31/2021 12:45:00 AM 2.21 35.978 0.143 6.59 2.78 9.7
1/31/2021 1:00:00 AM 2.24 36.032 0.144 6.59 2.51 9.65
1/31/2021 1:15:00 AM 2.13 35.834 0.143 6.59 2.61 9.72
1/31/2021 1:30:00 AM 2.3 36.14 0.139 6.56 2.59 9.55
1/31/2021 1:45:00 AM 2.17 35.906 0.14 6.56 3.08 9.64
1/31/2021 2:00:00 AM 2.22 35.996 0.138 6.55 2.78 9.58
1/31/2021 2:15:00 AM 2.34 36.212 0.136 6.54 3.06 9.42
1/31/2021 2:30:00 AM 2.3 36.14 0.137 6.54 2.76 9.44
1/31/2021 2:45:00 AM 2.31 36.158 0.136 6.53 2.68 9.41
1/31/2021 3:00:00 AM 2.36 36.248 0.136 6.53 2.59 9.28
1/31/2021 3:15:00 AM 2.4 36.32 0.135 6.52 2.68 9.22
1/31/2021 3:30:00 AM 2.43 36.374 0.134 6.52 2.95 9.2
1/31/2021 3:45:00 AM 2.42 36.356 0.135 6.52 2.65 9.16
1/31/2021 4:00:00 AM 2.38 36.284 0.136 6.52 2.57 9.18
1/31/2021 4:15:00 AM 2.34 36.212 0.136 6.52 2.59 9.25
1/31/2021 4:30:00 AM 2.39 36.302 0.137 6.53 2.55 9.13
1/31/2021 4:45:00 AM 2.28 36.104 0.139 6.53 2.58 9.22
1/31/2021 5:00:00 AM 2.32 36.176 0.138 6.53 2.56 9.13
1/31/2021 5:15:00 AM 2.31 36.158 0.14 6.52 2.88 9.12
1/31/2021 5:30:00 AM 2.32 36.176 0.139 6.53 2.53 9.17
1/31/2021 5:45:00 AM 2.24 36.032 0.142 6.52 2.76 9.12
1/31/2021 6:00:00 AM 2.33 36.194 0.136 6.52 2.75 9.1
1/31/2021 6:15:00 AM 2.39 36.302 0.136 6.51 2.92 8.97
1/31/2021 6:30:00 AM 2.36 36.248 0.139 6.51 2.87 8.95
1/31/2021 6:45:00 AM 2.32 36.176 0.139 6.52 2.6 8.96
1/31/2021 7:00:00 AM 2.19 35.942 0.141 6.53 2.71 9.08
1/31/2021 7:15:00 AM 2.29 36.122 0.139 6.51 2.69 8.93
1/31/2021 7:30:00 AM 2.14 35.852 0.144 6.54 2.56 8.98
1/31/2021 7:45:00 AM 2.27 36.086 0.138 6.51 2.53 8.91
1/31/2021 8:00:00 AM 2.26 36.068 0.14 6.51 2.99 8.89
1/31/2021 8:15:00 AM 2.34 36.212 0.135 6.5 2.49 8.85
1/31/2021 8:30:00 AM 2.35 36.23 0.144 6.52 2.9 8.67
1/31/2021 8:45:00 AM 2.37 36.266 0.154 6.55 3.02 8.28
1/31/2021 9:00:00 AM 2.2 35.96 0.158 6.57 3.17 8.24
1/31/2021 9:15:00 AM 2.11 35.798 0.154 6.58 2.76 8.39
1/31/2021 9:30:00 AM 1.97 35.546 0.153 6.57 2.76 8.69
1/31/2021 9:45:00 AM 1.18 34.124 0.166 6.58 2.78 9.34
1/31/2021 10:00:00 AM 1.11 33.998 0.166 6.59 2.74 9.59
1/31/2021 10:15:00 AM 1.13 34.034 0.166 6.61 2.76 9.76
1/31/2021 10:30:00 AM 0.92 33.656 0.179 6.68 3.33 10.48
1/31/2021 10:45:00 AM 0.86 33.548 0.187 6.75 3.11 10.74
1/31/2021 11:00:00 AM 0.67 33.206 0.194 6.83 3.3 11.36
1/31/2021 11:15:00 AM 0.54 32.972 0.2 6.91 3.09 11.85
1/31/2021 11:30:00 AM 0.49 32.882 0.202 6.95 3.22 12.13
1/31/2021 11:45:00 AM 0.43 32.774 0.203 7 3.18 12.41
1/31/2021 12:00:00 PM 0.37 32.666 0.209 7.07 3.2 12.74
1/31/2021 12:15:00 PM 0.31 32.558 0.211 7.14 3.18 13.06
1/31/2021 12:30:00 PM 0.23 32.414 0.213 7.22 3.15 13.39
1/31/2021 12:45:00 PM 0.18 32.324 0.215 7.29 3.43 13.62
1/31/2021 1:00:00 PM 0.15 32.27 0.215 7.34 3.38 13.76
1/31/2021 1:15:00 PM 0.13 32.234 0.215 7.36 3.17 13.85
1/31/2021 1:30:00 PM 0.15 32.27 0.215 7.38 3.14 13.88
1/31/2021 1:45:00 PM 0.15 32.27 0.215 7.39 3.06 13.91
1/31/2021 2:00:00 PM 0.16 32.288 0.214 7.39 3.08 13.92
1/31/2021 2:15:00 PM 0.15 32.27 0.214 7.41 2.99 13.94
1/31/2021 2:30:00 PM 0.16 32.288 0.213 7.41 2.93 13.94
1/31/2021 2:45:00 PM 0.17 32.306 0.212 7.41 3.07 13.93
1/31/2021 3:00:00 PM 0.19 32.342 0.212 7.4 3.1 13.92
1/31/2021 3:15:00 PM 0.2 32.36 0.211 7.39 3.21 13.87
1/31/2021 3:30:00 PM 0.2 32.36 0.211 7.4 3.81 13.9
1/31/2021 3:45:00 PM 0.18 32.324 0.212 7.4 5.35 13.89
1/31/2021 4:00:00 PM 0.18 32.324 0.211 7.39 7.89 13.85
1/31/2021 4:15:00 PM 0.24 32.432 0.209 7.36 6.91 13.75
1/31/2021 4:30:00 PM 0.27 32.486 0.209 7.34 5.23 13.72
1/31/2021 4:45:00 PM 0.33 32.594 0.206 7.31 4.77 13.6
1/31/2021 5:00:00 PM 0.37 32.666 0.204 7.27 4.47 13.5
1/31/2021 5:15:00 PM 0.4 32.72 0.204 7.26 4.52 13.44
1/31/2021 5:30:00 PM 0.47 32.846 0.201 7.22 4.33 13.35
1/31/2021 5:45:00 PM 0.7 33.26 0.189 7.12 3.33 12.92
1/31/2021 6:00:00 PM 0.64 33.152 0.193 7.12 3.21 12.92
1/31/2021 6:15:00 PM 0.75 33.35 0.189 7.1 3.27 12.78
1/31/2021 6:30:00 PM 0.73 33.314 0.188 7.1 3.15 12.73
1/31/2021 6:45:00 PM 0.82 33.476 0.187 7.05 2.91 12.57
1/31/2021 7:00:00 PM 0.64 33.152 0.194 7.1 3.06 12.7
1/31/2021 7:15:00 PM 0.75 33.35 0.189 7.06 2.97 12.59
1/31/2021 7:30:00 PM 0.65 33.17 0.189 7.08 2.99 12.64
1/31/2021 7:45:00 PM 0.86 33.548 0.184 7.02 3.02 12.37
1/31/2021 8:00:00 PM 0.88 33.584 0.184 7 2.85 12.26
1/31/2021 8:15:00 PM 0.84 33.512 0.186 7.01 2.94 12.23
1/31/2021 8:30:00 PM 0.85 33.53 0.185 7.01 2.86 12.2
1/31/2021 8:45:00 PM 0.87 33.566 0.185 7 2.93 12.09
1/31/2021 9:00:00 PM 0.85 33.53 0.186 7 2.88 12.14
1/31/2021 9:15:00 PM 0.9 33.62 0.183 7 2.77 12.07
1/31/2021 9:30:00 PM 0.94 33.692 0.182 6.98 2.93 11.97
1/31/2021 9:45:00 PM 1.03 33.854 0.182 6.95 2.88 11.72
1/31/2021 10:00:00 PM 1.06 33.908 0.181 6.94 2.73 11.67
1/31/2021 10:15:00 PM 1.06 33.908 0.181 6.95 2.75 11.61
1/31/2021 10:30:00 PM 1.03 33.854 0.183 6.95 2.88 11.61
1/31/2021 10:45:00 PM 1.06 33.908 0.183 6.95 2.77 11.49
1/31/2021 11:00:00 PM 1.09 33.962 0.182 6.94 3.19 11.47
1/31/2021 11:15:00 PM 1.1 33.98 0.181 6.93 3.18 11.39
1/31/2021 11:30:00 PM 1.12 34.016 0.181 6.92 3.02 11.34
1/31/2021 11:45:00 PM 1.12 34.016 0.181 6.92 3.04 11.34
2/1/2021 12:00:00 AM 1.1 33.98 0.18 6.92 2.95 11.38
2/1/2021 12:15:00 AM 1.12 34.016 0.179 6.91 3.06 11.31
2/1/2021 12:30:00 AM 1.15 34.07 0.18 6.91 2.83 11.18
2/1/2021 12:45:00 AM 1.16 34.088 0.178 6.9 2.83 11.13
2/1/2021 1:00:00 AM 1.13 34.034 0.179 6.9 2.9 11.19
2/1/2021 1:15:00 AM 1.09 33.962 0.179 6.91 2.87 11.25
2/1/2021 1:30:00 AM 1.07 33.926 0.18 6.91 2.91 11.19
2/1/2021 1:45:00 AM 1.07 33.926 0.18 6.9 2.95 11.2
2/1/2021 2:00:00 AM 1.06 33.908 0.18 6.91 2.91 11.2
2/1/2021 2:15:00 AM 1.05 33.89 0.18 6.9 2.81 11.19
2/1/2021 2:30:00 AM 1.02 33.836 0.18 6.91 2.78 11.23
2/1/2021 2:45:00 AM 1.05 33.89 0.179 6.9 2.74 11.23
2/1/2021 3:00:00 AM 1.07 33.926 0.179 6.89 2.72 11.16
2/1/2021 3:15:00 AM 1.13 34.034 0.178 6.88 2.8 11.05
2/1/2021 3:30:00 AM 1.16 34.088 0.177 6.88 2.71 10.97
2/1/2021 3:45:00 AM 1.16 34.088 0.177 6.88 2.75 10.99
2/1/2021 4:00:00 AM 1.15 34.07 0.177 6.88 3.22 11.01
2/1/2021 4:15:00 AM 1.13 34.034 0.178 6.88 3.12 11.03
2/1/2021 4:30:00 AM 1.09 33.962 0.178 6.89 2.92 11.05
2/1/2021 4:45:00 AM 1.08 33.944 0.179 6.88 2.99 11.06
2/1/2021 5:00:00 AM 1.11 33.998 0.174 6.87 2.94 11.13
2/1/2021 5:15:00 AM 1.2 34.16 0.169 6.83 2.88 11.15
2/1/2021 5:30:00 AM 1.31 34.358 0.164 6.81 2.82 11.06
2/1/2021 5:45:00 AM 1.29 34.322 0.166 6.81 2.82 11.04
2/1/2021 6:00:00 AM 1.27 34.286 0.167 6.82 2.81 11.11
2/1/2021 6:15:00 AM 1.1 33.98 0.174 6.85 2.87 11.22
2/1/2021 6:30:00 AM 1.09 33.962 0.177 6.86 2.91 11.18
2/1/2021 6:45:00 AM 1.23 34.214 0.172 6.85 2.79 10.97
2/1/2021 7:00:00 AM 1.18 34.124 0.168 6.83 2.92 11.1
2/1/2021 7:15:00 AM 0.82 33.476 0.185 6.88 48.31 11.54
2/1/2021 7:30:00 AM 0.94 33.692 0.172 6.89 3.01 11.54
2/1/2021 7:45:00 AM 1.03 33.854 0.17 6.9 2.81 11.36
2/1/2021 8:00:00 AM 1.26 34.268 0.165 6.83 2.63 11.1
2/1/2021 8:15:00 AM 1.47 34.646 0.16 6.79 2.6 10.84
2/1/2021 8:30:00 AM 1.46 34.628 0.16 6.78 2.66 10.81
2/1/2021 8:45:00 AM 1.24 34.232 0.173 6.81 2.75 11.06
2/1/2021 9:00:00 AM 0.86 33.548 0.181 6.87 2.87 11.47
2/1/2021 9:15:00 AM 0.82 33.476 0.186 6.91 2.82 11.57
2/1/2021 9:30:00 AM 1.1 33.98 0.174 6.87 3.5 11.4
2/1/2021 9:45:00 AM 0.74 33.332 0.188 6.91 2.9 11.69
2/1/2021 10:00:00 AM 0.69 33.242 0.191 6.92 3.15 11.79
2/1/2021 10:15:00 AM 0.68 33.224 0.19 6.96 3.03 11.83
2/1/2021 10:30:00 AM 1.19 34.142 0.17 6.85 3.01 11.38
2/1/2021 10:45:00 AM 1.41 34.538 0.164 6.85 2.75 11.15
2/1/2021 11:00:00 AM 1.31 34.358 0.172 6.86 2.74 11.29
2/1/2021 11:15:00 AM 1.41 34.538 0.168 6.83 2.77 11.24
2/1/2021 11:30:00 AM 1.25 34.25 0.175 6.86 2.71 11.38
2/1/2021 11:45:00 AM 1.26 34.268 0.174 6.88 2.86 11.49
2/1/2021 12:00:00 PM 1.31 34.358 0.173 6.87 2.77 11.48
2/1/2021 12:15:00 PM 1.25 34.25 0.173 6.87 2.97 11.57
2/1/2021 12:30:00 PM 1.33 34.394 0.17 6.86 2.67 11.59
2/1/2021 12:45:00 PM 1.29 34.322 0.172 6.87 2.69 11.6
2/1/2021 1:00:00 PM 1.23 34.214 0.173 6.9 2.65 11.63
2/1/2021 1:15:00 PM 1.22 34.196 0.175 6.86 2.67 11.75
2/1/2021 1:30:00 PM 1.21 34.178 0.174 6.88 2.71 11.7
2/1/2021 1:45:00 PM 1.24 34.232 0.172 6.87 2.7 11.76
2/1/2021 2:00:00 PM 1.21 34.178 0.175 6.89 2.63 11.77
2/1/2021 2:15:00 PM 1.18 34.124 0.174 6.9 2.65 11.75
2/1/2021 2:30:00 PM 1.23 34.214 0.173 6.92 2.72 11.83
2/1/2021 2:45:00 PM 1.11 33.998 0.178 6.91 2.64 11.84
2/1/2021 3:00:00 PM 1.24 34.232 0.172 6.91 2.68 11.78
2/1/2021 3:15:00 PM 1.3 34.34 0.171 6.9 2.6 11.67
2/1/2021 3:30:00 PM 1.26 34.268 0.171 6.9 2.69 11.72
2/1/2021 3:45:00 PM 1.26 34.268 0.172 6.9 2.59 11.73
2/1/2021 4:00:00 PM 1.3 34.34 0.17 6.89 2.69 11.75
2/1/2021 4:15:00 PM 1.27 34.286 0.171 6.87 2.66 11.73
2/1/2021 4:30:00 PM 1.26 34.268 0.17 6.88 2.67 11.73
2/1/2021 4:45:00 PM 1.15 34.07 0.174 6.88 2.65 11.73
2/1/2021 5:00:00 PM 1 33.8 0.178 6.95 2.73 11.94
2/1/2021 5:15:00 PM 1.14 34.052 0.173 6.91 2.86 11.75
2/1/2021 5:30:00 PM 1.07 33.926 0.174 6.91 2.98 11.77
2/1/2021 5:45:00 PM 1.18 34.124 0.169 6.91 2.55 11.75
2/1/2021 6:00:00 PM 1.25 34.25 0.167 6.88 2.67 11.53
2/1/2021 6:15:00 PM 1.12 34.016 0.17 6.92 2.65 11.79
2/1/2021 6:30:00 PM 1.27 34.286 0.166 6.85 2.86 11.56
2/1/2021 6:45:00 PM 1.36 34.448 0.163 6.84 2.68 11.44
2/1/2021 7:00:00 PM 0.84 33.512 0.181 6.93 2.74 11.94
2/1/2021 7:15:00 PM 1.23 34.214 0.166 6.88 2.63 11.5
2/1/2021 7:30:00 PM 1.16 34.088 0.18 6.86 2.54 11.52
2/1/2021 7:45:00 PM 1.25 34.25 0.166 6.87 2.57 11.44
2/1/2021 8:00:00 PM 1.22 34.196 0.168 6.88 2.55 11.54
2/1/2021 8:15:00 PM 1.14 34.052 0.17 6.87 2.6 11.54
2/1/2021 8:30:00 PM 1.18 34.124 0.172 6.88 2.75 11.41
2/1/2021 8:45:00 PM 1.18 34.124 0.171 6.87 4.74 11.42
2/1/2021 9:00:00 PM 1.15 34.07 0.17 6.87 3.36 11.44
2/1/2021 9:15:00 PM 1.14 34.052 0.171 6.87 3.2 11.43
2/1/2021 9:30:00 PM 1.18 34.124 0.168 6.86 2.88 11.39
2/1/2021 9:45:00 PM 1.1 33.98 0.171 6.87 2.88 11.45
2/1/2021 10:00:00 PM 1.14 34.052 0.171 6.86 2.84 11.39
2/1/2021 10:15:00 PM 1.1 33.98 0.171 6.86 2.81 11.39
2/1/2021 10:30:00 PM 1.07 33.926 0.172 6.87 2.69 11.46
2/1/2021 10:45:00 PM 1.01 33.818 0.175 6.91 2.74 11.52
2/1/2021 11:00:00 PM 0.92 33.656 0.178 6.92 2.82 11.59
2/1/2021 11:15:00 PM 0.98 33.764 0.175 6.92 2.71 11.55
2/1/2021 11:30:00 PM 1.14 34.052 0.168 6.87 2.98 11.41
2/1/2021 11:45:00 PM 1.24 34.232 0.165 6.84 2.7 11.29
2/2/2021 12:00:00 AM 1.12 34.016 0.168 6.91 2.85 11.47
2/2/2021 12:15:00 AM 1.07 33.926 0.17 6.89 2.84 11.55
2/2/2021 12:30:00 AM 1.13 34.034 0.168 6.85 2.72 11.41
2/2/2021 12:45:00 AM 1.01 33.818 0.173 6.89 2.76 11.54
2/2/2021 1:00:00 AM 1.02 33.836 0.174 6.91 2.99 11.57
2/2/2021 1:15:00 AM 1.06 33.908 0.172 6.89 3.27 11.46
2/2/2021 1:30:00 AM 1.1 33.98 0.171 6.87 2.97 11.39
2/2/2021 1:45:00 AM 1.05 33.89 0.173 6.89 2.94 11.41
2/2/2021 2:00:00 AM 1.07 33.926 0.169 6.88 2.92 11.39
2/2/2021 2:15:00 AM 1.11 33.998 0.171 6.88 2.84 11.31
2/2/2021 2:30:00 AM 1.17 34.106 0.167 6.85 2.86 11.2
2/2/2021 2:45:00 AM 1.23 34.214 0.166 6.84 2.92 11.1
2/2/2021 3:00:00 AM 1.3 34.34 0.164 6.83 2.82 11.01
2/2/2021 3:15:00 AM 1.29 34.322 0.163 6.83 2.85 10.96
2/2/2021 3:30:00 AM 1.34 34.412 0.163 6.8 2.95 10.83
2/2/2021 3:45:00 AM 1.31 34.358 0.16 6.8 3.01 10.81
2/2/2021 4:00:00 AM 1.35 34.43 0.16 6.78 3.01 10.71
2/2/2021 4:15:00 AM 1.45 34.61 0.162 6.78 3.08 10.51
2/2/2021 4:30:00 AM 1.52 34.736 0.16 6.76 2.89 10.38
2/2/2021 4:45:00 AM 1.72 35.096 0.149 6.71 3.1 10.2
2/2/2021 5:00:00 AM 1.81 35.258 0.14 6.66 2.88 10.2
2/2/2021 5:15:00 AM 1.91 35.438 0.139 6.65 2.88 10.08
2/2/2021 5:30:00 AM 1.98 35.564 0.138 6.64 2.85 10.01
2/2/2021 5:45:00 AM 2.02 35.636 0.135 6.63 2.73 9.95
2/2/2021 6:00:00 AM 2.09 35.762 0.135 6.61 2.73 9.88
2/2/2021 6:15:00 AM 2.09 35.762 0.136 6.61 2.72 9.83
2/2/2021 6:30:00 AM 2.12 35.816 0.138 6.62 2.83 9.84
2/2/2021 6:45:00 AM 2.1 35.78 0.142 6.62 2.68 9.83
2/2/2021 7:00:00 AM 2.01 35.618 0.145 6.64 2.62 9.77
2/2/2021 7:15:00 AM 1.9 35.42 0.147 6.66 3.26 9.81
2/2/2021 7:30:00 AM 1.8 35.24 0.155 6.68 3 9.74
2/2/2021 7:45:00 AM 1.49 34.682 0.16 6.72 2.88 10.02
2/2/2021 8:00:00 AM 1.33 34.394 0.167 6.74 2.84 10.07
2/2/2021 8:15:00 AM 1.24 34.232 0.172 6.76 2.98 9.88
2/2/2021 8:30:00 AM 1.12 34.016 0.171 6.76 2.7 9.93
2/2/2021 8:45:00 AM 1.13 34.034 0.167 6.74 2.68 10.05
2/2/2021 9:00:00 AM 1.11 33.998 0.164 6.74 2.64 10.31
2/2/2021 9:15:00 AM 0.76 33.368 0.179 6.8 2.85 10.92
2/2/2021 9:30:00 AM 0.89 33.602 0.174 6.82 2.79 11.07
2/2/2021 9:45:00 AM 0.9 33.62 0.179 6.84 2.81 11.18
2/2/2021 10:00:00 AM 0.68 33.224 0.183 6.88 2.86 11.41
2/2/2021 10:15:00 AM 0.85 33.53 0.179 6.89 2.84 11.45
2/2/2021 10:30:00 AM 0.79 33.422 0.183 6.91 2.88 11.48
2/2/2021 10:45:00 AM 0.83 33.494 0.186 6.92 2.9 11.46
2/2/2021 11:00:00 AM 0.76 33.368 0.188 6.94 2.89 11.53
2/2/2021 11:15:00 AM 0.58 33.044 0.194 6.98 2.91 11.77
2/2/2021 11:30:00 AM 0.49 32.882 0.196 7.02 2.86 11.93
2/2/2021 11:45:00 AM 0.36 32.648 0.2 7.05 3.3 12.11
2/2/2021 12:00:00 PM 0.29 32.522 0.203 7.09 3.15 12.28
2/2/2021 12:15:00 PM 0.26 32.468 0.206 7.13 3.21 12.43
2/2/2021 12:30:00 PM 0.22 32.396 0.208 7.17 3.28 12.64
2/2/2021 12:45:00 PM 0.17 32.306 0.209 7.24 3.38 12.93
2/2/2021 1:00:00 PM 0.12 32.216 0.209 7.28 3.45 13.08
2/2/2021 1:15:00 PM 0.11 32.198 0.209 7.31 3.1 13.19
2/2/2021 1:30:00 PM 0.13 32.234 0.209 7.32 3.12 13.2
2/2/2021 1:45:00 PM 0.16 32.288 0.208 7.32 3.05 13.18
2/2/2021 2:00:00 PM 0.19 32.342 0.207 7.31 3 13.2
2/2/2021 2:15:00 PM 0.22 32.396 0.207 7.31 2.91 13.19
2/2/2021 2:30:00 PM 0.23 32.414 0.206 7.3 2.93 13.18
2/2/2021 2:45:00 PM 0.22 32.396 0.205 7.3 3.06 13.17
2/2/2021 3:00:00 PM 0.24 32.432 0.204 7.29 2.88 13.16
2/2/2021 3:15:00 PM 0.23 32.414 0.204 7.29 2.8 13.16
2/2/2021 3:30:00 PM 0.22 32.396 0.204 7.29 2.91 13.15
2/2/2021 3:45:00 PM 0.21 32.378 0.204 7.29 2.89 13.16
2/2/2021 4:00:00 PM 0.23 32.414 0.204 7.29 2.88 13.13
2/2/2021 4:15:00 PM 0.23 32.414 0.203 7.29 2.98 13.14
2/2/2021 4:30:00 PM 0.23 32.414 0.203 7.28 2.93 13.11
2/2/2021 4:45:00 PM 0.23 32.414 0.203 7.28 2.91 13.09
2/2/2021 5:00:00 PM 0.24 32.432 0.202 7.27 2.9 13.04
2/2/2021 5:15:00 PM 0.25 32.45 0.202 7.26 4.41 12.99
2/2/2021 5:30:00 PM 0.28 32.504 0.201 7.24 3.01 12.93
2/2/2021 5:45:00 PM 0.31 32.558 0.2 7.23 3.11 12.86
2/2/2021 6:00:00 PM 0.35 32.63 0.199 7.21 3.28 12.77
2/2/2021 6:15:00 PM 0.39 32.702 0.198 7.19 2.72 12.69
2/2/2021 6:30:00 PM 0.43 32.774 0.197 7.17 3.19 12.6
2/2/2021 6:45:00 PM 0.44 32.792 0.197 7.16 3.22 12.53
2/2/2021 7:00:00 PM 0.46 32.828 0.197 7.16 3.06 12.5
2/2/2021 7:15:00 PM 0.45 32.81 0.197 7.15 3.16 12.48
2/2/2021 7:30:00 PM 0.44 32.792 0.197 7.15 3.2 12.46
2/2/2021 7:45:00 PM 0.61 33.098 0.191 7.11 2.8 12.24
2/2/2021 8:00:00 PM 0.65 33.17 0.191 7.11 2.71 12.24
2/2/2021 8:15:00 PM 0.71 33.278 0.189 7.11 2.71 12.1
2/2/2021 8:30:00 PM 0.69 33.242 0.191 7.08 2.75 12.08
2/2/2021 8:45:00 PM 0.78 33.404 0.187 7.05 2.93 11.95
2/2/2021 9:00:00 PM 0.81 33.458 0.187 7.04 2.58 11.89
2/2/2021 9:15:00 PM 0.78 33.404 0.188 7.03 2.58 11.88
2/2/2021 9:30:00 PM 0.8 33.44 0.187 7.01 2.68 11.85
2/2/2021 9:45:00 PM 0.59 33.062 0.195 7.07 3.01 12.02
2/2/2021 10:00:00 PM 0.69 33.242 0.19 7.06 2.53 11.95
2/2/2021 10:15:00 PM 0.76 33.368 0.189 7.05 2.59 11.87
2/2/2021 10:30:00 PM 0.57 33.026 0.196 7.07 2.58 12.03
2/2/2021 10:45:00 PM 0.69 33.242 0.19 7.07 2.6 11.94
2/2/2021 11:00:00 PM 0.75 33.35 0.188 7.04 2.62 11.86
2/2/2021 11:15:00 PM 0.73 33.314 0.189 7.05 2.48 11.87
2/2/2021 11:30:00 PM 0.74 33.332 0.189 7.03 2.55 11.85
2/2/2021 11:45:00 PM 0.62 33.116 0.194 7.06 2.57 11.97
2/3/2021 12:00:00 AM 0.59 33.062 0.195 7.07 2.57 12
2/3/2021 12:15:00 AM 0.57 33.026 0.196 7.08 2.61 11.98
2/3/2021 12:30:00 AM 0.54 32.972 0.196 7.08 2.71 12
2/3/2021 12:45:00 AM 0.54 32.972 0.196 7.08 2.68 12.03
2/3/2021 1:00:00 AM 0.5 32.9 0.196 7.09 2.81 12.06
2/3/2021 1:15:00 AM 0.46 32.828 0.197 7.09 3.11 12.11
2/3/2021 1:30:00 AM 0.45 32.81 0.197 7.1 3.16 12.14
2/3/2021 1:45:00 AM 0.48 32.864 0.195 7.1 3.16 12.13
2/3/2021 2:00:00 AM 0.5 32.9 0.195 7.1 3.06 12.11
2/3/2021 2:15:00 AM 0.52 32.936 0.195 7.09 2.89 12.05
2/3/2021 2:30:00 AM 0.52 32.936 0.196 7.09 2.96 12.02
2/3/2021 2:45:00 AM 0.46 32.828 0.197 7.1 2.76 12.06
2/3/2021 3:00:00 AM 0.44 32.792 0.197 7.1 2.74 12.07
2/3/2021 3:15:00 AM 0.42 32.756 0.197 7.11 2.83 12.13
2/3/2021 3:30:00 AM 0.39 32.702 0.197 7.12 2.76 12.21
2/3/2021 3:45:00 AM 0.35 32.63 0.197 7.13 2.66 12.26
2/3/2021 4:00:00 AM 0.35 32.63 0.197 7.13 2.71 12.29
2/3/2021 4:15:00 AM 0.34 32.612 0.198 7.13 2.71 12.29
2/3/2021 4:30:00 AM 0.31 32.558 0.198 7.14 2.85 12.31
2/3/2021 4:45:00 AM 0.32 32.576 0.198 7.14 2.68 12.3
2/3/2021 5:00:00 AM 0.32 32.576 0.198 7.14 2.68 12.31
2/3/2021 5:15:00 AM 0.33 32.594 0.197 7.14 2.82 12.33
2/3/2021 5:30:00 AM 0.33 32.594 0.197 7.14 2.93 12.33
2/3/2021 5:45:00 AM 0.35 32.63 0.197 7.14 3.48 12.31
2/3/2021 6:00:00 AM 0.34 32.612 0.197 7.14 2.82 12.33
2/3/2021 6:15:00 AM 0.34 32.612 0.197 7.14 3.75 12.32
2/3/2021 6:30:00 AM 0.32 32.576 0.197 7.15 3.4 12.34
2/3/2021 6:45:00 AM 0.31 32.558 0.197 7.15 3.27 12.37
2/3/2021 7:00:00 AM 0.32 32.576 0.197 7.15 2.94 12.34
2/3/2021 7:15:00 AM 0.32 32.576 0.197 7.15 2.79 12.33
2/3/2021 7:30:00 AM 0.35 32.63 0.197 7.14 2.84 12.33
2/3/2021 7:45:00 AM 0.37 32.666 0.196 7.14 2.74 12.31
2/3/2021 8:00:00 AM 0.35 32.63 0.197 7.14 2.7 12.35
2/3/2021 8:15:00 AM 0.37 32.666 0.196 7.14 2.8 12.34
2/3/2021 8:30:00 AM 0.35 32.63 0.196 7.15 2.7 12.37
2/3/2021 8:45:00 AM 0.34 32.612 0.197 7.16 2.67 12.4
2/3/2021 9:00:00 AM 0.31 32.558 0.198 7.17 2.7 12.43
2/3/2021 9:15:00 AM 0.31 32.558 0.199 7.17 2.72 12.47
2/3/2021 9:30:00 AM 0.31 32.558 0.199 7.18 2.74 12.5
2/3/2021 9:45:00 AM 0.32 32.576 0.199 7.2 2.71 12.52
2/3/2021 10:00:00 AM 0.39 32.702 0.197 7.18 2.73 12.52
2/3/2021 10:15:00 AM 0.37 32.666 0.199 7.18 2.68 12.57
2/3/2021 10:30:00 AM 0.34 32.612 0.2 7.2 2.7 12.64
2/3/2021 10:45:00 AM 0.34 32.612 0.2 7.21 2.7 12.67
2/3/2021 11:00:00 AM 0.34 32.612 0.2 7.22 2.61 12.71
2/3/2021 11:15:00 AM 0.34 32.612 0.2 7.22 2.59 12.74
2/3/2021 11:30:00 AM 0.34 32.612 0.2 7.22 2.83 12.76
2/3/2021 11:45:00 AM 0.34 32.612 0.2 7.23 2.67 12.8
2/3/2021 12:00:00 PM 0.36 32.648 0.2 7.23 2.61 12.81
2/3/2021 12:15:00 PM 0.36 32.648 0.199 7.23 2.66 12.84
2/3/2021 12:30:00 PM 0.39 32.702 0.199 7.22 2.63 12.85
2/3/2021 12:45:00 PM 0.42 32.756 0.197 7.21 2.6 12.83
2/3/2021 1:00:00 PM 0.4 32.72 0.198 7.23 2.52 12.86
2/3/2021 1:15:00 PM 0.41 32.738 0.198 7.23 2.96 12.88
2/3/2021 1:30:00 PM 0.36 32.648 0.198 7.23 2.61 12.89
2/3/2021 1:45:00 PM 0.37 32.666 0.198 7.23 2.52 12.89
2/3/2021 2:00:00 PM 0.36 32.648 0.197 7.23 2.54 12.88
2/3/2021 2:15:00 PM 0.35 32.63 0.197 7.23 2.85 12.89
2/3/2021 2:30:00 PM 0.36 32.648 0.197 7.22 2.55 12.87
2/3/2021 2:45:00 PM 0.36 32.648 0.197 7.22 2.53 12.88
2/3/2021 3:00:00 PM 0.35 32.63 0.197 7.22 2.57 12.87
2/3/2021 3:15:00 PM 0.36 32.648 0.196 7.22 2.56 12.84
2/3/2021 3:30:00 PM 0.35 32.63 0.196 7.21 2.49 12.82
2/3/2021 3:45:00 PM 0.38 32.684 0.196 7.2 2.53 12.79
2/3/2021 4:00:00 PM 0.37 32.666 0.196 7.2 2.52 12.79
2/3/2021 4:15:00 PM 0.35 32.63 0.197 7.21 2.62 12.83
2/3/2021 4:30:00 PM 0.34 32.612 0.197 7.21 2.62 12.83
2/3/2021 4:45:00 PM 0.36 32.648 0.196 7.21 2.55 12.79
2/3/2021 5:00:00 PM 0.39 32.702 0.195 7.2 2.56 12.75
2/3/2021 5:15:00 PM 0.41 32.738 0.195 7.19 2.57 12.72
2/3/2021 5:30:00 PM 0.44 32.792 0.195 7.18 2.47 12.65
2/3/2021 5:45:00 PM 0.44 32.792 0.195 7.17 2.47 12.62
2/3/2021 6:00:00 PM 0.42 32.756 0.194 7.19 2.57 12.62
2/3/2021 6:15:00 PM 0.49 32.882 0.194 7.18 2.44 12.56
2/3/2021 6:30:00 PM 0.68 33.224 0.187 7.15 2.43 12.27
2/3/2021 6:45:00 PM 0.5 32.9 0.193 7.16 2.42 12.44
2/3/2021 7:00:00 PM 0.47 32.846 0.195 7.15 2.48 12.46
2/3/2021 7:15:00 PM 0.42 32.756 0.196 7.16 2.45 12.5
2/3/2021 7:30:00 PM 0.41 32.738 0.196 7.15 2.47 12.51
2/3/2021 7:45:00 PM 0.43 32.774 0.196 7.15 2.5 12.49
2/3/2021 8:00:00 PM 0.42 32.756 0.195 7.15 2.47 12.47
2/3/2021 8:15:00 PM 0.48 32.864 0.193 7.15 2.48 12.4
2/3/2021 8:30:00 PM 0.5 32.9 0.193 7.13 2.45 12.39
2/3/2021 8:45:00 PM 0.49 32.882 0.193 7.13 2.47 12.36
2/3/2021 9:00:00 PM 0.64 33.152 0.189 7.11 2.4 12.21
2/3/2021 9:15:00 PM 0.6 33.08 0.189 7.1 2.5 12.21
2/3/2021 9:30:00 PM 0.7 33.26 0.187 7.11 2.45 12.12
2/3/2021 9:45:00 PM 0.69 33.242 0.187 7.09 2.48 12.11
2/3/2021 10:00:00 PM 0.58 33.044 0.191 7.09 2.57 12.2
2/3/2021 10:15:00 PM 0.59 33.062 0.191 7.09 2.52 12.22
2/3/2021 10:30:00 PM 0.75 33.35 0.183 7.05 2.65 12.02
2/3/2021 10:45:00 PM 0.7 33.26 0.185 7.05 2.58 12.06
2/3/2021 11:00:00 PM 0.66 33.188 0.187 7.05 2.95 12.13
2/3/2021 11:15:00 PM 0.9 33.62 0.177 6.99 2.59 11.86
2/3/2021 11:30:00 PM 0.9 33.62 0.177 6.95 2.61 11.81
2/3/2021 11:45:00 PM 0.89 33.602 0.178 6.95 3.38 11.83
2/4/2021 12:00:00 AM 0.79 33.422 0.181 6.97 2.81 11.91
2/4/2021 12:15:00 AM 0.78 33.404 0.18 6.98 2.76 11.93
2/4/2021 12:30:00 AM 0.57 33.026 0.189 7.04 2.68 12.12
2/4/2021 12:45:00 AM 0.57 33.026 0.19 7.06 2.69 12.16
2/4/2021 1:00:00 AM 0.73 33.314 0.182 7.02 2.73 11.98
2/4/2021 1:15:00 AM 0.68 33.224 0.185 6.99 2.62 12.01
2/4/2021 1:30:00 AM 0.74 33.332 0.183 7.01 2.77 11.95
2/4/2021 1:45:00 AM 0.75 33.35 0.18 6.99 2.7 11.96
2/4/2021 2:00:00 AM 0.63 33.134 0.187 7.01 2.73 12.06
2/4/2021 2:15:00 AM 0.48 32.864 0.191 7.08 2.89 12.27
2/4/2021 2:30:00 AM 0.48 32.864 0.193 7.06 2.73 12.27
2/4/2021 2:45:00 AM 0.53 32.954 0.19 7.06 2.72 12.19
2/4/2021 3:00:00 AM 0.66 33.188 0.186 7.02 2.74 12.07
2/4/2021 3:15:00 AM 0.7 33.26 0.183 7.03 2.5 12.02
2/4/2021 3:30:00 AM 0.77 33.386 0.181 7.01 2.59 11.89
2/4/2021 3:45:00 AM 0.83 33.494 0.182 6.95 2.56 11.76
2/4/2021 4:00:00 AM 0.86 33.548 0.182 6.97 2.55 11.73
2/4/2021 4:15:00 AM 0.83 33.494 0.18 6.97 2.74 11.74
2/4/2021 4:30:00 AM 0.91 33.638 0.18 6.95 2.57 11.68
2/4/2021 4:45:00 AM 0.91 33.638 0.178 6.94 2.6 11.61
2/4/2021 5:00:00 AM 0.96 33.728 0.177 6.92 2.77 11.56
2/4/2021 5:15:00 AM 0.97 33.746 0.177 6.92 3.03 11.54
2/4/2021 5:30:00 AM 0.98 33.764 0.177 6.91 3.13 11.52
2/4/2021 5:45:00 AM 0.93 33.674 0.178 6.91 3.12 11.53
2/4/2021 6:00:00 AM 0.94 33.692 0.178 6.91 2.88 11.51
2/4/2021 6:15:00 AM 1 33.8 0.175 6.89 3.04 11.45
2/4/2021 6:30:00 AM 1.09 33.962 0.173 6.87 3.44 11.32
2/4/2021 6:45:00 AM 1.08 33.944 0.172 6.85 3.17 11.28
2/4/2021 7:00:00 AM 1.16 34.088 0.172 6.86 3.19 11.19
2/4/2021 7:15:00 AM 1.13 34.034 0.173 6.86 2.76 11.17
2/4/2021 7:30:00 AM 1.08 33.944 0.175 6.87 3.2 11.17
2/4/2021 7:45:00 AM 1.16 34.088 0.172 6.85 4.6 11.11
2/4/2021 8:00:00 AM 1.08 33.944 0.175 6.86 2.83 11.16
2/4/2021 8:15:00 AM 1.06 33.908 0.175 6.86 2.66 11.2
2/4/2021 8:30:00 AM 1.06 33.908 0.176 6.86 2.68 11.25
2/4/2021 8:45:00 AM 1 33.8 0.177 6.88 2.87 11.35
2/4/2021 9:00:00 AM 1.18 34.124 0.17 6.85 2.68 11.21
2/4/2021 9:15:00 AM 1.21 34.178 0.171 6.83 2.7 11.27
2/4/2021 9:30:00 AM 1.21 34.178 0.169 6.84 2.87 11.27
2/4/2021 9:45:00 AM 1.27 34.286 0.166 6.82 2.59 11.23
2/4/2021 10:00:00 AM 0.84 33.512 0.182 6.9 2.85 11.7
2/4/2021 10:15:00 AM 1.21 34.178 0.172 6.85 2.68 11.47
2/4/2021 10:30:00 AM 1.17 34.106 0.173 6.87 2.53 11.5
2/4/2021 10:45:00 AM 1.31 34.358 0.17 6.85 2.82 11.41
2/4/2021 11:00:00 AM 1.24 34.232 0.173 6.86 2.49 11.4
2/4/2021 11:15:00 AM 1.23 34.214 0.174 6.88 2.51 11.46
2/4/2021 11:30:00 AM 1.46 34.628 0.166 6.84 2.58 11.42
2/4/2021 11:45:00 AM 1.35 34.43 0.172 6.87 2.53 11.6
2/4/2021 12:00:00 PM 1.44 34.592 0.17 6.85 2.61 11.58
2/4/2021 12:15:00 PM 1.25 34.25 0.177 6.89 2.54 11.67
2/4/2021 12:30:00 PM 1.14 34.052 0.184 6.93 2.66 11.9
2/4/2021 12:45:00 PM 1.45 34.61 0.173 6.87 2.5 11.69
2/4/2021 1:00:00 PM 1.41 34.538 0.179 6.91 2.5 11.84
2/4/2021 1:15:00 PM 1.58 34.844 0.173 6.89 2.62 11.73
2/4/2021 1:30:00 PM 1.57 34.826 0.178 6.92 2.56 11.85
2/4/2021 1:45:00 PM 1.61 34.898 0.178 6.93 2.49 11.91
2/4/2021 2:00:00 PM 1.84 35.312 0.169 6.88 2.5 11.75
2/4/2021 2:15:00 PM 1.85 35.33 0.17 6.89 2.46 11.83
2/4/2021 2:30:00 PM 1.93 35.474 0.168 6.87 2.36 11.74
2/4/2021 2:45:00 PM 1.92 35.456 0.17 6.87 2.43 11.72
2/4/2021 3:00:00 PM 1.97 35.546 0.165 6.84 2.53 11.63
2/4/2021 3:15:00 PM 2.05 35.69 0.162 6.82 2.41 11.6
2/4/2021 3:30:00 PM 1.91 35.438 0.165 6.82 2.39 11.64
2/4/2021 3:45:00 PM 1.71 35.078 0.167 6.85 2.48 11.7
2/4/2021 4:00:00 PM 1.62 34.916 0.167 6.84 2.61 11.77
2/4/2021 4:15:00 PM 1.7 35.06 0.163 6.82 2.53 11.59
2/4/2021 4:30:00 PM 1.5 34.7 0.17 6.88 2.37 11.69
2/4/2021 4:45:00 PM 1.44 34.592 0.169 6.86 2.36 11.68
2/4/2021 5:00:00 PM 1.3 34.34 0.172 6.87 2.45 11.67
2/4/2021 5:15:00 PM 1.23 34.214 0.175 6.88 2.42 11.66
2/4/2021 5:30:00 PM 1.25 34.25 0.173 6.86 3.49 11.55
2/4/2021 5:45:00 PM 1.29 34.322 0.172 6.86 2.99 11.48
2/4/2021 6:00:00 PM 1.16 34.088 0.174 6.88 2.85 11.5
2/4/2021 6:15:00 PM 1.15 34.07 0.174 6.87 3.3 11.49
2/4/2021 6:30:00 PM 1.16 34.088 0.173 6.87 2.97 11.42
2/4/2021 6:45:00 PM 1.2 34.16 0.172 6.87 2.76 11.39
2/4/2021 7:00:00 PM 1.14 34.052 0.173 6.86 2.8 11.39
2/4/2021 7:15:00 PM 1.1 33.98 0.173 6.86 2.93 11.36
2/4/2021 7:30:00 PM 1.1 33.98 0.173 6.86 2.86 11.33
2/4/2021 7:45:00 PM 1.05 33.89 0.173 6.86 3.09 11.37
2/4/2021 8:00:00 PM 1.14 34.052 0.167 6.85 3.12 11.27
2/4/2021 8:15:00 PM 1.14 34.052 0.17 6.85 3.27 11.22
2/4/2021 8:30:00 PM 1.06 33.908 0.171 6.85 3.02 11.3
2/4/2021 8:45:00 PM 1.22 34.196 0.166 6.79 3.32 11.11
2/4/2021 9:00:00 PM 1.19 34.142 0.167 6.81 3.39 11.11
2/4/2021 9:15:00 PM 1.16 34.088 0.167 6.82 3.01 11.09
2/4/2021 9:30:00 PM 1.08 33.944 0.17 6.83 2.8 11.15
2/4/2021 9:45:00 PM 1.1 33.98 0.17 6.81 2.51 11.13
2/4/2021 10:00:00 PM 1.12 34.016 0.168 6.83 2.68 11.12
2/4/2021 10:15:00 PM 1.13 34.034 0.168 6.84 2.54 11.14
2/4/2021 10:30:00 PM 1.2 34.16 0.165 6.82 2.38 11.08
2/4/2021 10:45:00 PM 1.09 33.962 0.167 6.84 2.37 11.19
2/4/2021 11:00:00 PM 0.73 33.314 0.184 6.88 2.5 11.52
2/4/2021 11:15:00 PM 1.08 33.944 0.171 6.85 2.41 11.2
2/4/2021 11:30:00 PM 1.17 34.106 0.168 6.82 2.48 11.08
2/4/2021 11:45:00 PM 1.25 34.25 0.166 6.8 2.4 10.99
2/5/2021 12:00:00 AM 1.28 34.304 0.165 6.78 2.37 10.92
2/5/2021 12:15:00 AM 1.2 34.16 0.168 6.79 2.5 11
2/5/2021 12:30:00 AM 1.23 34.214 0.168 6.8 2.76 10.93
2/5/2021 12:45:00 AM 1.25 34.25 0.168 6.78 2.84 10.93
2/5/2021 1:00:00 AM 1.25 34.25 0.168 6.79 3.31 10.89
2/5/2021 1:15:00 AM 1.18 34.124 0.174 6.82 3.36 10.93
2/5/2021 1:30:00 AM 1.15 34.07 0.175 6.83 4.03 10.95
2/5/2021 1:45:00 AM 1.12 34.016 0.176 6.84 2.52 11.01
2/5/2021 2:00:00 AM 1.12 34.016 0.175 6.84 2.51 11.05
2/5/2021 2:15:00 AM 1.19 34.142 0.172 6.83 2.49 11.01
2/5/2021 2:30:00 AM 1.27 34.286 0.168 6.81 2.52 10.92
2/5/2021 2:45:00 AM 1.25 34.25 0.17 6.81 2.55 10.93
2/5/2021 3:00:00 AM 1.17 34.106 0.171 6.82 2.51 11.01
2/5/2021 3:15:00 AM 1.22 34.196 0.168 6.81 2.5 11
2/5/2021 3:30:00 AM 1.3 34.34 0.166 6.79 2.5 10.95
2/5/2021 3:45:00 AM 1.19 34.142 0.172 6.82 2.51 10.99
2/5/2021 4:00:00 AM 1.25 34.25 0.171 6.83 2.5 10.94
2/5/2021 4:15:00 AM 1.28 34.304 0.171 6.83 2.62 10.9
2/5/2021 4:30:00 AM 1.13 34.034 0.175 6.85 2.93 11.13
2/5/2021 4:45:00 AM 1.23 34.214 0.174 6.84 2.89 11
2/5/2021 5:00:00 AM 1.17 34.106 0.173 6.85 2.89 11.14
2/5/2021 5:15:00 AM 1.4 34.52 0.164 6.81 2.71 10.97
2/5/2021 5:30:00 AM 1.45 34.61 0.164 6.79 2.52 10.87
2/5/2021 5:45:00 AM 1.32 34.376 0.173 6.79 2.89 10.93
2/5/2021 6:00:00 AM 1.19 34.142 0.173 6.85 2.66 11.11
2/5/2021 6:15:00 AM 1.23 34.214 0.17 6.84 2.72 11.13
2/5/2021 6:30:00 AM 1.28 34.304 0.169 6.82 2.81 11.11
2/5/2021 6:45:00 AM 1.32 34.376 0.169 6.82 2.64 10.99
2/5/2021 7:00:00 AM 1.27 34.286 0.169 6.82 2.67 11.03
2/5/2021 7:15:00 AM 1.05 33.89 0.178 6.84 2.72 11.26
2/5/2021 7:30:00 AM 1.23 34.214 0.172 6.85 2.62 11.11
2/5/2021 7:45:00 AM 1.26 34.268 0.172 6.84 2.86 11.04
2/5/2021 8:00:00 AM 1.24 34.232 0.173 6.83 2.64 11.04
2/5/2021 8:15:00 AM 1.15 34.07 0.176 6.86 2.59 11.13
2/5/2021 8:30:00 AM 1.19 34.142 0.173 6.86 2.58 11.12
2/5/2021 8:45:00 AM 1.23 34.214 0.173 6.86 2.51 11.16
2/5/2021 9:00:00 AM 1.23 34.214 0.173 6.87 2.57 11.2
2/5/2021 9:15:00 AM 1.26 34.268 0.174 6.88 2.57 11.23
2/5/2021 9:30:00 AM 1.14 34.052 0.176 6.87 2.62 11.38
2/5/2021 9:45:00 AM 1.06 33.908 0.182 6.9 2.61 11.6
2/5/2021 10:00:00 AM 1.42 34.556 0.177 6.85 2.56 11.35
2/5/2021 10:15:00 AM 1.29 34.322 0.175 6.89 2.62 11.49
2/5/2021 10:30:00 AM 1.24 34.232 0.177 6.9 2.56 11.55
2/5/2021 10:45:00 AM 1.22 34.196 0.179 6.